PWSweather.com
Personal Weather Stations
Station Observations
DL5ARK
SonnebergDE

SonnebergDE

Lat: 50.34904861, Lon: 11.18112087

Elevation: 1214

Station Type: Selfmade

http://www.sumbarg.de

High Low Average
Temperature 77.8°F25.4°C 55.6°F13.1°C 65.2°F18.4°C
Dew Point 69.5°F20.8°C 59.1°F15.1°C 63.5°F17.5°C
Winds 8.1 mph 13.0 kmh Calm Calm 1.0 mph S1.6 kmh S
Wind Gusts 8.2 mph13.2 kmh -- 1.0 mph1.6 kmh
Humidity 83% 49% 72%
Pressure 30.03 in1016.9 mb 29.83 in1010.2 mb -
Precipitation 0.04 in1.0 mm - -
Hour Temp Dew Point Humidity Winds Wind Gusts Pressure Precip Precip Rate Daily Precip Total
12:00 AM 57.7°F14.3°C 60.7°F15.9°C 78% Calm Calm -- 30.03 in1016.9 mb 0.00 in0.0 mm 0.00 in0.0 mm 0.00 in0.0 mm
12:02 AM 57.7°F14.3°C 60.8°F16.0°C 79% Calm Calm -- 30.03 in1016.9 mb 0.00 in0.0 mm 0.00 in0.0 mm 0.00 in0.0 mm
12:03 AM 57.7°F14.3°C 60.4°F15.8°C 78% Calm Calm -- 30.03 in1016.9 mb 0.00 in0.0 mm 0.00 in0.0 mm 0.00 in0.0 mm
12:05 AM 57.5°F14.2°C 60.4°F15.8°C 79% Calm Calm -- 30.03 in1016.9 mb 0.00 in0.0 mm 0.00 in0.0 mm 0.00 in0.0 mm
12:06 AM 57.5°F14.2°C 60.5°F15.8°C 79% Calm Calm -- 30.03 in1016.9 mb 0.00 in0.0 mm 0.00 in0.0 mm 0.00 in0.0 mm
12:08 AM 56.8°F13.8°C 60.0°F15.6°C 78% Calm Calm -- 30.03 in1016.9 mb 0.00 in0.0 mm 0.00 in0.0 mm 0.00 in0.0 mm
12:09 AM 56.8°F13.8°C 60.2°F15.7°C 78% Calm Calm -- 30.03 in1016.9 mb 0.00 in0.0 mm 0.00 in0.0 mm 0.00 in0.0 mm
12:11 AM 57.0°F13.9°C 60.2°F15.7°C 79% Calm Calm -- 30.03 in1016.9 mb 0.00 in0.0 mm 0.00 in0.0 mm 0.00 in0.0 mm
12:12 AM 57.1°F13.9°C 60.1°F15.6°C 78% Calm Calm -- 30.02 in1016.6 mb 0.00 in0.0 mm 0.00 in0.0 mm 0.00 in0.0 mm
12:14 AM 57.2°F14.0°C 60.0°F15.6°C 78% Calm Calm -- 30.03 in1016.9 mb 0.00 in0.0 mm 0.00 in0.0 mm 0.00 in0.0 mm
12:15 AM 57.2°F14.0°C 60.0°F15.6°C 78% Calm Calm -- 30.02 in1016.6 mb 0.00 in0.0 mm 0.00 in0.0 mm 0.00 in0.0 mm
12:17 AM 57.0°F13.9°C 60.1°F15.6°C 78% Calm Calm -- 30.03 in1016.9 mb 0.00 in0.0 mm 0.00 in0.0 mm 0.00 in0.0 mm
12:18 AM 57.0°F13.9°C 59.4°F15.2°C 77% Calm Calm -- 30.03 in1016.9 mb 0.00 in0.0 mm 0.00 in0.0 mm 0.00 in0.0 mm
12:20 AM 57.5°F14.2°C 59.8°F15.4°C 78% Calm Calm -- 30.03 in1016.9 mb 0.00 in0.0 mm 0.00 in0.0 mm 0.00 in0.0 mm
12:21 AM 57.5°F14.2°C 59.7°F15.4°C 78% Calm Calm -- 30.03 in1016.9 mb 0.00 in0.0 mm 0.00 in0.0 mm 0.00 in0.0 mm
12:23 AM 57.2°F14.0°C 59.9°F15.5°C 78% Calm Calm -- 30.02 in1016.6 mb 0.00 in0.0 mm 0.00 in0.0 mm 0.00 in0.0 mm
12:24 AM 57.2°F14.0°C 60.1°F15.6°C 79% Calm Calm -- 30.02 in1016.6 mb 0.00 in0.0 mm 0.00 in0.0 mm 0.00 in0.0 mm
12:26 AM 57.3°F14.1°C 60.0°F15.6°C 78% Calm Calm -- 30.02 in1016.6 mb 0.00 in0.0 mm 0.00 in0.0 mm 0.00 in0.0 mm
12:27 AM 57.3°F14.1°C 60.0°F15.6°C 79% Calm Calm -- 30.02 in1016.6 mb 0.00 in0.0 mm 0.00 in0.0 mm 0.00 in0.0 mm
12:29 AM 57.5°F14.2°C 60.3°F15.7°C 80% Calm Calm -- 30.02 in1016.6 mb 0.00 in0.0 mm 0.00 in0.0 mm 0.00 in0.0 mm
12:32 AM 57.7°F14.3°C 59.8°F15.4°C 79% Calm Calm -- 30.02 in1016.6 mb 0.00 in0.0 mm 0.00 in0.0 mm 0.00 in0.0 mm
12:33 AM 57.7°F14.3°C 59.8°F15.4°C 78% Calm Calm -- 30.02 in1016.6 mb 0.00 in0.0 mm 0.00 in0.0 mm 0.00 in0.0 mm
12:35 AM 57.8°F14.3°C 60.5°F15.8°C 80% Calm Calm -- 30.02 in1016.6 mb 0.00 in0.0 mm 0.00 in0.0 mm 0.00 in0.0 mm
12:36 AM 57.8°F14.3°C 60.0°F15.6°C 79% Calm Calm -- 30.02 in1016.6 mb 0.00 in0.0 mm 0.00 in0.0 mm 0.00 in0.0 mm
12:38 AM 58.0°F14.4°C 60.0°F15.6°C 79% Calm Calm -- 30.03 in1016.9 mb 0.00 in0.0 mm 0.00 in0.0 mm 0.00 in0.0 mm
12:39 AM 58.1°F14.5°C 60.1°F15.6°C 80% Calm Calm -- 30.02 in1016.6 mb 0.00 in0.0 mm 0.00 in0.0 mm 0.00 in0.0 mm
12:41 AM 58.0°F14.4°C 60.4°F15.8°C 80% Calm Calm -- 30.03 in1016.9 mb 0.00 in0.0 mm 0.00 in0.0 mm 0.00 in0.0 mm
12:42 AM 58.0°F14.4°C 60.1°F15.6°C 80% Calm Calm -- 30.03 in1016.9 mb 0.00 in0.0 mm 0.00 in0.0 mm 0.00 in0.0 mm
12:44 AM 58.0°F14.4°C 60.1°F15.6°C 79% Calm Calm -- 30.03 in1016.9 mb 0.00 in0.0 mm 0.00 in0.0 mm 0.00 in0.0 mm
12:45 AM 58.1°F14.5°C 60.4°F15.8°C 79% Calm Calm -- 30.02 in1016.6 mb 0.00 in0.0 mm 0.00 in0.0 mm 0.00 in0.0 mm
12:47 AM 57.9°F14.4°C 60.2°F15.7°C 80% 0.8 mph 1.3 kmh 0.8 mph1.3 kmh 30.02 in1016.6 mb 0.00 in0.0 mm 0.00 in0.0 mm 0.00 in0.0 mm
12:48 AM 57.9°F14.4°C 60.1°F15.6°C 79% 0.5 mph 0.8 kmh 0.5 mph0.8 kmh 30.03 in1016.9 mb 0.00 in0.0 mm 0.00 in0.0 mm 0.00 in0.0 mm
12:50 AM 57.9°F14.4°C 60.2°F15.7°C 79% 0.8 mph NE1.3 kmh NE 0.8 mph1.3 kmh 30.02 in1016.6 mb 0.00 in0.0 mm 0.00 in0.0 mm 0.00 in0.0 mm
12:51 AM 58.0°F14.4°C 60.3°F15.7°C 79% 0.2 mph NE0.3 kmh NE 0.3 mph0.5 kmh 30.03 in1016.9 mb 0.00 in0.0 mm 0.00 in0.0 mm 0.00 in0.0 mm
12:53 AM 57.9°F14.4°C 60.3°F15.7°C 79% Calm Calm -- 30.02 in1016.6 mb 0.00 in0.0 mm 0.00 in0.0 mm 0.00 in0.0 mm
12:54 AM 58.0°F14.4°C 60.3°F15.7°C 80% Calm Calm -- 30.02 in1016.6 mb 0.00 in0.0 mm 0.00 in0.0 mm 0.00 in0.0 mm
12:59 AM 58.1°F14.5°C 60.5°F15.8°C 80% Calm Calm -- 30.02 in1016.6 mb 0.00 in0.0 mm 0.00 in0.0 mm 0.00 in0.0 mm
01:00 AM 58.1°F14.5°C 60.4°F15.8°C 80% Calm Calm -- 30.01 in1016.3 mb 0.00 in0.0 mm 0.00 in0.0 mm 0.00 in0.0 mm
01:02 AM 58.0°F14.4°C 60.4°F15.8°C 80% Calm Calm -- 30.02 in1016.6 mb 0.00 in0.0 mm 0.00 in0.0 mm 0.00 in0.0 mm
01:03 AM 58.0°F14.4°C 60.2°F15.7°C 80% Calm Calm -- 30.02 in1016.6 mb 0.00 in0.0 mm 0.00 in0.0 mm 0.00 in0.0 mm
01:05 AM 58.0°F14.4°C 60.2°F15.7°C 80% Calm Calm -- 30.01 in1016.3 mb 0.00 in0.0 mm 0.00 in0.0 mm 0.00 in0.0 mm
01:06 AM 58.0°F14.4°C 60.7°F15.9°C 80% Calm Calm -- 30.01 in1016.3 mb 0.00 in0.0 mm 0.00 in0.0 mm 0.00 in0.0 mm
01:08 AM 58.0°F14.4°C 60.3°F15.7°C 80% Calm Calm -- 30.01 in1016.3 mb 0.00 in0.0 mm 0.00 in0.0 mm 0.00 in0.0 mm
01:09 AM 58.1°F14.5°C 60.1°F15.6°C 80% Calm Calm -- 30.01 in1016.3 mb 0.00 in0.0 mm 0.00 in0.0 mm 0.00 in0.0 mm
01:14 AM 58.0°F14.4°C 60.6°F15.9°C 81% Calm Calm -- 30.01 in1016.3 mb 0.00 in0.0 mm 0.00 in0.0 mm 0.00 in0.0 mm
01:15 AM 58.0°F14.4°C 60.6°F15.9°C 80% Calm Calm -- 30.01 in1016.3 mb 0.00 in0.0 mm 0.00 in0.0 mm 0.00 in0.0 mm
01:17 AM 58.1°F14.5°C 60.3°F15.7°C 80% Calm Calm -- 30.01 in1016.3 mb 0.00 in0.0 mm 0.00 in0.0 mm 0.00 in0.0 mm
01:18 AM 58.1°F14.5°C 60.4°F15.8°C 81% Calm Calm -- 30.01 in1016.3 mb 0.00 in0.0 mm 0.00 in0.0 mm 0.00 in0.0 mm
01:20 AM 58.2°F14.6°C 60.6°F15.9°C 81% Calm Calm -- 30.01 in1016.3 mb 0.00 in0.0 mm 0.00 in0.0 mm 0.00 in0.0 mm
01:21 AM 58.2°F14.6°C 60.5°F15.8°C 81% Calm Calm -- 30.01 in1016.3 mb 0.00 in0.0 mm 0.00 in0.0 mm 0.00 in0.0 mm
01:23 AM 58.0°F14.4°C 60.7°F15.9°C 81% Calm Calm -- 30.01 in1016.3 mb 0.00 in0.0 mm 0.00 in0.0 mm 0.00 in0.0 mm
01:24 AM 58.0°F14.4°C 60.7°F15.9°C 81% Calm Calm -- 30.01 in1016.3 mb 0.00 in0.0 mm 0.00 in0.0 mm 0.00 in0.0 mm
01:26 AM 57.9°F14.4°C 60.6°F15.9°C 81% Calm Calm -- 30.01 in1016.3 mb 0.00 in0.0 mm 0.00 in0.0 mm 0.00 in0.0 mm
01:27 AM 57.9°F14.4°C 60.5°F15.8°C 81% Calm Calm -- 30.01 in1016.3 mb 0.00 in0.0 mm 0.00 in0.0 mm 0.00 in0.0 mm
01:29 AM 57.7°F14.3°C 60.5°F15.8°C 81% Calm Calm -- 30.01 in1016.3 mb 0.00 in0.0 mm 0.00 in0.0 mm 0.00 in0.0 mm
01:30 AM 57.7°F14.3°C 60.7°F15.9°C 81% Calm Calm -- 30.01 in1016.3 mb 0.00 in0.0 mm 0.00 in0.0 mm 0.00 in0.0 mm
01:32 AM 57.8°F14.3°C 60.2°F15.7°C 80% Calm Calm -- 30.01 in1016.3 mb 0.00 in0.0 mm 0.00 in0.0 mm 0.00 in0.0 mm
01:33 AM 57.8°F14.3°C 60.0°F15.6°C 79% Calm Calm -- 30.01 in1016.3 mb 0.00 in0.0 mm 0.00 in0.0 mm 0.00 in0.0 mm
01:35 AM 57.8°F14.3°C 60.1°F15.6°C 80% Calm Calm -- 30.01 in1016.3 mb 0.00 in0.0 mm 0.00 in0.0 mm 0.00 in0.0 mm
01:36 AM 57.8°F14.3°C 60.6°F15.9°C 81% Calm Calm -- 30.01 in1016.3 mb 0.00 in0.0 mm 0.00 in0.0 mm 0.00 in0.0 mm
01:38 AM 57.7°F14.3°C 60.4°F15.8°C 81% Calm Calm -- 30.01 in1016.3 mb 0.00 in0.0 mm 0.00 in0.0 mm 0.00 in0.0 mm
01:39 AM 57.7°F14.3°C 60.3°F15.7°C 81% Calm Calm -- 30.01 in1016.3 mb 0.00 in0.0 mm 0.00 in0.0 mm 0.00 in0.0 mm
01:41 AM 57.8°F14.3°C 60.3°F15.7°C 81% Calm Calm -- 30.01 in1016.3 mb 0.00 in0.0 mm 0.00 in0.0 mm 0.00 in0.0 mm
01:42 AM 57.9°F14.4°C 60.0°F15.6°C 80% Calm Calm -- 30.01 in1016.3 mb 0.00 in0.0 mm 0.00 in0.0 mm 0.00 in0.0 mm
01:44 AM 57.9°F14.4°C 60.0°F15.6°C 80% Calm Calm -- 30.01 in1016.3 mb 0.00 in0.0 mm 0.00 in0.0 mm 0.00 in0.0 mm
01:45 AM 57.9°F14.4°C 60.3°F15.7°C 81% Calm Calm -- 30.01 in1016.3 mb 0.00 in0.0 mm 0.00 in0.0 mm 0.00 in0.0 mm
01:47 AM 58.0°F14.4°C 60.3°F15.7°C 81% Calm Calm -- 30.01 in1016.3 mb 0.00 in0.0 mm 0.00 in0.0 mm 0.00 in0.0 mm
01:48 AM 58.0°F14.4°C 60.4°F15.8°C 80% Calm Calm -- 30.01 in1016.3 mb 0.00 in0.0 mm 0.00 in0.0 mm 0.00 in0.0 mm
01:50 AM 58.0°F14.4°C 60.5°F15.8°C 81% Calm Calm -- 30.01 in1016.3 mb 0.00 in0.0 mm 0.00 in0.0 mm 0.00 in0.0 mm
01:51 AM 58.0°F14.4°C 60.3°F15.7°C 80% Calm Calm -- 30.01 in1016.3 mb 0.00 in0.0 mm 0.00 in0.0 mm 0.00 in0.0 mm
01:53 AM 58.3°F14.6°C 60.3°F15.7°C 80% Calm Calm -- 30.01 in1016.3 mb 0.00 in0.0 mm 0.00 in0.0 mm 0.00 in0.0 mm
01:54 AM 58.3°F14.6°C 60.1°F15.6°C 80% Calm Calm -- 30.01 in1016.3 mb 0.00 in0.0 mm 0.00 in0.0 mm 0.00 in0.0 mm
01:56 AM 58.2°F14.6°C 59.9°F15.5°C 80% Calm Calm -- 30.01 in1016.3 mb 0.00 in0.0 mm 0.00 in0.0 mm 0.00 in0.0 mm
01:57 AM 58.2°F14.6°C 60.5°F15.8°C 81% Calm Calm -- 30.01 in1016.3 mb 0.00 in0.0 mm 0.00 in0.0 mm 0.00 in0.0 mm
01:59 AM 58.3°F14.6°C 60.3°F15.7°C 81% Calm Calm -- 30.01 in1016.3 mb 0.00 in0.0 mm 0.00 in0.0 mm 0.00 in0.0 mm
02:00 AM 58.3°F14.6°C 59.6°F15.3°C 79% Calm Calm -- 30.01 in1016.3 mb 0.00 in0.0 mm 0.00 in0.0 mm 0.00 in0.0 mm
02:02 AM 58.2°F14.6°C 60.2°F15.7°C 80% Calm Calm -- 30.01 in1016.3 mb 0.00 in0.0 mm 0.00 in0.0 mm 0.00 in0.0 mm
02:03 AM 58.2°F14.6°C 60.1°F15.6°C 80% Calm Calm -- 30.01 in1016.3 mb 0.00 in0.0 mm 0.00 in0.0 mm 0.00 in0.0 mm
02:05 AM 58.2°F14.6°C 60.3°F15.7°C 80% Calm Calm -- 30.01 in1016.3 mb 0.00 in0.0 mm 0.00 in0.0 mm 0.00 in0.0 mm
02:06 AM 58.2°F14.6°C 60.1°F15.6°C 80% Calm Calm -- 30.01 in1016.3 mb 0.00 in0.0 mm 0.00 in0.0 mm 0.00 in0.0 mm
02:08 AM 58.1°F14.5°C 60.4°F15.8°C 81% Calm Calm -- 30.01 in1016.3 mb 0.00 in0.0 mm 0.00 in0.0 mm 0.00 in0.0 mm
02:14 AM 58.0°F14.4°C 59.9°F15.5°C 80% Calm Calm -- 30.01 in1016.3 mb 0.00 in0.0 mm 0.00 in0.0 mm 0.00 in0.0 mm
02:15 AM 58.1°F14.5°C 60.3°F15.7°C 80% Calm Calm -- 30.01 in1016.3 mb 0.00 in0.0 mm 0.00 in0.0 mm 0.00 in0.0 mm
02:17 AM 58.0°F14.4°C 60.6°F15.9°C 81% Calm Calm -- 30.01 in1016.3 mb 0.00 in0.0 mm 0.00 in0.0 mm 0.00 in0.0 mm
02:18 AM 58.1°F14.5°C 60.2°F15.7°C 81% Calm Calm -- 30.01 in1016.3 mb 0.00 in0.0 mm 0.00 in0.0 mm 0.00 in0.0 mm
02:20 AM 58.0°F14.4°C 60.2°F15.7°C 81% Calm Calm -- 30.00 in1015.9 mb 0.00 in0.0 mm 0.00 in0.0 mm 0.00 in0.0 mm
02:21 AM 58.0°F14.4°C 60.3°F15.7°C 81% Calm Calm -- 30.00 in1015.9 mb 0.00 in0.0 mm 0.00 in0.0 mm 0.00 in0.0 mm
02:23 AM 57.5°F14.2°C 60.4°F15.8°C 81% Calm Calm -- 30.00 in1015.9 mb 0.00 in0.0 mm 0.00 in0.0 mm 0.00 in0.0 mm
02:24 AM 57.5°F14.2°C 60.4°F15.8°C 81% Calm Calm -- 30.00 in1015.9 mb 0.00 in0.0 mm 0.00 in0.0 mm 0.00 in0.0 mm
02:26 AM 57.8°F14.3°C 60.1°F15.6°C 80% Calm Calm -- 30.00 in1015.9 mb 0.00 in0.0 mm 0.00 in0.0 mm 0.00 in0.0 mm
02:27 AM 57.8°F14.3°C 59.8°F15.4°C 80% Calm Calm -- 30.00 in1015.9 mb 0.00 in0.0 mm 0.00 in0.0 mm 0.00 in0.0 mm
02:29 AM 57.8°F14.3°C 59.9°F15.5°C 81% Calm Calm -- 29.99 in1015.6 mb 0.00 in0.0 mm 0.00 in0.0 mm 0.00 in0.0 mm
02:30 AM 57.9°F14.4°C 60.2°F15.7°C 81% Calm Calm -- 29.99 in1015.6 mb 0.00 in0.0 mm 0.00 in0.0 mm 0.00 in0.0 mm
02:32 AM 57.8°F14.3°C 60.4°F15.8°C 81% Calm Calm -- 29.99 in1015.6 mb 0.00 in0.0 mm 0.00 in0.0 mm 0.00 in0.0 mm
02:33 AM 57.9°F14.4°C 60.1°F15.6°C 81% Calm Calm -- 29.99 in1015.6 mb 0.00 in0.0 mm 0.00 in0.0 mm 0.00 in0.0 mm
02:35 AM 57.7°F14.3°C 60.5°F15.8°C 82% Calm Calm -- 29.99 in1015.6 mb 0.00 in0.0 mm 0.00 in0.0 mm 0.00 in0.0 mm
02:36 AM 57.7°F14.3°C 60.1°F15.6°C 81% Calm Calm -- 29.99 in1015.6 mb 0.00 in0.0 mm 0.00 in0.0 mm 0.00 in0.0 mm
02:41 AM 57.3°F14.1°C 60.0°F15.6°C 80% Calm Calm -- 29.99 in1015.6 mb 0.00 in0.0 mm 0.00 in0.0 mm 0.00 in0.0 mm
02:42 AM 57.3°F14.1°C 60.1°F15.6°C 81% Calm Calm -- 29.99 in1015.6 mb 0.00 in0.0 mm 0.00 in0.0 mm 0.00 in0.0 mm
02:44 AM 57.3°F14.1°C 59.6°F15.3°C 80% Calm Calm -- 29.99 in1015.6 mb 0.00 in0.0 mm 0.00 in0.0 mm 0.00 in0.0 mm
02:45 AM 57.3°F14.1°C 59.9°F15.5°C 80% Calm Calm -- 29.99 in1015.6 mb 0.00 in0.0 mm 0.00 in0.0 mm 0.00 in0.0 mm
02:47 AM 57.3°F14.1°C 59.8°F15.4°C 80% Calm Calm -- 29.99 in1015.6 mb 0.00 in0.0 mm 0.00 in0.0 mm 0.00 in0.0 mm
02:48 AM 57.2°F14.0°C 59.9°F15.5°C 80% Calm Calm -- 29.99 in1015.6 mb 0.00 in0.0 mm 0.00 in0.0 mm 0.00 in0.0 mm
02:50 AM 57.3°F14.1°C 59.5°F15.3°C 80% Calm Calm -- 29.99 in1015.6 mb 0.00 in0.0 mm 0.00 in0.0 mm 0.00 in0.0 mm
02:51 AM 57.3°F14.1°C 59.8°F15.4°C 80% Calm Calm -- 29.99 in1015.6 mb 0.00 in0.0 mm 0.00 in0.0 mm 0.00 in0.0 mm
02:53 AM 57.2°F14.0°C 59.6°F15.3°C 80% Calm Calm -- 29.99 in1015.6 mb 0.00 in0.0 mm 0.00 in0.0 mm 0.00 in0.0 mm
02:54 AM 57.2°F14.0°C 59.9°F15.5°C 81% Calm Calm -- 29.99 in1015.6 mb 0.00 in0.0 mm 0.00 in0.0 mm 0.00 in0.0 mm
02:56 AM 56.9°F13.8°C 59.8°F15.4°C 81% Calm Calm -- 29.99 in1015.6 mb 0.00 in0.0 mm 0.00 in0.0 mm 0.00 in0.0 mm
02:57 AM 57.0°F13.9°C 59.4°F15.2°C 80% Calm Calm -- 29.99 in1015.6 mb 0.00 in0.0 mm 0.00 in0.0 mm 0.00 in0.0 mm
02:59 AM 57.1°F13.9°C 59.4°F15.2°C 80% Calm Calm -- 29.99 in1015.6 mb 0.00 in0.0 mm 0.00 in0.0 mm 0.00 in0.0 mm
03:00 AM 57.2°F14.0°C 59.6°F15.3°C 80% Calm Calm -- 29.99 in1015.6 mb 0.00 in0.0 mm 0.00 in0.0 mm 0.00 in0.0 mm
03:02 AM 57.3°F14.1°C 59.7°F15.4°C 81% Calm Calm -- 29.99 in1015.6 mb 0.00 in0.0 mm 0.00 in0.0 mm 0.00 in0.0 mm
03:05 AM 57.4°F14.1°C 59.7°F15.4°C 80% Calm Calm -- 29.99 in1015.6 mb 0.00 in0.0 mm 0.00 in0.0 mm 0.00 in0.0 mm
03:08 AM 57.0°F13.9°C 60.2°F15.7°C 82% Calm Calm -- 29.98 in1015.2 mb 0.00 in0.0 mm 0.00 in0.0 mm 0.00 in0.0 mm
03:09 AM 57.0°F13.9°C 59.5°F15.3°C 80% Calm Calm -- 29.99 in1015.6 mb 0.00 in0.0 mm 0.00 in0.0 mm 0.00 in0.0 mm
03:11 AM 57.1°F13.9°C 59.8°F15.4°C 80% Calm Calm -- 29.98 in1015.2 mb 0.00 in0.0 mm 0.00 in0.0 mm 0.00 in0.0 mm
03:12 AM 57.1°F13.9°C 59.9°F15.5°C 81% Calm Calm -- 29.98 in1015.2 mb 0.00 in0.0 mm 0.00 in0.0 mm 0.00 in0.0 mm
03:14 AM 57.0°F13.9°C 59.5°F15.3°C 80% Calm Calm -- 29.98 in1015.2 mb 0.00 in0.0 mm 0.00 in0.0 mm 0.00 in0.0 mm
03:15 AM 57.0°F13.9°C 59.7°F15.4°C 81% Calm Calm -- 29.98 in1015.2 mb 0.00 in0.0 mm 0.00 in0.0 mm 0.00 in0.0 mm
03:17 AM 57.2°F14.0°C 59.4°F15.2°C 80% Calm Calm -- 29.98 in1015.2 mb 0.00 in0.0 mm 0.00 in0.0 mm 0.00 in0.0 mm
03:18 AM 57.2°F14.0°C 59.4°F15.2°C 80% Calm Calm -- 29.99 in1015.6 mb 0.00 in0.0 mm 0.00 in0.0 mm 0.00 in0.0 mm
03:20 AM 57.2°F14.0°C 59.5°F15.3°C 80% Calm Calm -- 29.99 in1015.6 mb 0.00 in0.0 mm 0.00 in0.0 mm 0.00 in0.0 mm
03:21 AM 57.2°F14.0°C 59.5°F15.3°C 80% Calm Calm -- 29.99 in1015.6 mb 0.00 in0.0 mm 0.00 in0.0 mm 0.00 in0.0 mm
03:23 AM 57.3°F14.1°C 59.9°F15.5°C 81% Calm Calm -- 29.99 in1015.6 mb 0.00 in0.0 mm 0.00 in0.0 mm 0.00 in0.0 mm
03:24 AM 57.4°F14.1°C 59.8°F15.4°C 81% Calm Calm -- 29.99 in1015.6 mb 0.00 in0.0 mm 0.00 in0.0 mm 0.00 in0.0 mm
03:26 AM 57.4°F14.1°C 59.4°F15.2°C 81% Calm Calm -- 29.99 in1015.6 mb 0.00 in0.0 mm 0.00 in0.0 mm 0.00 in0.0 mm
03:27 AM 57.4°F14.1°C 59.8°F15.4°C 81% Calm Calm -- 29.99 in1015.6 mb 0.00 in0.0 mm 0.00 in0.0 mm 0.00 in0.0 mm
03:29 AM 57.4°F14.1°C 60.0°F15.6°C 82% Calm Calm -- 29.99 in1015.6 mb 0.00 in0.0 mm 0.00 in0.0 mm 0.00 in0.0 mm
03:30 AM 57.4°F14.1°C 59.7°F15.4°C 81% Calm Calm -- 29.99 in1015.6 mb 0.00 in0.0 mm 0.00 in0.0 mm 0.00 in0.0 mm
03:32 AM 57.3°F14.1°C 59.9°F15.5°C 82% Calm Calm -- 29.99 in1015.6 mb 0.00 in0.0 mm 0.00 in0.0 mm 0.00 in0.0 mm
03:33 AM 57.4°F14.1°C 59.7°F15.4°C 82% Calm Calm -- 29.99 in1015.6 mb 0.00 in0.0 mm 0.00 in0.0 mm 0.00 in0.0 mm
03:35 AM 57.4°F14.1°C 59.8°F15.4°C 82% Calm Calm -- 29.99 in1015.6 mb 0.00 in0.0 mm 0.00 in0.0 mm 0.00 in0.0 mm
03:36 AM 57.4°F14.1°C 60.1°F15.6°C 82% Calm Calm -- 29.99 in1015.6 mb 0.00 in0.0 mm 0.00 in0.0 mm 0.00 in0.0 mm
03:38 AM 57.4°F14.1°C 59.6°F15.3°C 82% Calm Calm -- 29.99 in1015.6 mb 0.00 in0.0 mm 0.00 in0.0 mm 0.00 in0.0 mm
03:39 AM 57.4°F14.1°C 59.7°F15.4°C 82% Calm Calm -- 29.99 in1015.6 mb 0.00 in0.0 mm 0.00 in0.0 mm 0.00 in0.0 mm
03:41 AM 57.5°F14.2°C 60.4°F15.8°C 83% Calm Calm -- 29.99 in1015.6 mb 0.00 in0.0 mm 0.00 in0.0 mm 0.00 in0.0 mm
03:42 AM 57.5°F14.2°C 60.1°F15.6°C 83% Calm Calm -- 29.99 in1015.6 mb 0.00 in0.0 mm 0.00 in0.0 mm 0.00 in0.0 mm
03:44 AM 57.5°F14.2°C 59.9°F15.5°C 82% 0.4 mph NNW0.6 kmh NNW 0.4 mph0.6 kmh 29.98 in1015.2 mb 0.00 in0.0 mm 0.00 in0.0 mm 0.00 in0.0 mm
03:47 AM 57.5°F14.2°C 60.2°F15.7°C 83% 2.0 mph NNW3.2 kmh NNW 2.0 mph3.2 kmh 29.98 in1015.2 mb 0.00 in0.0 mm 0.00 in0.0 mm 0.00 in0.0 mm
03:48 AM 57.5°F14.2°C 60.2°F15.7°C 83% 2.1 mph ESE3.4 kmh ESE 2.2 mph3.5 kmh 29.97 in1014.9 mb 0.00 in0.0 mm 0.00 in0.0 mm 0.00 in0.0 mm
03:50 AM 57.4°F14.1°C 60.3°F15.7°C 83% 0.8 mph ESE1.3 kmh ESE 0.8 mph1.3 kmh 29.97 in1014.9 mb 0.00 in0.0 mm 0.00 in0.0 mm 0.00 in0.0 mm
03:51 AM 57.4°F14.1°C 60.1°F15.6°C 83% 0.9 mph ESE1.4 kmh ESE 1.1 mph1.8 kmh 29.97 in1014.9 mb 0.00 in0.0 mm 0.00 in0.0 mm 0.00 in0.0 mm
03:53 AM 57.2°F14.0°C 60.0°F15.6°C 83% Calm Calm -- 29.98 in1015.2 mb 0.00 in0.0 mm 0.00 in0.0 mm 0.00 in0.0 mm
03:54 AM 57.2°F14.0°C 60.1°F15.6°C 82% Calm Calm -- 29.98 in1015.2 mb 0.00 in0.0 mm 0.00 in0.0 mm 0.00 in0.0 mm
03:56 AM 57.1°F13.9°C 60.0°F15.6°C 82% 0.4 mph NNW0.6 kmh NNW 0.4 mph0.6 kmh 29.97 in1014.9 mb 0.00 in0.0 mm 0.00 in0.0 mm 0.00 in0.0 mm
03:57 AM 57.1°F13.9°C 59.8°F15.4°C 82% 0.6 mph ESE1.0 kmh ESE 0.7 mph1.1 kmh 29.98 in1015.2 mb 0.00 in0.0 mm 0.00 in0.0 mm 0.00 in0.0 mm
03:59 AM 57.1°F13.9°C 59.7°F15.4°C 82% Calm Calm -- 29.98 in1015.2 mb 0.00 in0.0 mm 0.00 in0.0 mm 0.00 in0.0 mm
04:00 AM 57.1°F13.9°C 59.5°F15.3°C 81% Calm Calm -- 29.98 in1015.2 mb 0.00 in0.0 mm 0.00 in0.0 mm 0.00 in0.0 mm
04:02 AM 57.1°F13.9°C 60.3°F15.7°C 83% Calm Calm -- 29.98 in1015.2 mb 0.00 in0.0 mm 0.00 in0.0 mm 0.00 in0.0 mm
04:03 AM 57.1°F13.9°C 59.7°F15.4°C 82% Calm Calm -- 29.97 in1014.9 mb 0.00 in0.0 mm 0.00 in0.0 mm 0.00 in0.0 mm
04:05 AM 57.1°F13.9°C 59.7°F15.4°C 82% Calm Calm -- 29.98 in1015.2 mb 0.00 in0.0 mm 0.00 in0.0 mm 0.00 in0.0 mm
04:06 AM 57.2°F14.0°C 59.7°F15.4°C 82% Calm Calm -- 29.98 in1015.2 mb 0.00 in0.0 mm 0.00 in0.0 mm 0.00 in0.0 mm
04:08 AM 57.1°F13.9°C 59.5°F15.3°C 81% Calm Calm -- 29.99 in1015.6 mb 0.00 in0.0 mm 0.00 in0.0 mm 0.00 in0.0 mm
04:09 AM 57.1°F13.9°C 59.7°F15.4°C 81% Calm Calm -- 29.99 in1015.6 mb 0.00 in0.0 mm 0.00 in0.0 mm 0.00 in0.0 mm
04:11 AM 57.1°F13.9°C 59.6°F15.3°C 81% Calm Calm -- 29.99 in1015.6 mb 0.00 in0.0 mm 0.00 in0.0 mm 0.00 in0.0 mm
04:12 AM 57.2°F14.0°C 59.6°F15.3°C 81% Calm Calm -- 29.98 in1015.2 mb 0.00 in0.0 mm 0.00 in0.0 mm 0.00 in0.0 mm
04:14 AM 57.2°F14.0°C 59.5°F15.3°C 81% Calm Calm -- 29.98 in1015.2 mb 0.00 in0.0 mm 0.00 in0.0 mm 0.00 in0.0 mm
04:15 AM 57.3°F14.1°C 59.5°F15.3°C 81% Calm Calm -- 29.98 in1015.2 mb 0.00 in0.0 mm 0.00 in0.0 mm 0.00 in0.0 mm
04:17 AM 57.5°F14.2°C 59.6°F15.3°C 82% Calm Calm -- 29.98 in1015.2 mb 0.00 in0.0 mm 0.00 in0.0 mm 0.00 in0.0 mm
04:18 AM 57.5°F14.2°C 59.5°F15.3°C 81% Calm Calm -- 29.98 in1015.2 mb 0.00 in0.0 mm 0.00 in0.0 mm 0.00 in0.0 mm
04:20 AM 57.5°F14.2°C 59.5°F15.3°C 81% Calm Calm -- 29.98 in1015.2 mb 0.00 in0.0 mm 0.00 in0.0 mm 0.00 in0.0 mm
04:21 AM 57.5°F14.2°C 59.3°F15.2°C 81% Calm Calm -- 29.98 in1015.2 mb 0.00 in0.0 mm 0.00 in0.0 mm 0.00 in0.0 mm
04:23 AM 57.4°F14.1°C 59.5°F15.3°C 81% Calm Calm -- 29.98 in1015.2 mb 0.00 in0.0 mm 0.00 in0.0 mm 0.00 in0.0 mm
04:24 AM 57.4°F14.1°C 59.3°F15.2°C 81% Calm Calm -- 29.97 in1014.9 mb 0.00 in0.0 mm 0.00 in0.0 mm 0.00 in0.0 mm
04:26 AM 57.3°F14.1°C 59.1°F15.1°C 80% Calm Calm -- 29.98 in1015.2 mb 0.00 in0.0 mm 0.00 in0.0 mm 0.00 in0.0 mm
04:27 AM 57.4°F14.1°C 59.6°F15.3°C 81% Calm Calm -- 29.97 in1014.9 mb 0.00 in0.0 mm 0.00 in0.0 mm 0.00 in0.0 mm
04:29 AM 57.4°F14.1°C 59.4°F15.2°C 81% Calm Calm -- 29.98 in1015.2 mb 0.00 in0.0 mm 0.00 in0.0 mm 0.00 in0.0 mm
04:30 AM 57.4°F14.1°C 59.5°F15.3°C 80% Calm Calm -- 29.97 in1014.9 mb 0.00 in0.0 mm 0.00 in0.0 mm 0.00 in0.0 mm
04:32 AM 57.3°F14.1°C 59.3°F15.2°C 81% Calm Calm -- 29.97 in1014.9 mb 0.00 in0.0 mm 0.00 in0.0 mm 0.00 in0.0 mm
04:33 AM 57.4°F14.1°C 59.7°F15.4°C 81% Calm Calm -- 29.97 in1014.9 mb 0.00 in0.0 mm 0.00 in0.0 mm 0.00 in0.0 mm
04:35 AM 57.4°F14.1°C 59.2°F15.1°C 81% Calm Calm -- 29.97 in1014.9 mb 0.00 in0.0 mm 0.00 in0.0 mm 0.00 in0.0 mm
04:36 AM 57.4°F14.1°C 59.4°F15.2°C 80% Calm Calm -- 29.97 in1014.9 mb 0.00 in0.0 mm 0.00 in0.0 mm 0.00 in0.0 mm
04:38 AM 57.5°F14.2°C 59.7°F15.4°C 81% Calm Calm -- 29.97 in1014.9 mb 0.00 in0.0 mm 0.00 in0.0 mm 0.00 in0.0 mm
04:39 AM 57.4°F14.1°C 59.6°F15.3°C 81% Calm Calm -- 29.97 in1014.9 mb 0.00 in0.0 mm 0.00 in0.0 mm 0.00 in0.0 mm
04:41 AM 57.7°F14.3°C 60.0°F15.6°C 81% Calm Calm -- 29.97 in1014.9 mb 0.00 in0.0 mm 0.00 in0.0 mm 0.00 in0.0 mm
04:42 AM 57.7°F14.3°C 59.7°F15.4°C 81% Calm Calm -- 29.97 in1014.9 mb 0.00 in0.0 mm 0.00 in0.0 mm 0.00 in0.0 mm
04:44 AM 57.3°F14.1°C 59.4°F15.2°C 81% Calm Calm -- 29.97 in1014.9 mb 0.00 in0.0 mm 0.00 in0.0 mm 0.00 in0.0 mm
04:45 AM 57.4°F14.1°C 59.3°F15.2°C 81% Calm Calm -- 29.97 in1014.9 mb 0.00 in0.0 mm 0.00 in0.0 mm 0.00 in0.0 mm
04:47 AM 57.5°F14.2°C 59.6°F15.3°C 81% Calm Calm -- 29.97 in1014.9 mb 0.00 in0.0 mm 0.00 in0.0 mm 0.00 in0.0 mm
04:48 AM 57.7°F14.3°C 59.7°F15.4°C 82% Calm Calm -- 29.97 in1014.9 mb 0.00 in0.0 mm 0.00 in0.0 mm 0.00 in0.0 mm
04:50 AM 57.8°F14.3°C 59.9°F15.5°C 82% Calm Calm -- 29.97 in1014.9 mb 0.00 in0.0 mm 0.00 in0.0 mm 0.00 in0.0 mm
04:51 AM 57.8°F14.3°C 59.7°F15.4°C 81% Calm Calm -- 29.97 in1014.9 mb 0.00 in0.0 mm 0.00 in0.0 mm 0.00 in0.0 mm
04:53 AM 58.1°F14.5°C 60.1°F15.6°C 82% Calm Calm -- 29.97 in1014.9 mb 0.00 in0.0 mm 0.00 in0.0 mm 0.00 in0.0 mm
04:54 AM 58.1°F14.5°C 59.8°F15.4°C 82% Calm Calm -- 29.97 in1014.9 mb 0.00 in0.0 mm 0.00 in0.0 mm 0.00 in0.0 mm
04:56 AM 58.1°F14.5°C 60.2°F15.7°C 82% Calm Calm -- 29.97 in1014.9 mb 0.00 in0.0 mm 0.00 in0.0 mm 0.00 in0.0 mm
04:57 AM 58.2°F14.6°C 60.2°F15.7°C 82% Calm Calm -- 29.97 in1014.9 mb 0.00 in0.0 mm 0.00 in0.0 mm 0.00 in0.0 mm
04:59 AM 58.2°F14.6°C 60.2°F15.7°C 83% Calm Calm -- 29.97 in1014.9 mb 0.00 in0.0 mm 0.00 in0.0 mm 0.00 in0.0 mm
05:00 AM 58.3°F14.6°C 60.5°F15.8°C 83% Calm Calm -- 29.97 in1014.9 mb 0.00 in0.0 mm 0.00 in0.0 mm 0.00 in0.0 mm
05:02 AM 58.3°F14.6°C 60.7°F15.9°C 83% Calm Calm -- 29.98 in1015.2 mb 0.00 in0.0 mm 0.00 in0.0 mm 0.00 in0.0 mm
05:03 AM 58.2°F14.6°C 60.6°F15.9°C 83% Calm Calm -- 29.97 in1014.9 mb 0.00 in0.0 mm 0.00 in0.0 mm 0.00 in0.0 mm
05:05 AM 58.3°F14.6°C 60.6°F15.9°C 83% Calm Calm -- 29.98 in1015.2 mb 0.00 in0.0 mm 0.00 in0.0 mm 0.00 in0.0 mm
05:06 AM 58.3°F14.6°C 60.3°F15.7°C 83% Calm Calm -- 29.98 in1015.2 mb 0.00 in0.0 mm 0.00 in0.0 mm 0.00 in0.0 mm
05:08 AM 58.4°F14.7°C 60.6°F15.9°C 83% Calm Calm -- 29.97 in1014.9 mb 0.00 in0.0 mm 0.00 in0.0 mm 0.00 in0.0 mm
05:09 AM 58.4°F14.7°C 60.2°F15.7°C 82% Calm Calm -- 29.97 in1014.9 mb 0.00 in0.0 mm 0.00 in0.0 mm 0.00 in0.0 mm
05:11 AM 58.6°F14.8°C 60.5°F15.8°C 83% Calm Calm -- 29.97 in1014.9 mb 0.00 in0.0 mm 0.00 in0.0 mm 0.00 in0.0 mm
05:12 AM 58.6°F14.8°C 60.4°F15.8°C 82% Calm Calm -- 29.97 in1014.9 mb 0.00 in0.0 mm 0.00 in0.0 mm 0.00 in0.0 mm
05:14 AM 58.6°F14.8°C 60.7°F15.9°C 83% Calm Calm -- 29.97 in1014.9 mb 0.00 in0.0 mm 0.00 in0.0 mm 0.00 in0.0 mm
05:15 AM 58.6°F14.8°C 60.1°F15.6°C 81% Calm Calm -- 29.97 in1014.9 mb 0.00 in0.0 mm 0.00 in0.0 mm 0.00 in0.0 mm
05:17 AM 58.6°F14.8°C 60.5°F15.8°C 82% Calm Calm -- 29.97 in1014.9 mb 0.00 in0.0 mm 0.00 in0.0 mm 0.00 in0.0 mm
05:18 AM 58.7°F14.8°C 60.5°F15.8°C 82% Calm Calm -- 29.97 in1014.9 mb 0.00 in0.0 mm 0.00 in0.0 mm 0.00 in0.0 mm
05:20 AM 58.7°F14.8°C 60.4°F15.8°C 82% Calm Calm -- 29.97 in1014.9 mb 0.00 in0.0 mm 0.00 in0.0 mm 0.00 in0.0 mm
05:21 AM 58.7°F14.8°C 60.2°F15.7°C 82% Calm Calm -- 29.97 in1014.9 mb 0.00 in0.0 mm 0.00 in0.0 mm 0.00 in0.0 mm
05:23 AM 58.7°F14.8°C 60.2°F15.7°C 82% Calm Calm -- 29.97 in1014.9 mb 0.00 in0.0 mm 0.00 in0.0 mm 0.00 in0.0 mm
05:24 AM 58.7°F14.8°C 60.4°F15.8°C 82% Calm Calm -- 29.97 in1014.9 mb 0.00 in0.0 mm 0.00 in0.0 mm 0.00 in0.0 mm
05:26 AM 58.8°F14.9°C 60.1°F15.6°C 81% Calm Calm -- 29.97 in1014.9 mb 0.00 in0.0 mm 0.00 in0.0 mm 0.00 in0.0 mm
05:27 AM 58.8°F14.9°C 60.2°F15.7°C 81% Calm Calm -- 29.97 in1014.9 mb 0.00 in0.0 mm 0.00 in0.0 mm 0.00 in0.0 mm
05:29 AM 59.0°F15.0°C 60.4°F15.8°C 82% Calm Calm -- 29.96 in1014.6 mb 0.00 in0.0 mm 0.00 in0.0 mm 0.00 in0.0 mm
05:30 AM 59.0°F15.0°C 60.5°F15.8°C 81% Calm Calm -- 29.96 in1014.6 mb 0.00 in0.0 mm 0.00 in0.0 mm 0.00 in0.0 mm
05:32 AM 59.1°F15.1°C 60.2°F15.7°C 81% Calm Calm -- 29.96 in1014.6 mb 0.00 in0.0 mm 0.00 in0.0 mm 0.00 in0.0 mm
05:33 AM 59.1°F15.1°C 60.3°F15.7°C 81% Calm Calm -- 29.96 in1014.6 mb 0.00 in0.0 mm 0.00 in0.0 mm 0.00 in0.0 mm
05:35 AM 59.2°F15.1°C 60.2°F15.7°C 81% Calm Calm -- 29.96 in1014.6 mb 0.00 in0.0 mm 0.00 in0.0 mm 0.00 in0.0 mm
05:36 AM 59.2°F15.1°C 60.0°F15.6°C 81% Calm Calm -- 29.96 in1014.6 mb 0.00 in0.0 mm 0.00 in0.0 mm 0.00 in0.0 mm
05:38 AM 59.5°F15.3°C 60.3°F15.7°C 81% Calm Calm -- 29.96 in1014.6 mb 0.00 in0.0 mm 0.00 in0.0 mm 0.00 in0.0 mm
05:39 AM 59.5°F15.3°C 60.9°F16.1°C 82% Calm Calm -- 29.96 in1014.6 mb 0.00 in0.0 mm 0.00 in0.0 mm 0.00 in0.0 mm
05:41 AM 59.8°F15.4°C 60.6°F15.9°C 82% Calm Calm -- 29.96 in1014.6 mb 0.00 in0.0 mm 0.00 in0.0 mm 0.00 in0.0 mm
05:42 AM 59.9°F15.5°C 60.5°F15.8°C 82% Calm Calm -- 29.96 in1014.6 mb 0.00 in0.0 mm 0.00 in0.0 mm 0.00 in0.0 mm
05:44 AM 59.8°F15.4°C 60.8°F16.0°C 82% Calm Calm -- 29.96 in1014.6 mb 0.00 in0.0 mm 0.00 in0.0 mm 0.00 in0.0 mm
05:45 AM 59.9°F15.5°C 60.8°F16.0°C 82% Calm Calm -- 29.96 in1014.6 mb 0.00 in0.0 mm 0.00 in0.0 mm 0.00 in0.0 mm
05:47 AM 59.8°F15.4°C 60.9°F16.1°C 82% Calm Calm -- 29.96 in1014.6 mb 0.00 in0.0 mm 0.00 in0.0 mm 0.00 in0.0 mm
05:48 AM 60.1°F15.6°C 60.9°F16.1°C 82% Calm Calm -- 29.96 in1014.6 mb 0.00 in0.0 mm 0.00 in0.0 mm 0.00 in0.0 mm
05:50 AM 59.9°F15.5°C 60.8°F16.0°C 82% Calm Calm -- 29.97 in1014.9 mb 0.00 in0.0 mm 0.00 in0.0 mm 0.00 in0.0 mm
05:51 AM 60.2°F15.7°C 60.6°F15.9°C 82% Calm Calm -- 29.97 in1014.9 mb 0.00 in0.0 mm 0.00 in0.0 mm 0.00 in0.0 mm
05:53 AM 60.0°F15.6°C 60.9°F16.1°C 83% 0.4 mph W0.6 kmh W 0.4 mph0.6 kmh 29.97 in1014.9 mb 0.00 in0.0 mm 0.00 in0.0 mm 0.00 in0.0 mm
05:54 AM 60.0°F15.6°C 60.9°F16.1°C 82% Calm Calm -- 29.97 in1014.9 mb 0.00 in0.0 mm 0.00 in0.0 mm 0.00 in0.0 mm
05:56 AM 60.0°F15.6°C 60.7°F15.9°C 81% 0.8 mph W1.3 kmh W 0.8 mph1.3 kmh 29.97 in1014.9 mb 0.00 in0.0 mm 0.00 in0.0 mm 0.00 in0.0 mm
05:57 AM 60.0°F15.6°C 61.0°F16.1°C 82% 2.8 mph W4.5 kmh W 3.0 mph4.8 kmh 29.98 in1015.2 mb 0.00 in0.0 mm 0.00 in0.0 mm 0.00 in0.0 mm
05:59 AM 59.9°F15.5°C 61.2°F16.2°C 83% 1.6 mph NW2.6 kmh NW 1.6 mph2.6 kmh 29.97 in1014.9 mb 0.00 in0.0 mm 0.00 in0.0 mm 0.00 in0.0 mm
06:00 AM 60.1°F15.6°C 61.1°F16.2°C 83% 0.9 mph NW1.4 kmh NW 0.9 mph1.4 kmh 29.98 in1015.2 mb 0.00 in0.0 mm 0.00 in0.0 mm 0.00 in0.0 mm
06:02 AM 59.9°F15.5°C 61.1°F16.2°C 82% Calm Calm -- 29.98 in1015.2 mb 0.00 in0.0 mm 0.00 in0.0 mm 0.00 in0.0 mm
06:03 AM 60.0°F15.6°C 60.7°F15.9°C 81% Calm Calm -- 29.98 in1015.2 mb 0.00 in0.0 mm 0.00 in0.0 mm 0.00 in0.0 mm
06:05 AM 60.1°F15.6°C 61.3°F16.3°C 83% Calm Calm -- 29.98 in1015.2 mb 0.00 in0.0 mm 0.00 in0.0 mm 0.00 in0.0 mm
06:06 AM 60.4°F15.8°C 61.2°F16.2°C 82% Calm Calm -- 29.98 in1015.2 mb 0.00 in0.0 mm 0.00 in0.0 mm 0.00 in0.0 mm
06:08 AM 60.2°F15.7°C 61.1°F16.2°C 82% Calm Calm -- 29.98 in1015.2 mb 0.00 in0.0 mm 0.00 in0.0 mm 0.00 in0.0 mm
06:09 AM 60.5°F15.8°C 61.2°F16.2°C 82% Calm Calm -- 29.97 in1014.9 mb 0.00 in0.0 mm 0.00 in0.0 mm 0.00 in0.0 mm
06:11 AM 60.6°F15.9°C 61.2°F16.2°C 83% Calm Calm -- 29.98 in1015.2 mb 0.00 in0.0 mm 0.00 in0.0 mm 0.00 in0.0 mm
06:12 AM 60.6°F15.9°C 61.2°F16.2°C 82% Calm Calm -- 29.98 in1015.2 mb 0.00 in0.0 mm 0.00 in0.0 mm 0.00 in0.0 mm
06:14 AM 60.4°F15.8°C 61.2°F16.2°C 82% Calm Calm -- 29.97 in1014.9 mb 0.00 in0.0 mm 0.00 in0.0 mm 0.00 in0.0 mm
06:15 AM 60.4°F15.8°C 61.0°F16.1°C 82% Calm Calm -- 29.97 in1014.9 mb 0.00 in0.0 mm 0.00 in0.0 mm 0.00 in0.0 mm
06:17 AM 60.4°F15.8°C 61.1°F16.2°C 82% Calm Calm -- 29.97 in1014.9 mb 0.00 in0.0 mm 0.00 in0.0 mm 0.00 in0.0 mm
06:18 AM 60.2°F15.7°C 61.0°F16.1°C 82% Calm Calm -- 29.97 in1014.9 mb 0.00 in0.0 mm 0.00 in0.0 mm 0.00 in0.0 mm
06:20 AM 60.5°F15.8°C 61.2°F16.2°C 82% 0.4 mph NW0.6 kmh NW 0.4 mph0.6 kmh 29.97 in1014.9 mb 0.00 in0.0 mm 0.00 in0.0 mm 0.00 in0.0 mm
06:21 AM 60.5°F15.8°C 61.1°F16.2°C 82% 0.9 mph NW1.4 kmh NW 0.9 mph1.4 kmh 29.97 in1014.9 mb 0.00 in0.0 mm 0.00 in0.0 mm 0.00 in0.0 mm
06:23 AM 60.9°F16.1°C 61.4°F16.3°C 82% Calm Calm -- 29.97 in1014.9 mb 0.00 in0.0 mm 0.00 in0.0 mm 0.00 in0.0 mm
06:24 AM 60.9°F16.1°C 61.2°F16.2°C 82% Calm Calm -- 29.97 in1014.9 mb 0.00 in0.0 mm 0.00 in0.0 mm 0.00 in0.0 mm
06:26 AM 60.4°F15.8°C 61.0°F16.1°C 82% Calm Calm -- 29.97 in1014.9 mb 0.00 in0.0 mm 0.00 in0.0 mm 0.00 in0.0 mm
06:27 AM 60.7°F15.9°C 61.4°F16.3°C 82% Calm Calm -- 29.97 in1014.9 mb 0.00 in0.0 mm 0.00 in0.0 mm 0.00 in0.0 mm
06:29 AM 60.6°F15.9°C 61.3°F16.3°C 82% Calm Calm -- 29.97 in1014.9 mb 0.00 in0.0 mm 0.00 in0.0 mm 0.00 in0.0 mm
06:30 AM 60.6°F15.9°C 61.2°F16.2°C 81% Calm Calm -- 29.97 in1014.9 mb 0.00 in0.0 mm 0.00 in0.0 mm 0.00 in0.0 mm
06:32 AM 60.7°F15.9°C 61.7°F16.5°C 82% Calm Calm -- 29.97 in1014.9 mb 0.00 in0.0 mm 0.00 in0.0 mm 0.00 in0.0 mm
06:33 AM 60.8°F16.0°C 61.1°F16.2°C 81% Calm Calm -- 29.97 in1014.9 mb 0.00 in0.0 mm 0.00 in0.0 mm 0.00 in0.0 mm
06:35 AM 60.7°F15.9°C 61.4°F16.3°C 82% Calm Calm -- 29.97 in1014.9 mb 0.00 in0.0 mm 0.00 in0.0 mm 0.00 in0.0 mm
06:36 AM 61.0°F16.1°C 61.5°F16.4°C 82% Calm Calm -- 29.97 in1014.9 mb 0.00 in0.0 mm 0.00 in0.0 mm 0.00 in0.0 mm
06:38 AM 61.4°F16.3°C 61.4°F16.3°C 82% Calm Calm -- 29.97 in1014.9 mb 0.00 in0.0 mm 0.00 in0.0 mm 0.00 in0.0 mm
06:39 AM 61.4°F16.3°C 61.4°F16.3°C 82% Calm Calm -- 29.97 in1014.9 mb 0.00 in0.0 mm 0.00 in0.0 mm 0.00 in0.0 mm
06:41 AM 61.4°F16.3°C 61.6°F16.4°C 82% Calm Calm -- 29.97 in1014.9 mb 0.00 in0.0 mm 0.00 in0.0 mm 0.00 in0.0 mm
06:42 AM 61.3°F16.3°C 61.8°F16.6°C 82% Calm Calm -- 29.97 in1014.9 mb 0.00 in0.0 mm 0.00 in0.0 mm 0.00 in0.0 mm
06:44 AM 61.8°F16.6°C 61.4°F16.3°C 82% Calm Calm -- 29.97 in1014.9 mb 0.00 in0.0 mm 0.00 in0.0 mm 0.00 in0.0 mm
06:45 AM 61.8°F16.6°C 61.5°F16.4°C 82% Calm Calm -- 29.97 in1014.9 mb 0.00 in0.0 mm 0.00 in0.0 mm 0.00 in0.0 mm
06:47 AM 62.0°F16.7°C 61.7°F16.5°C 82% Calm Calm -- 29.96 in1014.6 mb 0.00 in0.0 mm 0.00 in0.0 mm 0.00 in0.0 mm
06:48 AM 62.0°F16.7°C 61.9°F16.6°C 83% Calm Calm -- 29.96 in1014.6 mb 0.00 in0.0 mm 0.00 in0.0 mm 0.00 in0.0 mm
06:50 AM 62.4°F16.9°C 61.9°F16.6°C 83% 0.4 mph W0.6 kmh W 0.4 mph0.6 kmh 29.96 in1014.6 mb 0.00 in0.0 mm 0.00 in0.0 mm 0.00 in0.0 mm
06:51 AM 62.5°F16.9°C 61.9°F16.6°C 82% 0.7 mph W1.1 kmh W 0.8 mph1.3 kmh 29.96 in1014.6 mb 0.00 in0.0 mm 0.00 in0.0 mm 0.00 in0.0 mm
06:53 AM 62.7°F17.1°C 62.2°F16.8°C 82% Calm Calm -- 29.96 in1014.6 mb 0.00 in0.0 mm 0.00 in0.0 mm 0.00 in0.0 mm
06:54 AM 62.9°F17.2°C 62.4°F16.9°C 83% Calm Calm -- 29.96 in1014.6 mb 0.00 in0.0 mm 0.00 in0.0 mm 0.00 in0.0 mm
06:56 AM 63.3°F17.4°C 62.1°F16.7°C 82% 0.4 mph W0.6 kmh W 0.4 mph0.6 kmh 29.96 in1014.6 mb 0.00 in0.0 mm 0.00 in0.0 mm 0.00 in0.0 mm
06:57 AM 63.3°F17.4°C 62.0°F16.7°C 82% 0.5 mph W0.8 kmh W 0.5 mph0.8 kmh 29.96 in1014.6 mb 0.00 in0.0 mm 0.00 in0.0 mm 0.00 in0.0 mm
06:59 AM 63.5°F17.5°C 62.2°F16.8°C 82% Calm Calm -- 29.96 in1014.6 mb 0.00 in0.0 mm 0.00 in0.0 mm 0.00 in0.0 mm
07:00 AM 63.6°F17.6°C 62.2°F16.8°C 82% Calm Calm -- 29.96 in1014.6 mb 0.00 in0.0 mm 0.00 in0.0 mm 0.00 in0.0 mm
07:02 AM 63.6°F17.6°C 62.3°F16.8°C 82% Calm Calm -- 29.96 in1014.6 mb 0.00 in0.0 mm 0.00 in0.0 mm 0.00 in0.0 mm
07:03 AM 63.7°F17.6°C 62.6°F17.0°C 82% Calm Calm -- 29.96 in1014.6 mb 0.00 in0.0 mm 0.00 in0.0 mm 0.00 in0.0 mm
07:05 AM 64.0°F17.8°C 62.5°F16.9°C 82% Calm Calm -- 29.96 in1014.6 mb 0.00 in0.0 mm 0.00 in0.0 mm 0.00 in0.0 mm
07:06 AM 64.0°F17.8°C 63.2°F17.3°C 83% Calm Calm -- 29.96 in1014.6 mb 0.00 in0.0 mm 0.00 in0.0 mm 0.00 in0.0 mm
07:08 AM 63.7°F17.6°C 62.8°F17.1°C 82% Calm Calm -- 29.96 in1014.6 mb 0.00 in0.0 mm 0.00 in0.0 mm 0.00 in0.0 mm
07:09 AM 63.7°F17.6°C 63.1°F17.3°C 82% Calm Calm -- 29.95 in1014.2 mb 0.00 in0.0 mm 0.00 in0.0 mm 0.00 in0.0 mm
07:11 AM 63.4°F17.4°C 62.6°F17.0°C 82% Calm Calm -- 29.96 in1014.6 mb 0.00 in0.0 mm 0.00 in0.0 mm 0.00 in0.0 mm
07:12 AM 63.4°F17.4°C 62.5°F16.9°C 81% 0.7 mph SE1.1 kmh SE 0.7 mph1.1 kmh 29.96 in1014.6 mb 0.00 in0.0 mm 0.00 in0.0 mm 0.00 in0.0 mm
07:14 AM 63.5°F17.5°C 62.8°F17.1°C 82% 0.8 mph SE1.3 kmh SE 0.8 mph1.3 kmh 29.95 in1014.2 mb 0.00 in0.0 mm 0.00 in0.0 mm 0.00 in0.0 mm
07:15 AM 63.5°F17.5°C 63.2°F17.3°C 82% 1.2 mph SE1.9 kmh SE 1.2 mph1.9 kmh 29.95 in1014.2 mb 0.00 in0.0 mm 0.00 in0.0 mm 0.00 in0.0 mm
07:17 AM 63.7°F17.6°C 62.8°F17.1°C 82% Calm Calm -- 29.95 in1014.2 mb 0.00 in0.0 mm 0.00 in0.0 mm 0.00 in0.0 mm
07:18 AM 63.8°F17.7°C 63.2°F17.3°C 82% Calm Calm -- 29.95 in1014.2 mb 0.00 in0.0 mm 0.00 in0.0 mm 0.00 in0.0 mm
07:20 AM 63.8°F17.7°C 63.1°F17.3°C 82% Calm Calm -- 29.95 in1014.2 mb 0.00 in0.0 mm 0.00 in0.0 mm 0.00 in0.0 mm
07:21 AM 63.8°F17.7°C 62.9°F17.2°C 82% Calm Calm -- 29.96 in1014.6 mb 0.00 in0.0 mm 0.00 in0.0 mm 0.00 in0.0 mm
07:23 AM 64.1°F17.8°C 63.1°F17.3°C 82% Calm Calm -- 29.95 in1014.2 mb 0.00 in0.0 mm 0.00 in0.0 mm 0.00 in0.0 mm
07:24 AM 64.1°F17.8°C 62.8°F17.1°C 81% Calm Calm -- 29.95 in1014.2 mb 0.00 in0.0 mm 0.00 in0.0 mm 0.00 in0.0 mm
07:26 AM 64.3°F17.9°C 63.1°F17.3°C 82% Calm Calm -- 29.95 in1014.2 mb 0.00 in0.0 mm 0.00 in0.0 mm 0.00 in0.0 mm
07:27 AM 64.4°F18.0°C 63.3°F17.4°C 81% Calm Calm -- 29.96 in1014.6 mb 0.00 in0.0 mm 0.00 in0.0 mm 0.00 in0.0 mm
07:29 AM 64.5°F18.1°C 62.9°F17.2°C 81% Calm Calm -- 29.95 in1014.2 mb 0.00 in0.0 mm 0.00 in0.0 mm 0.00 in0.0 mm
07:30 AM 64.7°F18.2°C 63.3°F17.4°C 81% Calm Calm -- 29.95 in1014.2 mb 0.00 in0.0 mm 0.00 in0.0 mm 0.00 in0.0 mm
07:32 AM 64.7°F18.2°C 63.0°F17.2°C 81% Calm Calm -- 29.94 in1013.9 mb 0.00 in0.0 mm 0.00 in0.0 mm 0.00 in0.0 mm
07:33 AM 64.7°F18.2°C 63.2°F17.3°C 81% Calm Calm -- 29.95 in1014.2 mb 0.00 in0.0 mm 0.00 in0.0 mm 0.00 in0.0 mm
07:35 AM 65.1°F18.4°C 63.4°F17.4°C 81% Calm Calm -- 29.95 in1014.2 mb 0.00 in0.0 mm 0.00 in0.0 mm 0.00 in0.0 mm
07:36 AM 65.2°F18.4°C 63.3°F17.4°C 81% Calm Calm -- 29.94 in1013.9 mb 0.00 in0.0 mm 0.00 in0.0 mm 0.00 in0.0 mm
07:38 AM 65.6°F18.7°C 63.3°F17.4°C 81% Calm Calm -- 29.94 in1013.9 mb 0.00 in0.0 mm 0.00 in0.0 mm 0.00 in0.0 mm
07:41 AM 65.6°F18.7°C 63.4°F17.4°C 80% Calm Calm -- 29.94 in1013.9 mb 0.00 in0.0 mm 0.00 in0.0 mm 0.00 in0.0 mm
07:42 AM 65.5°F18.6°C 63.5°F17.5°C 80% Calm Calm -- 29.94 in1013.9 mb 0.00 in0.0 mm 0.00 in0.0 mm 0.00 in0.0 mm
07:44 AM 65.9°F18.8°C 63.2°F17.3°C 79% Calm Calm -- 29.95 in1014.2 mb 0.00 in0.0 mm 0.00 in0.0 mm 0.00 in0.0 mm
07:45 AM 66.0°F18.9°C 63.2°F17.3°C 79% Calm Calm -- 29.95 in1014.2 mb 0.00 in0.0 mm 0.00 in0.0 mm 0.00 in0.0 mm
07:47 AM 66.0°F18.9°C 63.5°F17.5°C 80% Calm Calm -- 29.95 in1014.2 mb 0.00 in0.0 mm 0.00 in0.0 mm 0.00 in0.0 mm
07:48 AM 66.1°F18.9°C 63.3°F17.4°C 80% Calm Calm -- 29.95 in1014.2 mb 0.00 in0.0 mm 0.00 in0.0 mm 0.00 in0.0 mm
07:50 AM 65.0°F18.3°C 63.3°F17.4°C 80% Calm Calm -- 29.95 in1014.2 mb 0.00 in0.0 mm 0.00 in0.0 mm 0.00 in0.0 mm
07:51 AM 65.1°F18.4°C 63.4°F17.4°C 79% Calm Calm -- 29.95 in1014.2 mb 0.00 in0.0 mm 0.00 in0.0 mm 0.00 in0.0 mm
07:53 AM 65.8°F18.8°C 63.3°F17.4°C 79% Calm Calm -- 29.94 in1013.9 mb 0.00 in0.0 mm 0.00 in0.0 mm 0.00 in0.0 mm
07:54 AM 65.9°F18.8°C 63.4°F17.4°C 79% Calm Calm -- 29.94 in1013.9 mb 0.00 in0.0 mm 0.00 in0.0 mm 0.00 in0.0 mm
07:56 AM 65.9°F18.8°C 63.5°F17.5°C 79% Calm Calm -- 29.94 in1013.9 mb 0.00 in0.0 mm 0.00 in0.0 mm 0.00 in0.0 mm
07:57 AM 65.9°F18.8°C 63.6°F17.6°C 79% Calm Calm -- 29.95 in1014.2 mb 0.00 in0.0 mm 0.00 in0.0 mm 0.00 in0.0 mm
07:59 AM 66.2°F19.0°C 63.6°F17.6°C 79% Calm Calm -- 29.94 in1013.9 mb 0.00 in0.0 mm 0.00 in0.0 mm 0.00 in0.0 mm
08:00 AM 66.3°F19.1°C 63.6°F17.6°C 78% Calm Calm -- 29.94 in1013.9 mb 0.00 in0.0 mm 0.00 in0.0 mm 0.00 in0.0 mm
08:02 AM 67.7°F19.8°C 63.6°F17.6°C 79% Calm Calm -- 29.94 in1013.9 mb 0.00 in0.0 mm 0.00 in0.0 mm 0.00 in0.0 mm
08:03 AM 67.7°F19.8°C 63.8°F17.7°C 78% Calm Calm -- 29.95 in1014.2 mb 0.00 in0.0 mm 0.00 in0.0 mm 0.00 in0.0 mm
08:05 AM 67.9°F19.9°C 64.0°F17.8°C 78% Calm Calm -- 29.94 in1013.9 mb 0.00 in0.0 mm 0.00 in0.0 mm 0.00 in0.0 mm
08:06 AM 67.8°F19.9°C 64.0°F17.8°C 78% Calm Calm -- 29.95 in1014.2 mb 0.00 in0.0 mm 0.00 in0.0 mm 0.00 in0.0 mm
08:08 AM 68.2°F20.1°C 63.6°F17.6°C 77% Calm Calm -- 29.95 in1014.2 mb 0.00 in0.0 mm 0.00 in0.0 mm 0.00 in0.0 mm
08:09 AM 68.3°F20.2°C 64.0°F17.8°C 78% 0.5 mph W0.8 kmh W 0.5 mph0.8 kmh 29.95 in1014.2 mb 0.00 in0.0 mm 0.00 in0.0 mm 0.00 in0.0 mm
08:11 AM 67.6°F19.8°C 64.0°F17.8°C 78% 2.0 mph W3.2 kmh W 2.0 mph3.2 kmh 29.95 in1014.2 mb 0.00 in0.0 mm 0.00 in0.0 mm 0.00 in0.0 mm
08:12 AM 67.4°F19.7°C 64.1°F17.8°C 78% 2.0 mph WSW3.2 kmh WSW 2.1 mph3.4 kmh 29.96 in1014.6 mb 0.00 in0.0 mm 0.00 in0.0 mm 0.00 in0.0 mm
08:14 AM 67.2°F19.6°C 64.2°F17.9°C 78% 2.4 mph W3.9 kmh W 2.4 mph3.9 kmh 29.95 in1014.2 mb 0.00 in0.0 mm 0.00 in0.0 mm 0.00 in0.0 mm
08:15 AM 67.2°F19.6°C 64.6°F18.1°C 78% 2.3 mph W3.7 kmh W 2.5 mph4.0 kmh 29.96 in1014.6 mb 0.00 in0.0 mm 0.00 in0.0 mm 0.00 in0.0 mm
08:17 AM 66.7°F19.3°C 64.4°F18.0°C 78% 3.0 mph WSW4.8 kmh WSW 3.2 mph5.1 kmh 29.96 in1014.6 mb 0.00 in0.0 mm 0.00 in0.0 mm 0.00 in0.0 mm
08:18 AM 66.8°F19.3°C 64.3°F17.9°C 78% 3.3 mph WSW5.3 kmh WSW 3.3 mph5.3 kmh 29.96 in1014.6 mb 0.00 in0.0 mm 0.00 in0.0 mm 0.00 in0.0 mm
08:20 AM 67.4°F19.7°C 64.4°F18.0°C 78% 0.4 mph WNW0.6 kmh WNW 0.4 mph0.6 kmh 29.96 in1014.6 mb 0.00 in0.0 mm 0.00 in0.0 mm 0.00 in0.0 mm
08:21 AM 67.3°F19.6°C 64.3°F17.9°C 78% 0.9 mph WNW1.4 kmh WNW 0.9 mph1.4 kmh 29.95 in1014.2 mb 0.00 in0.0 mm 0.00 in0.0 mm 0.00 in0.0 mm
08:23 AM 67.2°F19.6°C 64.2°F17.9°C 77% 2.0 mph NW3.2 kmh NW 2.0 mph3.2 kmh 29.96 in1014.6 mb 0.00 in0.0 mm 0.00 in0.0 mm 0.00 in0.0 mm
08:24 AM 67.2°F19.6°C 64.4°F18.0°C 77% 1.9 mph NW3.1 kmh NW 1.9 mph3.1 kmh 29.96 in1014.6 mb 0.00 in0.0 mm 0.00 in0.0 mm 0.00 in0.0 mm
08:26 AM 67.8°F19.9°C 64.1°F17.8°C 76% 2.0 mph NW3.2 kmh NW 2.0 mph3.2 kmh 29.95 in1014.2 mb 0.00 in0.0 mm 0.00 in0.0 mm 0.00 in0.0 mm
08:27 AM 67.9°F19.9°C 64.0°F17.8°C 76% 1.9 mph WNW3.1 kmh WNW 1.9 mph3.1 kmh 29.96 in1014.6 mb 0.00 in0.0 mm 0.00 in0.0 mm 0.00 in0.0 mm
08:29 AM 67.6°F19.8°C 64.4°F18.0°C 77% 1.9 mph W3.1 kmh W 1.9 mph3.1 kmh 29.96 in1014.6 mb 0.00 in0.0 mm 0.00 in0.0 mm 0.00 in0.0 mm
08:30 AM 67.4°F19.7°C 64.2°F17.9°C 76% 1.6 mph W2.6 kmh W 1.6 mph2.6 kmh 29.96 in1014.6 mb 0.00 in0.0 mm 0.00 in0.0 mm 0.00 in0.0 mm
08:32 AM 68.7°F20.4°C 64.3°F17.9°C 76% 2.8 mph NW4.5 kmh NW 2.8 mph4.5 kmh 29.96 in1014.6 mb 0.00 in0.0 mm 0.00 in0.0 mm 0.00 in0.0 mm
08:33 AM 68.8°F20.4°C 64.4°F18.0°C 76% 4.0 mph NW6.4 kmh NW 4.0 mph6.4 kmh 29.96 in1014.6 mb 0.00 in0.0 mm 0.00 in0.0 mm 0.00 in0.0 mm
08:35 AM 68.7°F20.4°C 64.4°F18.0°C 76% 0.4 mph NNW0.6 kmh NNW 0.4 mph0.6 kmh 29.96 in1014.6 mb 0.00 in0.0 mm 0.00 in0.0 mm 0.00 in0.0 mm
08:36 AM 68.7°F20.4°C 64.2°F17.9°C 75% Calm Calm -- 29.96 in1014.6 mb 0.00 in0.0 mm 0.00 in0.0 mm 0.00 in0.0 mm
08:38 AM 68.9°F20.5°C 64.2°F17.9°C 76% 0.4 mph NW0.6 kmh NW 0.4 mph0.6 kmh 29.96 in1014.6 mb 0.00 in0.0 mm 0.00 in0.0 mm 0.00 in0.0 mm
08:39 AM 69.0°F20.6°C 64.6°F18.1°C 76% 0.2 mph NW0.3 kmh NW 0.2 mph0.3 kmh 29.96 in1014.6 mb 0.00 in0.0 mm 0.00 in0.0 mm 0.00 in0.0 mm
08:41 AM 68.3°F20.2°C 64.5°F18.1°C 76% 2.0 mph W3.2 kmh W 2.0 mph3.2 kmh 29.96 in1014.6 mb 0.00 in0.0 mm 0.00 in0.0 mm 0.00 in0.0 mm
08:42 AM 68.3°F20.2°C 64.4°F18.0°C 75% 2.1 mph W3.4 kmh W 2.1 mph3.4 kmh 29.96 in1014.6 mb 0.00 in0.0 mm 0.00 in0.0 mm 0.00 in0.0 mm
08:44 AM 68.6°F20.3°C 64.6°F18.1°C 75% 1.2 mph WSW1.9 kmh WSW 1.2 mph1.9 kmh 29.96 in1014.6 mb 0.00 in0.0 mm 0.00 in0.0 mm 0.00 in0.0 mm
08:45 AM 68.5°F20.3°C 64.8°F18.2°C 76% 2.1 mph WSW3.4 kmh WSW 2.3 mph3.7 kmh 29.96 in1014.6 mb 0.00 in0.0 mm 0.00 in0.0 mm 0.00 in0.0 mm
08:47 AM 68.5°F20.3°C 64.4°F18.0°C 75% 0.4 mph NW0.6 kmh NW 0.4 mph0.6 kmh 29.96 in1014.6 mb 0.00 in0.0 mm 0.00 in0.0 mm 0.00 in0.0 mm
08:48 AM 68.5°F20.3°C 64.4°F18.0°C 74% 0.2 mph NW0.3 kmh NW 0.3 mph0.5 kmh 29.96 in1014.6 mb 0.00 in0.0 mm 0.00 in0.0 mm 0.00 in0.0 mm
08:50 AM 68.6°F20.3°C 64.7°F18.2°C 75% 1.6 mph W2.6 kmh W 1.6 mph2.6 kmh 29.96 in1014.6 mb 0.00 in0.0 mm 0.00 in0.0 mm 0.00 in0.0 mm
08:51 AM 68.6°F20.3°C 64.8°F18.2°C 75% 1.4 mph W2.3 kmh W 1.4 mph2.3 kmh 29.96 in1014.6 mb 0.00 in0.0 mm 0.00 in0.0 mm 0.00 in0.0 mm
08:53 AM 69.5°F20.8°C 64.4°F18.0°C 74% Calm Calm -- 29.96 in1014.6 mb 0.00 in0.0 mm 0.00 in0.0 mm 0.00 in0.0 mm
08:54 AM 69.5°F20.8°C 65.0°F18.3°C 75% Calm Calm -- 29.96 in1014.6 mb 0.00 in0.0 mm 0.00 in0.0 mm 0.00 in0.0 mm
08:56 AM 70.4°F21.3°C 65.2°F18.4°C 76% Calm Calm -- 29.95 in1014.2 mb 0.00 in0.0 mm 0.00 in0.0 mm 0.00 in0.0 mm
08:57 AM 70.4°F21.3°C 65.2°F18.4°C 75% Calm Calm -- 29.95 in1014.2 mb 0.00 in0.0 mm 0.00 in0.0 mm 0.00 in0.0 mm
08:59 AM 70.3°F21.3°C 65.2°F18.4°C 75% Calm Calm -- 29.95 in1014.2 mb 0.00 in0.0 mm 0.00 in0.0 mm 0.00 in0.0 mm
09:00 AM 70.4°F21.3°C 65.4°F18.6°C 75% Calm Calm -- 29.95 in1014.2 mb 0.00 in0.0 mm 0.00 in0.0 mm 0.00 in0.0 mm
09:02 AM 70.6°F21.4°C 65.3°F18.5°C 74% Calm Calm -- 29.95 in1014.2 mb 0.00 in0.0 mm 0.00 in0.0 mm 0.00 in0.0 mm
09:03 AM 70.6°F21.4°C 65.6°F18.7°C 75% Calm Calm -- 29.96 in1014.6 mb 0.00 in0.0 mm 0.00 in0.0 mm 0.00 in0.0 mm
09:05 AM 70.5°F21.4°C 65.7°F18.7°C 75% Calm Calm -- 29.95 in1014.2 mb 0.00 in0.0 mm 0.00 in0.0 mm 0.00 in0.0 mm
09:06 AM 70.4°F21.3°C 65.8°F18.8°C 75% Calm Calm -- 29.95 in1014.2 mb 0.00 in0.0 mm 0.00 in0.0 mm 0.00 in0.0 mm
09:08 AM 70.4°F21.3°C 65.1°F18.4°C 74% Calm Calm -- 29.96 in1014.6 mb 0.00 in0.0 mm 0.00 in0.0 mm 0.00 in0.0 mm
09:09 AM 70.4°F21.3°C 65.3°F18.5°C 74% Calm Calm -- 29.95 in1014.2 mb 0.00 in0.0 mm 0.00 in0.0 mm 0.00 in0.0 mm
09:11 AM 70.3°F21.3°C 65.6°F18.7°C 75% 0.4 mph WSW0.6 kmh WSW 0.4 mph0.6 kmh 29.96 in1014.6 mb 0.00 in0.0 mm 0.00 in0.0 mm 0.00 in0.0 mm
09:12 AM 70.3°F21.3°C 65.6°F18.7°C 75% 0.5 mph WSW0.8 kmh WSW 0.5 mph0.8 kmh 29.95 in1014.2 mb 0.00 in0.0 mm 0.00 in0.0 mm 0.00 in0.0 mm
09:14 AM 70.8°F21.6°C 65.7°F18.7°C 74% 0.8 mph SW1.3 kmh SW 0.8 mph1.3 kmh 29.95 in1014.2 mb 0.00 in0.0 mm 0.00 in0.0 mm 0.00 in0.0 mm
09:15 AM 70.7°F21.5°C 65.9°F18.8°C 74% 0.7 mph SW1.1 kmh SW 0.7 mph1.1 kmh 29.96 in1014.6 mb 0.00 in0.0 mm 0.00 in0.0 mm 0.00 in0.0 mm
09:17 AM 69.9°F21.1°C 65.5°F18.6°C 73% 0.8 mph SW1.3 kmh SW 0.8 mph1.3 kmh 29.95 in1014.2 mb 0.00 in0.0 mm 0.00 in0.0 mm 0.00 in0.0 mm
09:18 AM 69.9°F21.1°C 65.5°F18.6°C 73% 0.7 mph SW1.1 kmh SW 0.7 mph1.1 kmh 29.96 in1014.6 mb 0.00 in0.0 mm 0.00 in0.0 mm 0.00 in0.0 mm
09:20 AM 71.4°F21.9°C 65.5°F18.6°C 73% 2.0 mph NW3.2 kmh NW 2.0 mph3.2 kmh 29.96 in1014.6 mb 0.00 in0.0 mm 0.00 in0.0 mm 0.00 in0.0 mm
09:21 AM 71.5°F21.9°C 65.3°F18.5°C 72% 1.6 mph NW2.6 kmh NW 1.6 mph2.6 kmh 29.96 in1014.6 mb 0.00 in0.0 mm 0.00 in0.0 mm 0.00 in0.0 mm
09:23 AM 72.2°F22.3°C 65.2°F18.4°C 72% 1.2 mph NNW1.9 kmh NNW 1.2 mph1.9 kmh 29.96 in1014.6 mb 0.00 in0.0 mm 0.00 in0.0 mm 0.00 in0.0 mm
09:24 AM 72.1°F22.3°C 65.3°F18.5°C 72% 0.7 mph W1.1 kmh W 0.8 mph1.3 kmh 29.96 in1014.6 mb 0.00 in0.0 mm 0.00 in0.0 mm 0.00 in0.0 mm
09:26 AM 71.0°F21.7°C 65.1°F18.4°C 71% 1.2 mph WSW1.9 kmh WSW 1.2 mph1.9 kmh 29.96 in1014.6 mb 0.00 in0.0 mm 0.00 in0.0 mm 0.00 in0.0 mm
09:27 AM 71.0°F21.7°C 65.0°F18.3°C 71% 1.2 mph WSW1.9 kmh WSW 1.3 mph2.1 kmh 29.96 in1014.6 mb 0.00 in0.0 mm 0.00 in0.0 mm 0.00 in0.0 mm
09:29 AM 71.4°F21.9°C 65.3°F18.5°C 71% 1.6 mph SW2.6 kmh SW 1.6 mph2.6 kmh 29.96 in1014.6 mb 0.00 in0.0 mm 0.00 in0.0 mm 0.00 in0.0 mm
09:30 AM 71.4°F21.9°C 65.2°F18.4°C 71% 2.3 mph SW3.7 kmh SW 2.3 mph3.7 kmh 29.96 in1014.6 mb 0.00 in0.0 mm 0.00 in0.0 mm 0.00 in0.0 mm
09:32 AM 70.7°F21.5°C 65.6°F18.7°C 71% 2.0 mph W3.2 kmh W 2.0 mph3.2 kmh 29.96 in1014.6 mb 0.00 in0.0 mm 0.00 in0.0 mm 0.00 in0.0 mm
09:33 AM 70.7°F21.5°C 64.9°F18.3°C 71% 1.6 mph W2.6 kmh W 1.8 mph2.9 kmh 29.96 in1014.6 mb 0.00 in0.0 mm 0.00 in0.0 mm 0.00 in0.0 mm
09:35 AM 71.7°F22.1°C 65.7°F18.7°C 72% 1.6 mph W2.6 kmh W 1.6 mph2.6 kmh 29.96 in1014.6 mb 0.00 in0.0 mm 0.00 in0.0 mm 0.00 in0.0 mm
09:36 AM 71.7°F22.1°C 66.1°F18.9°C 72% 0.9 mph W1.4 kmh W 1.0 mph1.6 kmh 29.96 in1014.6 mb 0.00 in0.0 mm 0.00 in0.0 mm 0.00 in0.0 mm
09:38 AM 71.8°F22.1°C 66.5°F19.2°C 73% 2.0 mph SSW3.2 kmh SSW 2.0 mph3.2 kmh 29.96 in1014.6 mb 0.00 in0.0 mm 0.00 in0.0 mm 0.00 in0.0 mm
09:39 AM 71.9°F22.2°C 66.7°F19.3°C 73% 2.6 mph SW4.2 kmh SW 2.6 mph4.2 kmh 29.96 in1014.6 mb 0.00 in0.0 mm 0.00 in0.0 mm 0.00 in0.0 mm
09:41 AM 71.7°F22.1°C 65.8°F18.8°C 71% 1.6 mph WSW2.6 kmh WSW 1.6 mph2.6 kmh 29.96 in1014.6 mb 0.00 in0.0 mm 0.00 in0.0 mm 0.00 in0.0 mm
09:42 AM 71.8°F22.1°C 65.9°F18.8°C 71% 1.9 mph WSW3.1 kmh WSW 1.9 mph3.1 kmh 29.96 in1014.6 mb 0.00 in0.0 mm 0.00 in0.0 mm 0.00 in0.0 mm
09:44 AM 71.6°F22.0°C 66.5°F19.2°C 72% 1.6 mph SW2.6 kmh SW 1.6 mph2.6 kmh 29.96 in1014.6 mb 0.00 in0.0 mm 0.00 in0.0 mm 0.00 in0.0 mm
09:45 AM 71.5°F21.9°C 66.4°F19.1°C 72% 2.3 mph SW3.7 kmh SW 2.5 mph4.0 kmh 29.96 in1014.6 mb 0.00 in0.0 mm 0.00 in0.0 mm 0.00 in0.0 mm
09:47 AM 71.6°F22.0°C 65.7°F18.7°C 70% Calm Calm -- 29.96 in1014.6 mb 0.00 in0.0 mm 0.00 in0.0 mm 0.00 in0.0 mm
09:48 AM 71.6°F22.0°C 66.0°F18.9°C 70% 0.5 mph SSW0.8 kmh SSW 0.5 mph0.8 kmh 29.96 in1014.6 mb 0.00 in0.0 mm 0.00 in0.0 mm 0.00 in0.0 mm
09:50 AM 72.5°F22.5°C 66.2°F19.0°C 71% 1.2 mph SW1.9 kmh SW 1.2 mph1.9 kmh 29.96 in1014.6 mb 0.00 in0.0 mm 0.00 in0.0 mm 0.00 in0.0 mm
09:51 AM 72.5°F22.5°C 66.1°F18.9°C 71% 1.6 mph SW2.6 kmh SW 1.6 mph2.6 kmh 29.96 in1014.6 mb 0.00 in0.0 mm 0.00 in0.0 mm 0.00 in0.0 mm
09:53 AM 72.2°F22.3°C 65.7°F18.7°C 69% 2.8 mph SW4.5 kmh SW 2.9 mph4.7 kmh 29.96 in1014.6 mb 0.00 in0.0 mm 0.00 in0.0 mm 0.00 in0.0 mm
09:54 AM 72.1°F22.3°C 65.8°F18.8°C 69% 2.7 mph SW4.3 kmh SW 2.7 mph4.3 kmh 29.96 in1014.6 mb 0.00 in0.0 mm 0.00 in0.0 mm 0.00 in0.0 mm
09:56 AM 72.1°F22.3°C 66.2°F19.0°C 70% 2.4 mph S3.9 kmh S 2.4 mph3.9 kmh 29.96 in1014.6 mb 0.00 in0.0 mm 0.00 in0.0 mm 0.00 in0.0 mm
09:57 AM 72.2°F22.3°C 66.2°F19.0°C 70% 1.9 mph SSW3.1 kmh SSW 1.9 mph3.1 kmh 29.96 in1014.6 mb 0.00 in0.0 mm 0.00 in0.0 mm 0.00 in0.0 mm
09:59 AM 71.7°F22.1°C 65.9°F18.8°C 69% 1.2 mph SW1.9 kmh SW 1.2 mph1.9 kmh 29.96 in1014.6 mb 0.00 in0.0 mm 0.00 in0.0 mm 0.00 in0.0 mm
10:02 AM 72.7°F22.6°C 65.6°F18.7°C 69% 3.2 mph W5.1 kmh W 3.2 mph5.1 kmh 29.96 in1014.6 mb 0.00 in0.0 mm 0.00 in0.0 mm 0.00 in0.0 mm
10:03 AM 72.6°F22.6°C 65.7°F18.7°C 69% 3.3 mph W5.3 kmh W 3.3 mph5.3 kmh 29.96 in1014.6 mb 0.00 in0.0 mm 0.00 in0.0 mm 0.00 in0.0 mm
10:05 AM 71.4°F21.9°C 65.1°F18.4°C 67% 3.6 mph NNW5.8 kmh NNW 3.6 mph5.8 kmh 29.96 in1014.6 mb 0.00 in0.0 mm 0.00 in0.0 mm 0.00 in0.0 mm
10:06 AM 71.3°F21.8°C 65.2°F18.4°C 67% 3.9 mph SW6.3 kmh SW 4.0 mph6.4 kmh 29.96 in1014.6 mb 0.00 in0.0 mm 0.00 in0.0 mm 0.00 in0.0 mm
10:08 AM 72.7°F22.6°C 65.8°F18.8°C 69% 2.7 mph W4.3 kmh W 2.7 mph4.3 kmh 29.96 in1014.6 mb 0.00 in0.0 mm 0.00 in0.0 mm 0.00 in0.0 mm
10:09 AM 72.6°F22.6°C 66.0°F18.9°C 69% 2.6 mph WSW4.2 kmh WSW 2.6 mph4.2 kmh 29.96 in1014.6 mb 0.00 in0.0 mm 0.00 in0.0 mm 0.00 in0.0 mm
10:11 AM 71.2°F21.8°C 64.8°F18.2°C 66% 3.2 mph SW5.1 kmh SW 3.2 mph5.1 kmh 29.96 in1014.6 mb 0.00 in0.0 mm 0.00 in0.0 mm 0.00 in0.0 mm
10:12 AM 71.2°F21.8°C 64.5°F18.1°C 66% 3.5 mph SSW5.6 kmh SSW 3.5 mph5.6 kmh 29.96 in1014.6 mb 0.00 in0.0 mm 0.00 in0.0 mm 0.00 in0.0 mm
10:14 AM 71.0°F21.7°C 65.2°F18.4°C 67% 4.0 mph W6.4 kmh W 4.0 mph6.4 kmh 29.96 in1014.6 mb 0.00 in0.0 mm 0.00 in0.0 mm 0.00 in0.0 mm
10:15 AM 71.2°F21.8°C 65.0°F18.3°C 67% 3.7 mph WSW6.0 kmh WSW 3.8 mph6.1 kmh 29.96 in1014.6 mb 0.00 in0.0 mm 0.00 in0.0 mm 0.00 in0.0 mm
10:17 AM 72.6°F22.6°C 65.7°F18.7°C 68% 1.6 mph NNW2.6 kmh NNW 1.6 mph2.6 kmh 29.96 in1014.6 mb 0.00 in0.0 mm 0.00 in0.0 mm 0.00 in0.0 mm
10:18 AM 72.6°F22.6°C 65.6°F18.7°C 68% 2.3 mph NNW3.7 kmh NNW 2.3 mph3.7 kmh 29.96 in1014.6 mb 0.00 in0.0 mm 0.00 in0.0 mm 0.00 in0.0 mm
10:20 AM 72.2°F22.3°C 66.4°F19.1°C 69% 2.4 mph SW3.9 kmh SW 2.4 mph3.9 kmh 29.96 in1014.6 mb 0.00 in0.0 mm 0.00 in0.0 mm 0.00 in0.0 mm
10:21 AM 72.2°F22.3°C 66.1°F18.9°C 68% 2.6 mph WSW4.2 kmh WSW 2.6 mph4.2 kmh 29.96 in1014.6 mb 0.00 in0.0 mm 0.00 in0.0 mm 0.00 in0.0 mm
10:23 AM 73.1°F22.8°C 66.1°F18.9°C 67% 0.8 mph NW1.3 kmh NW 0.8 mph1.3 kmh 29.96 in1014.6 mb 0.00 in0.0 mm 0.00 in0.0 mm 0.00 in0.0 mm
10:24 AM 73.2°F22.9°C 66.2°F19.0°C 68% 0.9 mph W1.4 kmh W 1.0 mph1.6 kmh 29.96 in1014.6 mb 0.00 in0.0 mm 0.00 in0.0 mm 0.00 in0.0 mm
10:26 AM 72.6°F22.6°C 66.0°F18.9°C 68% 4.5 mph W7.2 kmh W 4.5 mph7.2 kmh 29.96 in1014.6 mb 0.00 in0.0 mm 0.00 in0.0 mm 0.00 in0.0 mm
10:27 AM 72.7°F22.6°C 66.3°F19.1°C 68% 3.7 mph W6.0 kmh W 3.8 mph6.1 kmh 29.96 in1014.6 mb 0.00 in0.0 mm 0.00 in0.0 mm 0.00 in0.0 mm
10:29 AM 73.2°F22.9°C 65.5°F18.6°C 66% 1.6 mph NNW2.6 kmh NNW 1.6 mph2.6 kmh 29.96 in1014.6 mb 0.00 in0.0 mm 0.00 in0.0 mm 0.00 in0.0 mm
10:30 AM 73.0°F22.8°C 65.6°F18.7°C 66% 1.2 mph NW1.9 kmh NW 1.4 mph2.3 kmh 29.95 in1014.2 mb 0.00 in0.0 mm 0.00 in0.0 mm 0.00 in0.0 mm
10:32 AM 72.1°F22.3°C 65.9°F18.8°C 66% 2.0 mph WSW3.2 kmh WSW 2.0 mph3.2 kmh 29.96 in1014.6 mb 0.00 in0.0 mm 0.00 in0.0 mm 0.00 in0.0 mm
10:33 AM 71.9°F22.2°C 66.1°F18.9°C 67% 1.8 mph WSW2.9 kmh WSW 1.9 mph3.1 kmh 29.96 in1014.6 mb 0.00 in0.0 mm 0.00 in0.0 mm 0.00 in0.0 mm
10:35 AM 73.1°F22.8°C 66.0°F18.9°C 66% 2.0 mph SW3.2 kmh SW 2.0 mph3.2 kmh 29.96 in1014.6 mb 0.00 in0.0 mm 0.00 in0.0 mm 0.00 in0.0 mm
10:36 AM 73.0°F22.8°C 66.1°F18.9°C 67% 2.3 mph SW3.7 kmh SW 2.3 mph3.7 kmh 29.96 in1014.6 mb 0.00 in0.0 mm 0.00 in0.0 mm 0.00 in0.0 mm
10:38 AM 71.2°F21.8°C 65.5°F18.6°C 66% 3.6 mph SW5.8 kmh SW 3.7 mph6.0 kmh 29.96 in1014.6 mb 0.00 in0.0 mm 0.00 in0.0 mm 0.00 in0.0 mm
10:39 AM 71.3°F21.8°C 66.1°F18.9°C 66% 4.0 mph SW6.4 kmh SW 4.0 mph6.4 kmh 29.96 in1014.6 mb 0.00 in0.0 mm 0.00 in0.0 mm 0.00 in0.0 mm
10:41 AM 71.9°F22.2°C 65.8°F18.8°C 66% 3.2 mph WSW5.1 kmh WSW 3.3 mph5.3 kmh 29.96 in1014.6 mb 0.00 in0.0 mm 0.00 in0.0 mm 0.00 in0.0 mm
10:42 AM 71.9°F22.2°C 65.8°F18.8°C 66% 3.0 mph WSW4.8 kmh WSW 3.0 mph4.8 kmh 29.96 in1014.6 mb 0.00 in0.0 mm 0.00 in0.0 mm 0.00 in0.0 mm
10:44 AM 73.3°F22.9°C 65.8°F18.8°C 66% 2.4 mph WNW3.9 kmh WNW 2.4 mph3.9 kmh 29.96 in1014.6 mb 0.00 in0.0 mm 0.00 in0.0 mm 0.00 in0.0 mm
10:45 AM 73.3°F22.9°C 65.7°F18.7°C 65% 2.1 mph NW3.4 kmh NW 2.1 mph3.4 kmh 29.96 in1014.6 mb 0.00 in0.0 mm 0.00 in0.0 mm 0.00 in0.0 mm
10:47 AM 74.4°F23.6°C 66.9°F19.4°C 66% 2.0 mph NNW3.2 kmh NNW 2.0 mph3.2 kmh 29.96 in1014.6 mb 0.00 in0.0 mm 0.00 in0.0 mm 0.00 in0.0 mm
10:48 AM 74.5°F23.6°C 66.5°F19.2°C 66% 1.4 mph WSW2.3 kmh WSW 1.5 mph2.4 kmh 29.96 in1014.6 mb 0.00 in0.0 mm 0.00 in0.0 mm 0.00 in0.0 mm
10:50 AM 72.2°F22.3°C 65.9°F18.8°C 65% 0.4 mph SSW0.6 kmh SSW 0.4 mph0.6 kmh 29.96 in1014.6 mb 0.00 in0.0 mm 0.00 in0.0 mm 0.00 in0.0 mm
10:51 AM 72.2°F22.3°C 66.0°F18.9°C 64% 0.7 mph SSW1.1 kmh SSW 0.7 mph1.1 kmh 29.96 in1014.6 mb 0.00 in0.0 mm 0.00 in0.0 mm 0.00 in0.0 mm
10:53 AM 72.5°F22.5°C 66.0°F18.9°C 64% 2.8 mph W4.5 kmh W 2.8 mph4.5 kmh 29.96 in1014.6 mb 0.00 in0.0 mm 0.00 in0.0 mm 0.00 in0.0 mm
10:54 AM 72.7°F22.6°C 66.0°F18.9°C 64% 2.8 mph W4.5 kmh W 3.1 mph5.0 kmh 29.96 in1014.6 mb 0.00 in0.0 mm 0.00 in0.0 mm 0.00 in0.0 mm
10:56 AM 73.0°F22.8°C 66.4°F19.1°C 65% 3.6 mph W5.8 kmh W 3.6 mph5.8 kmh 29.96 in1014.6 mb 0.00 in0.0 mm 0.00 in0.0 mm 0.00 in0.0 mm
10:57 AM 72.8°F22.7°C 66.1°F18.9°C 64% 2.1 mph W3.4 kmh W 2.2 mph3.5 kmh 29.96 in1014.6 mb 0.00 in0.0 mm 0.00 in0.0 mm 0.00 in0.0 mm
10:59 AM 74.1°F23.4°C 65.9°F18.8°C 64% 1.9 mph NNW3.1 kmh NNW 1.9 mph3.1 kmh 29.96 in1014.6 mb 0.00 in0.0 mm 0.00 in0.0 mm 0.00 in0.0 mm
11:00 AM 74.1°F23.4°C 65.9°F18.8°C 64% 1.7 mph NW2.7 kmh NW 1.8 mph2.9 kmh 29.96 in1014.6 mb 0.00 in0.0 mm 0.00 in0.0 mm 0.00 in0.0 mm
11:02 AM 73.1°F22.8°C 65.0°F18.3°C 61% 2.4 mph 3.9 kmh 2.4 mph3.9 kmh 29.96 in1014.6 mb 0.00 in0.0 mm 0.00 in0.0 mm 0.00 in0.0 mm
11:03 AM 73.1°F22.8°C 64.8°F18.2°C 61% 2.9 mph NNW4.7 kmh NNW 3.0 mph4.8 kmh 29.96 in1014.6 mb 0.00 in0.0 mm 0.00 in0.0 mm 0.00 in0.0 mm
11:05 AM 72.6°F22.6°C 65.4°F18.6°C 62% 1.6 mph WSW2.6 kmh WSW 1.6 mph2.6 kmh 29.96 in1014.6 mb 0.00 in0.0 mm 0.00 in0.0 mm 0.00 in0.0 mm
11:06 AM 72.7°F22.6°C 65.5°F18.6°C 62% 1.6 mph WSW2.6 kmh WSW 1.6 mph2.6 kmh 29.96 in1014.6 mb 0.00 in0.0 mm 0.00 in0.0 mm 0.00 in0.0 mm
11:08 AM 73.0°F22.8°C 66.0°F18.9°C 63% 1.6 mph W2.6 kmh W 1.6 mph2.6 kmh 29.96 in1014.6 mb 0.00 in0.0 mm 0.00 in0.0 mm 0.00 in0.0 mm
11:09 AM 72.8°F22.7°C 66.1°F18.9°C 63% 0.9 mph W1.4 kmh W 1.0 mph1.6 kmh 29.96 in1014.6 mb 0.00 in0.0 mm 0.00 in0.0 mm 0.00 in0.0 mm
11:11 AM 73.5°F23.1°C 66.2°F19.0°C 64% 1.2 mph W1.9 kmh W 1.2 mph1.9 kmh 29.95 in1014.2 mb 0.00 in0.0 mm 0.00 in0.0 mm 0.00 in0.0 mm
11:12 AM 73.5°F23.1°C 66.3°F19.1°C 64% 0.9 mph W1.4 kmh W 0.9 mph1.4 kmh 29.96 in1014.6 mb 0.00 in0.0 mm 0.00 in0.0 mm 0.00 in0.0 mm
11:14 AM 73.2°F22.9°C 65.7°F18.7°C 62% 0.8 mph NNW1.3 kmh NNW 0.8 mph1.3 kmh 29.95 in1014.2 mb 0.00 in0.0 mm 0.00 in0.0 mm 0.00 in0.0 mm
11:15 AM 73.3°F22.9°C 65.7°F18.7°C 62% 1.0 mph NNW1.6 kmh NNW 1.0 mph1.6 kmh 29.95 in1014.2 mb 0.00 in0.0 mm 0.00 in0.0 mm 0.00 in0.0 mm
11:17 AM 74.8°F23.8°C 66.1°F18.9°C 63% 3.6 mph NNW5.8 kmh NNW 3.7 mph6.0 kmh 29.95 in1014.2 mb 0.00 in0.0 mm 0.00 in0.0 mm 0.00 in0.0 mm
11:18 AM 74.9°F23.8°C 65.8°F18.8°C 63% 2.8 mph NNW4.5 kmh NNW 2.8 mph4.5 kmh 29.95 in1014.2 mb 0.00 in0.0 mm 0.00 in0.0 mm 0.00 in0.0 mm
11:20 AM 74.3°F23.5°C 66.9°F19.4°C 64% 1.6 mph SW2.6 kmh SW 1.6 mph2.6 kmh 29.95 in1014.2 mb 0.00 in0.0 mm 0.00 in0.0 mm 0.00 in0.0 mm
11:21 AM 74.4°F23.6°C 66.8°F19.3°C 63% 2.1 mph SW3.4 kmh SW 2.1 mph3.4 kmh 29.95 in1014.2 mb 0.00 in0.0 mm 0.00 in0.0 mm 0.00 in0.0 mm
11:23 AM 73.4°F23.0°C 66.2°F19.0°C 62% 0.4 mph WSW0.6 kmh WSW 0.4 mph0.6 kmh 29.95 in1014.2 mb 0.00 in0.0 mm 0.00 in0.0 mm 0.00 in0.0 mm
11:24 AM 73.5°F23.1°C 66.0°F18.9°C 61% 0.7 mph WSW1.1 kmh WSW 0.7 mph1.1 kmh 29.94 in1013.9 mb 0.00 in0.0 mm 0.00 in0.0 mm 0.00 in0.0 mm
11:26 AM 75.2°F24.0°C 66.5°F19.2°C 62% 1.5 mph NNW2.4 kmh NNW 1.5 mph2.4 kmh 29.94 in1013.9 mb 0.00 in0.0 mm 0.00 in0.0 mm 0.00 in0.0 mm
11:27 AM 75.2°F24.0°C 66.0°F18.9°C 61% 1.1 mph WNW1.8 kmh WNW 1.1 mph1.8 kmh 29.94 in1013.9 mb 0.00 in0.0 mm 0.00 in0.0 mm 0.00 in0.0 mm
11:29 AM 73.9°F23.3°C 66.5°F19.2°C 62% 2.0 mph NNW3.2 kmh NNW 2.0 mph3.2 kmh 29.94 in1013.9 mb 0.00 in0.0 mm 0.00 in0.0 mm 0.00 in0.0 mm
11:30 AM 73.9°F23.3°C 66.7°F19.3°C 62% 2.1 mph NNW3.4 kmh NNW 2.2 mph3.5 kmh 29.94 in1013.9 mb 0.00 in0.0 mm 0.00 in0.0 mm 0.00 in0.0 mm
11:32 AM 72.6°F22.6°C 65.5°F18.6°C 60% 1.2 mph NW1.9 kmh NW 1.2 mph1.9 kmh 29.94 in1013.9 mb 0.00 in0.0 mm 0.00 in0.0 mm 0.00 in0.0 mm
11:33 AM 72.6°F22.6°C 65.7°F18.7°C 60% 0.9 mph NW1.4 kmh NW 1.1 mph1.8 kmh 29.94 in1013.9 mb 0.00 in0.0 mm 0.00 in0.0 mm 0.00 in0.0 mm
11:35 AM 73.5°F23.1°C 65.9°F18.8°C 61% 0.8 mph W1.3 kmh W 0.8 mph1.3 kmh 29.94 in1013.9 mb 0.00 in0.0 mm 0.00 in0.0 mm 0.00 in0.0 mm
11:36 AM 73.5°F23.1°C 65.7°F18.7°C 61% 1.8 mph W2.9 kmh W 1.9 mph3.1 kmh 29.94 in1013.9 mb 0.00 in0.0 mm 0.00 in0.0 mm 0.00 in0.0 mm
11:38 AM 74.2°F23.4°C 66.6°F19.2°C 62% 0.8 mph NNW1.3 kmh NNW 0.8 mph1.3 kmh 29.94 in1013.9 mb 0.00 in0.0 mm 0.00 in0.0 mm 0.00 in0.0 mm
11:39 AM 74.1°F23.4°C 66.6°F19.2°C 62% 0.7 mph NNW1.1 kmh NNW 0.8 mph1.3 kmh 29.94 in1013.9 mb 0.00 in0.0 mm 0.00 in0.0 mm 0.00 in0.0 mm
11:41 AM 73.4°F23.0°C 65.7°F18.7°C 60% Calm Calm -- 29.94 in1013.9 mb 0.00 in0.0 mm 0.00 in0.0 mm 0.00 in0.0 mm
11:42 AM 73.4°F23.0°C 65.5°F18.6°C 60% Calm Calm -- 29.94 in1013.9 mb 0.00 in0.0 mm 0.00 in0.0 mm 0.00 in0.0 mm
11:44 AM 72.3°F22.4°C 66.1°F18.9°C 61% 2.0 mph WSW3.2 kmh WSW 2.0 mph3.2 kmh 29.94 in1013.9 mb 0.00 in0.0 mm 0.00 in0.0 mm 0.00 in0.0 mm
11:45 AM 72.3°F22.4°C 66.0°F18.9°C 61% 1.8 mph W2.9 kmh W 2.0 mph3.2 kmh 29.94 in1013.9 mb 0.00 in0.0 mm 0.00 in0.0 mm 0.00 in0.0 mm
11:47 AM 72.1°F22.3°C 66.3°F19.1°C 62% 0.4 mph WSW0.6 kmh WSW 0.4 mph0.6 kmh 29.94 in1013.9 mb 0.00 in0.0 mm 0.00 in0.0 mm 0.00 in0.0 mm
11:48 AM 72.1°F22.3°C 66.1°F18.9°C 62% 0.2 mph WSW0.3 kmh WSW 0.3 mph0.5 kmh 29.94 in1013.9 mb 0.00 in0.0 mm 0.00 in0.0 mm 0.00 in0.0 mm
11:50 AM 73.7°F23.2°C 66.7°F19.3°C 63% Calm Calm -- 29.94 in1013.9 mb 0.00 in0.0 mm 0.00 in0.0 mm 0.00 in0.0 mm
11:51 AM 73.6°F23.1°C 66.2°F19.0°C 62% 0.2 mph W0.3 kmh W 0.2 mph0.3 kmh 29.94 in1013.9 mb 0.00 in0.0 mm 0.00 in0.0 mm 0.00 in0.0 mm
11:53 AM 74.0°F23.3°C 66.2°F19.0°C 62% Calm Calm -- 29.93 in1013.5 mb 0.00 in0.0 mm 0.00 in0.0 mm 0.00 in0.0 mm
11:54 AM 74.1°F23.4°C 66.6°F19.2°C 62% Calm Calm -- 29.94 in1013.9 mb 0.00 in0.0 mm 0.00 in0.0 mm 0.00 in0.0 mm
11:56 AM 73.7°F23.2°C 65.9°F18.8°C 61% 0.4 mph NNW0.6 kmh NNW 0.4 mph0.6 kmh 29.93 in1013.5 mb 0.00 in0.0 mm 0.00 in0.0 mm 0.00 in0.0 mm
11:57 AM 73.7°F23.2°C 66.3°F19.1°C 61% Calm Calm -- 29.93 in1013.5 mb 0.00 in0.0 mm 0.00 in0.0 mm 0.00 in0.0 mm
11:59 AM 73.9°F23.3°C 66.6°F19.2°C 62% 1.6 mph SW2.6 kmh SW 1.6 mph2.6 kmh 29.93 in1013.5 mb 0.00 in0.0 mm 0.00 in0.0 mm 0.00 in0.0 mm
12:00 PM 73.7°F23.2°C 66.7°F19.3°C 62% 0.9 mph SW1.4 kmh SW 1.0 mph1.6 kmh 29.93 in1013.5 mb 0.00 in0.0 mm 0.00 in0.0 mm 0.00 in0.0 mm
12:02 PM 72.7°F22.6°C 66.3°F19.1°C 61% 0.8 mph NNW1.3 kmh NNW 0.8 mph1.3 kmh 29.93 in1013.5 mb 0.00 in0.0 mm 0.00 in0.0 mm 0.00 in0.0 mm
12:03 PM 72.7°F22.6°C 66.0°F18.9°C 61% 1.1 mph SW1.8 kmh SW 1.2 mph1.9 kmh 29.93 in1013.5 mb 0.00 in0.0 mm 0.00 in0.0 mm 0.00 in0.0 mm
12:05 PM 72.7°F22.6°C 66.2°F19.0°C 62% 0.8 mph NNW1.3 kmh NNW 0.8 mph1.3 kmh 29.92 in1013.2 mb 0.00 in0.0 mm 0.00 in0.0 mm 0.00 in0.0 mm
12:06 PM 72.8°F22.7°C 66.2°F19.0°C 61% 0.9 mph SW1.4 kmh SW 1.0 mph1.6 kmh 29.92 in1013.2 mb 0.00 in0.0 mm 0.00 in0.0 mm 0.00 in0.0 mm
12:08 PM 73.9°F23.3°C 66.2°F19.0°C 62% 2.3 mph 3.7 kmh 2.3 mph3.7 kmh 29.93 in1013.5 mb 0.00 in0.0 mm 0.00 in0.0 mm 0.00 in0.0 mm
12:09 PM 74.0°F23.3°C 65.9°F18.8°C 61% 2.3 mph NNW3.7 kmh NNW 2.3 mph3.7 kmh 29.92 in1013.2 mb 0.00 in0.0 mm 0.00 in0.0 mm 0.00 in0.0 mm
12:11 PM 74.1°F23.4°C 67.0°F19.4°C 63% 1.6 mph SW2.6 kmh SW 1.6 mph2.6 kmh 29.92 in1013.2 mb 0.00 in0.0 mm 0.00 in0.0 mm 0.00 in0.0 mm
12:12 PM 74.0°F23.3°C 67.0°F19.4°C 63% 1.2 mph SW1.9 kmh SW 1.2 mph1.9 kmh 29.92 in1013.2 mb 0.00 in0.0 mm 0.00 in0.0 mm 0.00 in0.0 mm
12:14 PM 73.4°F23.0°C 66.3°F19.1°C 61% 0.4 mph SW0.6 kmh SW 0.4 mph0.6 kmh 29.92 in1013.2 mb 0.00 in0.0 mm 0.00 in0.0 mm 0.00 in0.0 mm
12:15 PM 73.4°F23.0°C 66.2°F19.0°C 61% 0.7 mph SW1.1 kmh SW 0.8 mph1.3 kmh 29.92 in1013.2 mb 0.00 in0.0 mm 0.00 in0.0 mm 0.00 in0.0 mm
12:17 PM 73.6°F23.1°C 65.8°F18.8°C 61% 2.0 mph W3.2 kmh W 2.0 mph3.2 kmh 29.92 in1013.2 mb 0.00 in0.0 mm 0.00 in0.0 mm 0.00 in0.0 mm
12:18 PM 73.7°F23.2°C 66.3°F19.1°C 61% 1.9 mph W3.1 kmh W 2.0 mph3.2 kmh 29.92 in1013.2 mb 0.00 in0.0 mm 0.00 in0.0 mm 0.00 in0.0 mm
12:20 PM 73.4°F23.0°C 66.5°F19.2°C 62% Calm Calm -- 29.92 in1013.2 mb 0.00 in0.0 mm 0.00 in0.0 mm 0.00 in0.0 mm
12:21 PM 73.5°F23.1°C 66.6°F19.2°C 62% 0.7 mph SW1.1 kmh SW 0.7 mph1.1 kmh 29.92 in1013.2 mb 0.00 in0.0 mm 0.00 in0.0 mm 0.00 in0.0 mm
12:23 PM 73.6°F23.1°C 66.4°F19.1°C 61% 0.8 mph SW1.3 kmh SW 0.8 mph1.3 kmh 29.92 in1013.2 mb 0.00 in0.0 mm 0.00 in0.0 mm 0.00 in0.0 mm
12:24 PM 73.6°F23.1°C 66.2°F19.0°C 61% 0.6 mph SW1.0 kmh SW 0.6 mph1.0 kmh 29.92 in1013.2 mb 0.00 in0.0 mm 0.00 in0.0 mm 0.00 in0.0 mm
12:26 PM 73.3°F22.9°C 65.8°F18.8°C 61% Calm Calm -- 29.92 in1013.2 mb 0.00 in0.0 mm 0.00 in0.0 mm 0.00 in0.0 mm
12:27 PM 73.2°F22.9°C 65.6°F18.7°C 60% Calm Calm -- 29.92 in1013.2 mb 0.00 in0.0 mm 0.00 in0.0 mm 0.00 in0.0 mm
12:29 PM 73.9°F23.3°C 66.0°F18.9°C 61% 1.1 mph SW1.8 kmh SW 1.2 mph1.9 kmh 29.92 in1013.2 mb 0.00 in0.0 mm 0.00 in0.0 mm 0.00 in0.0 mm
12:30 PM 73.9°F23.3°C 66.6°F19.2°C 61% 1.1 mph SW1.8 kmh SW 1.1 mph1.8 kmh 29.92 in1013.2 mb 0.00 in0.0 mm 0.00 in0.0 mm 0.00 in0.0 mm
12:32 PM 74.9°F23.8°C 67.0°F19.4°C 62% Calm Calm -- 29.92 in1013.2 mb 0.00 in0.0 mm 0.00 in0.0 mm 0.00 in0.0 mm
12:33 PM 75.0°F23.9°C 67.6°F19.8°C 63% Calm Calm -- 29.92 in1013.2 mb 0.00 in0.0 mm 0.00 in0.0 mm 0.00 in0.0 mm
12:35 PM 73.6°F23.1°C 65.4°F18.6°C 59% 0.4 mph SW0.6 kmh SW 0.4 mph0.6 kmh 29.92 in1013.2 mb 0.00 in0.0 mm 0.00 in0.0 mm 0.00 in0.0 mm
12:36 PM 73.6°F23.1°C 65.9°F18.8°C 59% 0.9 mph SW1.4 kmh SW 0.9 mph1.4 kmh 29.91 in1012.9 mb 0.00 in0.0 mm 0.00 in0.0 mm 0.00 in0.0 mm
12:38 PM 73.4°F23.0°C 66.3°F19.1°C 61% Calm Calm -- 29.90 in1012.5 mb 0.00 in0.0 mm 0.00 in0.0 mm 0.00 in0.0 mm
12:39 PM 73.4°F23.0°C 66.1°F18.9°C 61% Calm Calm -- 29.90 in1012.5 mb 0.00 in0.0 mm 0.00 in0.0 mm 0.00 in0.0 mm
12:41 PM 73.6°F23.1°C 67.1°F19.5°C 63% 2.1 mph SE3.4 kmh SE 2.1 mph3.4 kmh 29.90 in1012.5 mb 0.00 in0.0 mm 0.00 in0.0 mm 0.00 in0.0 mm
12:42 PM 73.5°F23.1°C 67.1°F19.5°C 63% 2.3 mph SE3.7 kmh SE 2.3 mph3.7 kmh 29.90 in1012.5 mb 0.00 in0.0 mm 0.00 in0.0 mm 0.00 in0.0 mm
12:44 PM 73.1°F22.8°C 66.2°F19.0°C 62% 0.8 mph SE1.3 kmh SE 0.8 mph1.3 kmh 29.90 in1012.5 mb 0.00 in0.0 mm 0.00 in0.0 mm 0.00 in0.0 mm
12:45 PM 73.2°F22.9°C 66.3°F19.1°C 61% 0.9 mph SE1.4 kmh SE 0.9 mph1.4 kmh 29.90 in1012.5 mb 0.00 in0.0 mm 0.00 in0.0 mm 0.00 in0.0 mm
12:47 PM 73.1°F22.8°C 66.5°F19.2°C 63% Calm Calm -- 29.90 in1012.5 mb 0.00 in0.0 mm 0.00 in0.0 mm 0.00 in0.0 mm
12:48 PM 73.1°F22.8°C 67.1°F19.5°C 63% Calm Calm -- 29.91 in1012.9 mb 0.00 in0.0 mm 0.00 in0.0 mm 0.00 in0.0 mm
12:50 PM 73.2°F22.9°C 66.8°F19.3°C 62% 1.6 mph NNW2.6 kmh NNW 1.6 mph2.6 kmh 29.90 in1012.5 mb 0.00 in0.0 mm 0.00 in0.0 mm 0.00 in0.0 mm
12:51 PM 73.2°F22.9°C 67.0°F19.4°C 62% 1.8 mph SE2.9 kmh SE 1.8 mph2.9 kmh 29.90 in1012.5 mb 0.00 in0.0 mm 0.00 in0.0 mm 0.00 in0.0 mm
12:53 PM 73.6°F23.1°C 67.3°F19.6°C 63% 0.8 mph SE1.3 kmh SE 0.8 mph1.3 kmh 29.90 in1012.5 mb 0.00 in0.0 mm 0.00 in0.0 mm 0.00 in0.0 mm
12:54 PM 73.6°F23.1°C 66.7°F19.3°C 64% 1.0 mph SE1.6 kmh SE 1.0 mph1.6 kmh 29.90 in1012.5 mb 0.00 in0.0 mm 0.00 in0.0 mm 0.00 in0.0 mm
12:56 PM 75.1°F23.9°C 67.6°F19.8°C 64% 0.8 mph SE1.3 kmh SE 0.8 mph1.3 kmh 29.90 in1012.5 mb 0.00 in0.0 mm 0.00 in0.0 mm 0.00 in0.0 mm
12:57 PM 75.2°F24.0°C 67.6°F19.8°C 64% 0.6 mph SSE1.0 kmh SSE 0.6 mph1.0 kmh 29.90 in1012.5 mb 0.00 in0.0 mm 0.00 in0.0 mm 0.00 in0.0 mm
12:59 PM 75.8°F24.3°C 68.6°F20.3°C 64% 2.0 mph SW3.2 kmh SW 2.0 mph3.2 kmh 29.91 in1012.9 mb 0.00 in0.0 mm 0.00 in0.0 mm 0.00 in0.0 mm
01:00 PM 75.8°F24.3°C 68.7°F20.4°C 64% 1.8 mph SW2.9 kmh SW 1.9 mph3.1 kmh 29.92 in1013.2 mb 0.00 in0.0 mm 0.00 in0.0 mm 0.00 in0.0 mm
01:02 PM 74.0°F23.3°C 68.6°F20.3°C 62% 2.3 mph NNW3.7 kmh NNW 2.4 mph3.9 kmh 29.92 in1013.2 mb 0.00 in0.0 mm 0.00 in0.0 mm 0.00 in0.0 mm
01:03 PM 74.0°F23.3°C 68.9°F20.5°C 63% 2.8 mph NNW4.5 kmh NNW 2.8 mph4.5 kmh 29.92 in1013.2 mb 0.00 in0.0 mm 0.00 in0.0 mm 0.00 in0.0 mm
01:05 PM 74.2°F23.4°C 68.9°F20.5°C 64% 3.2 mph SW5.1 kmh SW 3.3 mph5.3 kmh 29.92 in1013.2 mb 0.00 in0.0 mm 0.00 in0.0 mm 0.00 in0.0 mm
01:06 PM 74.2°F23.4°C 69.4°F20.8°C 64% 2.8 mph SW4.5 kmh SW 2.8 mph4.5 kmh 29.92 in1013.2 mb 0.00 in0.0 mm 0.00 in0.0 mm 0.00 in0.0 mm
01:08 PM 75.0°F23.9°C 67.9°F19.9°C 61% 2.8 mph SW4.5 kmh SW 2.8 mph4.5 kmh 29.92 in1013.2 mb 0.00 in0.0 mm 0.00 in0.0 mm 0.00 in0.0 mm
01:09 PM 74.9°F23.8°C 68.2°F20.1°C 61% 2.3 mph SW3.7 kmh SW 2.3 mph3.7 kmh 29.92 in1013.2 mb 0.00 in0.0 mm 0.00 in0.0 mm 0.00 in0.0 mm
01:11 PM 72.8°F22.7°C 66.0°F18.9°C 58% 1.6 mph SE2.6 kmh SE 1.6 mph2.6 kmh 29.92 in1013.2 mb 0.00 in0.0 mm 0.00 in0.0 mm 0.00 in0.0 mm
01:12 PM 72.8°F22.7°C 66.4°F19.1°C 58% 1.6 mph SE2.6 kmh SE 1.6 mph2.6 kmh 29.91 in1012.9 mb 0.00 in0.0 mm 0.00 in0.0 mm 0.00 in0.0 mm
01:14 PM 74.0°F23.3°C 67.1°F19.5°C 60% 0.4 mph NNW0.6 kmh NNW 0.4 mph0.6 kmh 29.90 in1012.5 mb 0.00 in0.0 mm 0.00 in0.0 mm 0.00 in0.0 mm
01:15 PM 74.0°F23.3°C 67.4°F19.7°C 59% 0.7 mph SSE1.1 kmh SSE 0.7 mph1.1 kmh 29.90 in1012.5 mb 0.00 in0.0 mm 0.00 in0.0 mm 0.00 in0.0 mm
01:17 PM 74.4°F23.6°C 68.0°F20.0°C 61% 1.2 mph NNW1.9 kmh NNW 1.2 mph1.9 kmh 29.91 in1012.9 mb 0.00 in0.0 mm 0.00 in0.0 mm 0.00 in0.0 mm
01:18 PM 74.4°F23.6°C 68.0°F20.0°C 60% 1.1 mph S1.8 kmh S 1.1 mph1.8 kmh 29.91 in1012.9 mb 0.00 in0.0 mm 0.00 in0.0 mm 0.00 in0.0 mm
01:20 PM 73.7°F23.2°C 67.6°F19.8°C 60% Calm Calm -- 29.90 in1012.5 mb 0.00 in0.0 mm 0.00 in0.0 mm 0.00 in0.0 mm
01:21 PM 73.7°F23.2°C 67.9°F19.9°C 59% 0.5 mph S0.8 kmh S 0.5 mph0.8 kmh 29.90 in1012.5 mb 0.00 in0.0 mm 0.00 in0.0 mm 0.00 in0.0 mm
01:23 PM 74.5°F23.6°C 69.0°F20.6°C 61% 0.4 mph NNW0.6 kmh NNW 0.4 mph0.6 kmh 29.90 in1012.5 mb 0.00 in0.0 mm 0.00 in0.0 mm 0.00 in0.0 mm
01:24 PM 74.5°F23.6°C 68.2°F20.1°C 61% 0.3 mph SSE0.5 kmh SSE 0.3 mph0.5 kmh 29.90 in1012.5 mb 0.00 in0.0 mm 0.00 in0.0 mm 0.00 in0.0 mm
01:26 PM 74.5°F23.6°C 69.1°F20.6°C 61% 2.4 mph WSW3.9 kmh WSW 2.4 mph3.9 kmh 29.90 in1012.5 mb 0.00 in0.0 mm 0.00 in0.0 mm 0.00 in0.0 mm
01:27 PM 74.8°F23.8°C 69.2°F20.7°C 61% 2.8 mph SW4.5 kmh SW 2.8 mph4.5 kmh 29.90 in1012.5 mb 0.00 in0.0 mm 0.00 in0.0 mm 0.00 in0.0 mm
01:29 PM 75.1°F23.9°C 67.8°F19.9°C 58% 1.6 mph NNW2.6 kmh NNW 1.6 mph2.6 kmh 29.90 in1012.5 mb 0.00 in0.0 mm 0.00 in0.0 mm 0.00 in0.0 mm
01:30 PM 75.1°F23.9°C 67.8°F19.9°C 58% 1.0 mph SE1.6 kmh SE 1.0 mph1.6 kmh 29.90 in1012.5 mb 0.00 in0.0 mm 0.00 in0.0 mm 0.00 in0.0 mm
01:32 PM 74.5°F23.6°C 68.2°F20.1°C 58% 1.6 mph SW2.6 kmh SW 1.6 mph2.6 kmh 29.90 in1012.5 mb 0.00 in0.0 mm 0.00 in0.0 mm 0.00 in0.0 mm
01:33 PM 74.5°F23.6°C 68.1°F20.1°C 58% 2.6 mph WSW4.2 kmh WSW 2.6 mph4.2 kmh 29.90 in1012.5 mb 0.00 in0.0 mm 0.00 in0.0 mm 0.00 in0.0 mm
01:35 PM 75.3°F24.1°C 68.2°F20.1°C 58% 4.0 mph SW6.4 kmh SW 4.0 mph6.4 kmh 29.90 in1012.5 mb 0.00 in0.0 mm 0.00 in0.0 mm 0.00 in0.0 mm
01:36 PM 75.3°F24.1°C 67.9°F19.9°C 58% 5.8 mph SW9.3 kmh SW 5.8 mph9.3 kmh 29.90 in1012.5 mb 0.00 in0.0 mm 0.00 in0.0 mm 0.00 in0.0 mm
01:38 PM 76.1°F24.5°C 69.5°F20.8°C 59% 2.8 mph NNW4.5 kmh NNW 2.9 mph4.7 kmh 29.90 in1012.5 mb 0.00 in0.0 mm 0.00 in0.0 mm 0.00 in0.0 mm
01:39 PM 76.1°F24.5°C 68.8°F20.4°C 59% 2.7 mph NNW4.3 kmh NNW 2.7 mph4.3 kmh 29.90 in1012.5 mb 0.00 in0.0 mm 0.00 in0.0 mm 0.00 in0.0 mm
01:41 PM 75.1°F23.9°C 68.2°F20.1°C 56% 0.8 mph SE1.3 kmh SE 0.8 mph1.3 kmh 29.90 in1012.5 mb 0.00 in0.0 mm 0.00 in0.0 mm 0.00 in0.0 mm
01:42 PM 75.0°F23.9°C 67.3°F19.6°C 55% 1.2 mph SE1.9 kmh SE 1.2 mph1.9 kmh 29.90 in1012.5 mb 0.00 in0.0 mm 0.00 in0.0 mm 0.00 in0.0 mm
01:44 PM 75.0°F23.9°C 68.4°F20.2°C 56% 3.1 mph WSW5.0 kmh WSW 3.1 mph5.0 kmh 29.90 in1012.5 mb 0.00 in0.0 mm 0.00 in0.0 mm 0.00 in0.0 mm
01:45 PM 75.0°F23.9°C 67.9°F19.9°C 57% 2.4 mph WSW3.9 kmh WSW 2.6 mph4.2 kmh 29.90 in1012.5 mb 0.00 in0.0 mm 0.00 in0.0 mm 0.00 in0.0 mm
01:47 PM 74.3°F23.5°C 66.0°F18.9°C 53% Calm Calm -- 29.90 in1012.5 mb 0.00 in0.0 mm 0.00 in0.0 mm 0.00 in0.0 mm
01:48 PM 74.2°F23.4°C 66.0°F18.9°C 53% 1.4 mph SW2.3 kmh SW 1.4 mph2.3 kmh 29.90 in1012.5 mb 0.00 in0.0 mm 0.00 in0.0 mm 0.00 in0.0 mm
01:50 PM 75.0°F23.9°C 68.5°F20.3°C 57% 0.8 mph NNW1.3 kmh NNW 0.8 mph1.3 kmh 29.90 in1012.5 mb 0.00 in0.0 mm 0.00 in0.0 mm 0.00 in0.0 mm
01:51 PM 74.9°F23.8°C 69.1°F20.6°C 57% 1.3 mph SSW2.1 kmh SSW 1.3 mph2.1 kmh 29.90 in1012.5 mb 0.00 in0.0 mm 0.00 in0.0 mm 0.00 in0.0 mm
01:53 PM 75.0°F23.9°C 65.5°F18.6°C 53% Calm Calm -- 29.90 in1012.5 mb 0.00 in0.0 mm 0.00 in0.0 mm 0.00 in0.0 mm
01:54 PM 75.0°F23.9°C 66.8°F19.3°C 53% Calm Calm -- 29.90 in1012.5 mb 0.00 in0.0 mm 0.00 in0.0 mm 0.00 in0.0 mm
01:56 PM 75.0°F23.9°C 66.3°F19.1°C 54% 1.2 mph SE1.9 kmh SE 1.2 mph1.9 kmh 29.89 in1012.2 mb 0.00 in0.0 mm 0.00 in0.0 mm 0.00 in0.0 mm
01:57 PM 75.0°F23.9°C 66.6°F19.2°C 54% 1.3 mph SE2.1 kmh SE 1.3 mph2.1 kmh 29.89 in1012.2 mb 0.00 in0.0 mm 0.00 in0.0 mm 0.00 in0.0 mm
01:59 PM 76.6°F24.8°C 67.9°F19.9°C 56% 1.6 mph SW2.6 kmh SW 1.6 mph2.6 kmh 29.89 in1012.2 mb 0.00 in0.0 mm 0.00 in0.0 mm 0.00 in0.0 mm
02:00 PM 76.6°F24.8°C 67.4°F19.7°C 56% 3.0 mph SW4.8 kmh SW 3.0 mph4.8 kmh 29.89 in1012.2 mb 0.00 in0.0 mm 0.00 in0.0 mm 0.00 in0.0 mm
02:02 PM 76.1°F24.5°C 65.7°F18.7°C 53% Calm Calm -- 29.89 in1012.2 mb 0.00 in0.0 mm 0.00 in0.0 mm 0.00 in0.0 mm
02:03 PM 76.1°F24.5°C 65.9°F18.8°C 53% Calm Calm -- 29.89 in1012.2 mb 0.00 in0.0 mm 0.00 in0.0 mm 0.00 in0.0 mm
02:05 PM 76.1°F24.5°C 67.5°F19.7°C 54% 4.0 mph SSW6.4 kmh SSW 4.1 mph6.6 kmh 29.89 in1012.2 mb 0.00 in0.0 mm 0.00 in0.0 mm 0.00 in0.0 mm
02:06 PM 76.2°F24.6°C 67.5°F19.7°C 54% 3.5 mph SW5.6 kmh SW 3.6 mph5.8 kmh 29.89 in1012.2 mb 0.00 in0.0 mm 0.00 in0.0 mm 0.00 in0.0 mm
02:08 PM 77.5°F25.3°C 66.8°F19.3°C 53% 0.8 mph SW1.3 kmh SW 0.8 mph1.3 kmh 29.89 in1012.2 mb 0.00 in0.0 mm 0.00 in0.0 mm 0.00 in0.0 mm
02:09 PM 77.2°F25.1°C 67.6°F19.8°C 53% 1.3 mph SW2.1 kmh SW 1.3 mph2.1 kmh 29.89 in1012.2 mb 0.00 in0.0 mm 0.00 in0.0 mm 0.00 in0.0 mm
02:11 PM 77.8°F25.4°C 67.7°F19.8°C 53% 1.2 mph SW1.9 kmh SW 1.2 mph1.9 kmh 29.89 in1012.2 mb 0.00 in0.0 mm 0.00 in0.0 mm 0.00 in0.0 mm
02:12 PM 77.6°F25.3°C 68.0°F20.0°C 53% 1.3 mph SW2.1 kmh SW 1.3 mph2.1 kmh 29.89 in1012.2 mb 0.00 in0.0 mm 0.00 in0.0 mm 0.00 in0.0 mm
02:14 PM 76.7°F24.8°C 65.9°F18.8°C 50% 0.4 mph SE0.6 kmh SE 0.4 mph0.6 kmh 29.88 in1011.9 mb 0.00 in0.0 mm 0.00 in0.0 mm 0.00 in0.0 mm
02:17 PM 75.2°F24.0°C 68.2°F20.1°C 53% 0.8 mph SSW1.3 kmh SSW 0.8 mph1.3 kmh 29.89 in1012.2 mb 0.00 in0.0 mm 0.00 in0.0 mm 0.00 in0.0 mm
02:18 PM 75.2°F24.0°C 68.1°F20.1°C 53% 0.6 mph SSW1.0 kmh SSW 0.6 mph1.0 kmh 29.89 in1012.2 mb 0.00 in0.0 mm 0.00 in0.0 mm 0.00 in0.0 mm
02:20 PM 75.2°F24.0°C 66.6°F19.2°C 52% 0.8 mph S1.3 kmh S 0.8 mph1.3 kmh 29.88 in1011.9 mb 0.00 in0.0 mm 0.00 in0.0 mm 0.00 in0.0 mm
02:21 PM 75.2°F24.0°C 67.5°F19.7°C 52% 0.7 mph S1.1 kmh S 0.8 mph1.3 kmh 29.88 in1011.9 mb 0.00 in0.0 mm 0.00 in0.0 mm 0.00 in0.0 mm
02:23 PM 76.7°F24.8°C 66.5°F19.2°C 52% 1.9 mph NNW3.1 kmh NNW 2.0 mph3.2 kmh 29.88 in1011.9 mb 0.00 in0.0 mm 0.00 in0.0 mm 0.00 in0.0 mm
02:24 PM 76.7°F24.8°C 67.3°F19.6°C 52% 1.9 mph SE3.1 kmh SE 1.9 mph3.1 kmh 29.88 in1011.9 mb 0.00 in0.0 mm 0.00 in0.0 mm 0.00 in0.0 mm
02:26 PM 77.1°F25.1°C 66.0°F18.9°C 51% Calm Calm -- 29.88 in1011.9 mb 0.00 in0.0 mm 0.00 in0.0 mm 0.00 in0.0 mm
02:27 PM 76.9°F24.9°C 66.9°F19.4°C 51% Calm Calm -- 29.89 in1012.2 mb 0.00 in0.0 mm 0.00 in0.0 mm 0.00 in0.0 mm
02:29 PM 76.7°F24.8°C 66.8°F19.3°C 52% 1.6 mph SSE2.6 kmh SSE 1.6 mph2.6 kmh 29.89 in1012.2 mb 0.00 in0.0 mm 0.00 in0.0 mm 0.00 in0.0 mm
02:30 PM 76.7°F24.8°C 67.7°F19.8°C 52% 1.6 mph SE2.6 kmh SE 1.7 mph2.7 kmh 29.89 in1012.2 mb 0.00 in0.0 mm 0.00 in0.0 mm 0.00 in0.0 mm
02:32 PM 76.9°F24.9°C 67.0°F19.4°C 52% 4.1 mph W6.6 kmh W 4.1 mph6.6 kmh 29.89 in1012.2 mb 0.00 in0.0 mm 0.00 in0.0 mm 0.00 in0.0 mm
02:33 PM 76.8°F24.9°C 67.6°F19.8°C 52% 3.4 mph W5.5 kmh W 3.5 mph5.6 kmh 29.89 in1012.2 mb 0.00 in0.0 mm 0.00 in0.0 mm 0.00 in0.0 mm
02:35 PM 76.9°F24.9°C 67.4°F19.7°C 51% 3.5 mph SW5.6 kmh SW 3.6 mph5.8 kmh 29.88 in1011.9 mb 0.00 in0.0 mm 0.00 in0.0 mm 0.00 in0.0 mm
02:36 PM 76.9°F24.9°C 67.1°F19.5°C 51% 2.6 mph SW4.2 kmh SW 2.6 mph4.2 kmh 29.88 in1011.9 mb 0.00 in0.0 mm 0.00 in0.0 mm 0.00 in0.0 mm
02:38 PM 77.2°F25.1°C 67.3°F19.6°C 51% 3.9 mph SW6.3 kmh SW 3.9 mph6.3 kmh 29.89 in1012.2 mb 0.00 in0.0 mm 0.00 in0.0 mm 0.00 in0.0 mm
02:39 PM 77.2°F25.1°C 66.1°F18.9°C 51% 3.7 mph SW6.0 kmh SW 3.7 mph6.0 kmh 29.89 in1012.2 mb 0.00 in0.0 mm 0.00 in0.0 mm 0.00 in0.0 mm
02:41 PM 77.3°F25.2°C 66.7°F19.3°C 51% 1.2 mph SW1.9 kmh SW 1.2 mph1.9 kmh 29.89 in1012.2 mb 0.00 in0.0 mm 0.00 in0.0 mm 0.00 in0.0 mm
02:42 PM 77.3°F25.2°C 67.2°F19.6°C 51% 0.6 mph SW1.0 kmh SW 0.6 mph1.0 kmh 29.89 in1012.2 mb 0.00 in0.0 mm 0.00 in0.0 mm 0.00 in0.0 mm
02:44 PM 77.1°F25.1°C 67.9°F19.9°C 52% 1.9 mph WSW3.1 kmh WSW 1.9 mph3.1 kmh 29.89 in1012.2 mb 0.00 in0.0 mm 0.00 in0.0 mm 0.00 in0.0 mm
02:45 PM 77.1°F25.1°C 66.6°F19.2°C 51% 2.2 mph WSW3.5 kmh WSW 2.3 mph3.7 kmh 29.89 in1012.2 mb 0.00 in0.0 mm 0.00 in0.0 mm 0.00 in0.0 mm
02:47 PM 75.4°F24.1°C 66.3°F19.1°C 50% 1.2 mph NNW1.9 kmh NNW 1.2 mph1.9 kmh 29.89 in1012.2 mb 0.00 in0.0 mm 0.00 in0.0 mm 0.00 in0.0 mm
02:48 PM 75.3°F24.1°C 66.4°F19.1°C 49% 0.9 mph WSW1.4 kmh WSW 1.0 mph1.6 kmh 29.89 in1012.2 mb 0.00 in0.0 mm 0.00 in0.0 mm 0.00 in0.0 mm
02:50 PM 76.1°F24.5°C 66.5°F19.2°C 52% Calm Calm -- 29.89 in1012.2 mb 0.00 in0.0 mm 0.00 in0.0 mm 0.00 in0.0 mm
02:51 PM 76.2°F24.6°C 66.6°F19.2°C 52% Calm Calm -- 29.89 in1012.2 mb 0.00 in0.0 mm 0.00 in0.0 mm 0.00 in0.0 mm
02:53 PM 76.6°F24.8°C 67.1°F19.5°C 53% 2.8 mph SW4.5 kmh SW 2.8 mph4.5 kmh 29.88 in1011.9 mb 0.00 in0.0 mm 0.00 in0.0 mm 0.00 in0.0 mm
02:54 PM 76.4°F24.7°C 66.6°F19.2°C 53% 2.5 mph SW4.0 kmh SW 2.7 mph4.3 kmh 29.89 in1012.2 mb 0.00 in0.0 mm 0.00 in0.0 mm 0.00 in0.0 mm
02:56 PM 76.1°F24.5°C 66.9°F19.4°C 53% 1.6 mph SW2.6 kmh SW 1.6 mph2.6 kmh 29.89 in1012.2 mb 0.00 in0.0 mm 0.00 in0.0 mm 0.00 in0.0 mm
02:57 PM 76.0°F24.4°C 67.3°F19.6°C 52% 1.9 mph SW3.1 kmh SW 1.9 mph3.1 kmh 29.88 in1011.9 mb 0.00 in0.0 mm 0.00 in0.0 mm 0.00 in0.0 mm
03:02 PM 76.7°F24.8°C 67.4°F19.7°C 53% 0.4 mph SW0.6 kmh SW 0.4 mph0.6 kmh 29.88 in1011.9 mb 0.00 in0.0 mm 0.00 in0.0 mm 0.00 in0.0 mm
03:03 PM 76.7°F24.8°C 67.3°F19.6°C 53% 1.0 mph SW1.6 kmh SW 1.0 mph1.6 kmh 29.88 in1011.9 mb 0.00 in0.0 mm 0.00 in0.0 mm 0.00 in0.0 mm
03:05 PM 75.4°F24.1°C 66.4°F19.1°C 53% 3.6 mph SW5.8 kmh SW 3.7 mph6.0 kmh 29.88 in1011.9 mb 0.00 in0.0 mm 0.00 in0.0 mm 0.00 in0.0 mm
03:06 PM 75.3°F24.1°C 66.7°F19.3°C 52% 2.8 mph SW4.5 kmh SW 2.8 mph4.5 kmh 29.88 in1011.9 mb 0.00 in0.0 mm 0.00 in0.0 mm 0.00 in0.0 mm
03:08 PM 75.8°F24.3°C 65.9°F18.8°C 52% 2.0 mph W3.2 kmh W 2.0 mph3.2 kmh 29.88 in1011.9 mb 0.00 in0.0 mm 0.00 in0.0 mm 0.00 in0.0 mm
03:09 PM 75.7°F24.3°C 66.9°F19.4°C 53% 2.8 mph W4.5 kmh W 3.0 mph4.8 kmh 29.88 in1011.9 mb 0.00 in0.0 mm 0.00 in0.0 mm 0.00 in0.0 mm
03:11 PM 76.3°F24.6°C 67.3°F19.6°C 53% 2.0 mph NNW3.2 kmh NNW 2.0 mph3.2 kmh 29.88 in1011.9 mb 0.00 in0.0 mm 0.00 in0.0 mm 0.00 in0.0 mm
03:12 PM 76.4°F24.7°C 66.7°F19.3°C 53% 2.8 mph NW4.5 kmh NW 2.8 mph4.5 kmh 29.88 in1011.9 mb 0.00 in0.0 mm 0.00 in0.0 mm 0.00 in0.0 mm
03:14 PM 76.7°F24.8°C 66.1°F18.9°C 52% 4.0 mph NNW6.4 kmh NNW 4.1 mph6.6 kmh 29.88 in1011.9 mb 0.00 in0.0 mm 0.00 in0.0 mm 0.00 in0.0 mm
03:15 PM 76.4°F24.7°C 66.0°F18.9°C 52% 3.5 mph NNW5.6 kmh NNW 3.5 mph5.6 kmh 29.88 in1011.9 mb 0.00 in0.0 mm 0.00 in0.0 mm 0.00 in0.0 mm
03:17 PM 76.3°F24.6°C 66.5°F19.2°C 53% 2.0 mph W3.2 kmh W 2.0 mph3.2 kmh 29.88 in1011.9 mb 0.00 in0.0 mm 0.00 in0.0 mm 0.00 in0.0 mm
03:18 PM 76.3°F24.6°C 66.1°F18.9°C 53% 1.9 mph W3.1 kmh W 1.9 mph3.1 kmh 29.88 in1011.9 mb 0.00 in0.0 mm 0.00 in0.0 mm 0.00 in0.0 mm
03:20 PM 76.3°F24.6°C 66.2°F19.0°C 53% 1.6 mph WSW2.6 kmh WSW 1.6 mph2.6 kmh 29.88 in1011.9 mb 0.00 in0.0 mm 0.00 in0.0 mm 0.00 in0.0 mm
03:21 PM 76.4°F24.7°C 66.5°F19.2°C 53% 2.5 mph WSW4.0 kmh WSW 2.5 mph4.0 kmh 29.88 in1011.9 mb 0.00 in0.0 mm 0.00 in0.0 mm 0.00 in0.0 mm
03:23 PM 77.6°F25.3°C 66.2°F19.0°C 53% 2.4 mph W3.9 kmh W 2.4 mph3.9 kmh 29.88 in1011.9 mb 0.00 in0.0 mm 0.00 in0.0 mm 0.00 in0.0 mm
03:24 PM 77.3°F25.2°C 67.1°F19.5°C 53% 2.2 mph W3.5 kmh W 2.3 mph3.7 kmh 29.88 in1011.9 mb 0.00 in0.0 mm 0.00 in0.0 mm 0.00 in0.0 mm
03:26 PM 76.9°F24.9°C 67.1°F19.5°C 53% 0.8 mph WNW1.3 kmh WNW 0.8 mph1.3 kmh 29.88 in1011.9 mb 0.00 in0.0 mm 0.00 in0.0 mm 0.00 in0.0 mm
03:27 PM 76.9°F24.9°C 66.5°F19.2°C 54% 1.3 mph WNW2.1 kmh WNW 1.3 mph2.1 kmh 29.88 in1011.9 mb 0.00 in0.0 mm 0.00 in0.0 mm 0.00 in0.0 mm
03:29 PM 75.4°F24.1°C 66.0°F18.9°C 52% 1.5 mph WSW2.4 kmh WSW 1.5 mph2.4 kmh 29.88 in1011.9 mb 0.00 in0.0 mm 0.00 in0.0 mm 0.00 in0.0 mm
03:30 PM 75.5°F24.2°C 65.0°F18.3°C 51% 1.2 mph WSW1.9 kmh WSW 1.2 mph1.9 kmh 29.88 in1011.9 mb 0.00 in0.0 mm 0.00 in0.0 mm 0.00 in0.0 mm
03:32 PM 74.8°F23.8°C 66.0°F18.9°C 53% 1.6 mph WNW2.6 kmh WNW 1.6 mph2.6 kmh 29.88 in1011.9 mb 0.00 in0.0 mm 0.00 in0.0 mm 0.00 in0.0 mm
03:33 PM 74.9°F23.8°C 65.4°F18.6°C 52% 1.6 mph WNW2.6 kmh WNW 1.6 mph2.6 kmh 29.88 in1011.9 mb 0.00 in0.0 mm 0.00 in0.0 mm 0.00 in0.0 mm
03:35 PM 75.8°F24.3°C 66.0°F18.9°C 54% 2.0 mph WNW3.2 kmh WNW 2.0 mph3.2 kmh 29.88 in1011.9 mb 0.00 in0.0 mm 0.00 in0.0 mm 0.00 in0.0 mm
03:36 PM 75.8°F24.3°C 66.2°F19.0°C 54% 2.5 mph WNW4.0 kmh WNW 2.5 mph4.0 kmh 29.88 in1011.9 mb 0.00 in0.0 mm 0.00 in0.0 mm 0.00 in0.0 mm
03:38 PM 75.5°F24.2°C 66.6°F19.2°C 54% 2.4 mph WNW3.9 kmh WNW 2.5 mph4.0 kmh 29.88 in1011.9 mb 0.00 in0.0 mm 0.00 in0.0 mm 0.00 in0.0 mm
03:39 PM 75.5°F24.2°C 66.6°F19.2°C 54% 2.7 mph WNW4.3 kmh WNW 2.7 mph4.3 kmh 29.88 in1011.9 mb 0.00 in0.0 mm 0.00 in0.0 mm 0.00 in0.0 mm
03:41 PM 75.1°F23.9°C 66.5°F19.2°C 54% 3.2 mph NW5.1 kmh NW 3.2 mph5.1 kmh 29.88 in1011.9 mb 0.00 in0.0 mm 0.00 in0.0 mm 0.00 in0.0 mm
03:42 PM 75.2°F24.0°C 66.5°F19.2°C 54% 1.9 mph NW3.1 kmh NW 1.9 mph3.1 kmh 29.88 in1011.9 mb 0.00 in0.0 mm 0.00 in0.0 mm 0.00 in0.0 mm
03:44 PM 74.6°F23.7°C 65.5°F18.6°C 53% 1.6 mph NNW2.6 kmh NNW 1.6 mph2.6 kmh 29.88 in1011.9 mb 0.00 in0.0 mm 0.00 in0.0 mm 0.00 in0.0 mm
03:45 PM 74.8°F23.8°C 66.1°F18.9°C 54% 2.0 mph NNW3.2 kmh NNW 2.0 mph3.2 kmh 29.88 in1011.9 mb 0.00 in0.0 mm 0.00 in0.0 mm 0.00 in0.0 mm
03:47 PM 74.0°F23.3°C 65.7°F18.7°C 53% 3.2 mph W5.1 kmh W 3.3 mph5.3 kmh 29.88 in1011.9 mb 0.00 in0.0 mm 0.00 in0.0 mm 0.00 in0.0 mm
03:48 PM 73.9°F23.3°C 65.1°F18.4°C 53% 2.3 mph W3.7 kmh W 2.3 mph3.7 kmh 29.88 in1011.9 mb 0.00 in0.0 mm 0.00 in0.0 mm 0.00 in0.0 mm
03:50 PM 74.9°F23.8°C 66.1°F18.9°C 54% 3.1 mph SW5.0 kmh SW 3.1 mph5.0 kmh 29.88 in1011.9 mb 0.00 in0.0 mm 0.00 in0.0 mm 0.00 in0.0 mm
03:51 PM 75.0°F23.9°C 66.2°F19.0°C 54% 3.1 mph SW5.0 kmh SW 3.1 mph5.0 kmh 29.88 in1011.9 mb 0.00 in0.0 mm 0.00 in0.0 mm 0.00 in0.0 mm
03:53 PM 74.4°F23.6°C 65.6°F18.7°C 53% 1.6 mph NW2.6 kmh NW 1.6 mph2.6 kmh 29.88 in1011.9 mb 0.00 in0.0 mm 0.00 in0.0 mm 0.00 in0.0 mm
03:54 PM 74.4°F23.6°C 65.3°F18.5°C 53% 0.7 mph NW1.1 kmh NW 0.7 mph1.1 kmh 29.89 in1012.2 mb 0.00 in0.0 mm 0.00 in0.0 mm 0.00 in0.0 mm
03:59 PM 73.9°F23.3°C 65.9°F18.8°C 55% 3.1 mph NW5.0 kmh NW 3.1 mph5.0 kmh 29.88 in1011.9 mb 0.00 in0.0 mm 0.00 in0.0 mm 0.00 in0.0 mm
04:00 PM 73.9°F23.3°C 65.9°F18.8°C 54% 2.2 mph NW3.5 kmh NW 2.2 mph3.5 kmh 29.88 in1011.9 mb 0.00 in0.0 mm 0.00 in0.0 mm 0.00 in0.0 mm
04:02 PM 73.5°F23.1°C 66.4°F19.1°C 55% 1.2 mph NW1.9 kmh NW 1.2 mph1.9 kmh 29.88 in1011.9 mb 0.00 in0.0 mm 0.00 in0.0 mm 0.00 in0.0 mm
04:03 PM 73.5°F23.1°C 65.7°F18.7°C 55% 0.6 mph NW1.0 kmh NW 0.7 mph1.1 kmh 29.88 in1011.9 mb 0.00 in0.0 mm 0.00 in0.0 mm 0.00 in0.0 mm
04:05 PM 72.3°F22.4°C 65.8°F18.8°C 55% 1.2 mph NNW1.9 kmh NNW 1.2 mph1.9 kmh 29.88 in1011.9 mb 0.00 in0.0 mm 0.00 in0.0 mm 0.00 in0.0 mm
04:06 PM 72.3°F22.4°C 66.6°F19.2°C 55% 0.9 mph NNW1.4 kmh NNW 0.9 mph1.4 kmh 29.88 in1011.9 mb 0.00 in0.0 mm 0.00 in0.0 mm 0.00 in0.0 mm
04:08 PM 73.0°F22.8°C 65.5°F18.6°C 55% 2.4 mph NW3.9 kmh NW 2.4 mph3.9 kmh 29.88 in1011.9 mb 0.00 in0.0 mm 0.00 in0.0 mm 0.00 in0.0 mm
04:09 PM 73.0°F22.8°C 66.3°F19.1°C 55% 2.0 mph WNW3.2 kmh WNW 2.2 mph3.5 kmh 29.88 in1011.9 mb 0.00 in0.0 mm 0.00 in0.0 mm 0.00 in0.0 mm
04:11 PM 72.4°F22.4°C 65.8°F18.8°C 54% 2.0 mph NNW3.2 kmh NNW 2.0 mph3.2 kmh 29.88 in1011.9 mb 0.00 in0.0 mm 0.00 in0.0 mm 0.00 in0.0 mm
04:12 PM 72.4°F22.4°C 65.7°F18.7°C 54% 2.5 mph NNW4.0 kmh NNW 2.5 mph4.0 kmh 29.88 in1011.9 mb 0.00 in0.0 mm 0.00 in0.0 mm 0.00 in0.0 mm
04:14 PM 72.1°F22.3°C 65.2°F18.4°C 55% Calm Calm -- 29.88 in1011.9 mb 0.00 in0.0 mm 0.00 in0.0 mm 0.00 in0.0 mm
04:15 PM 72.1°F22.3°C 65.1°F18.4°C 54% Calm Calm -- 29.88 in1011.9 mb 0.00 in0.0 mm 0.00 in0.0 mm 0.00 in0.0 mm
04:17 PM 72.4°F22.4°C 65.9°F18.8°C 55% 2.3 mph 3.7 kmh 2.3 mph3.7 kmh 29.88 in1011.9 mb 0.00 in0.0 mm 0.00 in0.0 mm 0.00 in0.0 mm
04:18 PM 72.3°F22.4°C 64.9°F18.3°C 55% 1.9 mph 3.1 kmh 1.9 mph3.1 kmh 29.88 in1011.9 mb 0.00 in0.0 mm 0.00 in0.0 mm 0.00 in0.0 mm
04:20 PM 72.2°F22.3°C 65.2°F18.4°C 54% 1.2 mph 1.9 kmh 1.2 mph1.9 kmh 29.88 in1011.9 mb 0.00 in0.0 mm 0.00 in0.0 mm 0.00 in0.0 mm
04:21 PM 72.2°F22.3°C 63.9°F17.7°C 53% 1.0 mph 1.6 kmh 1.0 mph1.6 kmh 29.88 in1011.9 mb 0.00 in0.0 mm 0.00 in0.0 mm 0.00 in0.0 mm
04:23 PM 72.2°F22.3°C 64.7°F18.2°C 55% Calm Calm -- 29.88 in1011.9 mb 0.00 in0.0 mm 0.00 in0.0 mm 0.00 in0.0 mm
04:24 PM 72.2°F22.3°C 65.3°F18.5°C 55% Calm Calm -- 29.88 in1011.9 mb 0.00 in0.0 mm 0.00 in0.0 mm 0.00 in0.0 mm
04:26 PM 71.9°F22.2°C 64.9°F18.3°C 56% 0.8 mph NNW1.3 kmh NNW 0.8 mph1.3 kmh 29.88 in1011.9 mb 0.00 in0.0 mm 0.00 in0.0 mm 0.00 in0.0 mm
04:27 PM 71.8°F22.1°C 65.3°F18.5°C 56% 0.9 mph NNW1.4 kmh NNW 0.9 mph1.4 kmh 29.88 in1011.9 mb 0.00 in0.0 mm 0.00 in0.0 mm 0.00 in0.0 mm
04:29 PM 71.3°F21.8°C 65.8°F18.8°C 56% 2.8 mph W4.5 kmh W 2.9 mph4.7 kmh 29.89 in1012.2 mb 0.00 in0.0 mm 0.00 in0.0 mm 0.00 in0.0 mm
04:30 PM 71.3°F21.8°C 65.9°F18.8°C 56% 2.6 mph W4.2 kmh W 2.6 mph4.2 kmh 29.90 in1012.5 mb 0.00 in0.0 mm 0.00 in0.0 mm 0.00 in0.0 mm
04:32 PM 70.9°F21.6°C 65.4°F18.6°C 56% 1.9 mph W3.1 kmh W 2.0 mph3.2 kmh 29.90 in1012.5 mb 0.00 in0.0 mm 0.00 in0.0 mm 0.00 in0.0 mm
04:33 PM 70.9°F21.6°C 65.5°F18.6°C 56% 1.6 mph W2.6 kmh W 1.6 mph2.6 kmh 29.90 in1012.5 mb 0.00 in0.0 mm 0.00 in0.0 mm 0.00 in0.0 mm
04:35 PM 71.0°F21.7°C 65.2°F18.4°C 56% 2.3 mph NNW3.7 kmh NNW 2.3 mph3.7 kmh 29.90 in1012.5 mb 0.00 in0.0 mm 0.00 in0.0 mm 0.00 in0.0 mm
04:36 PM 71.0°F21.7°C 64.6°F18.1°C 56% 1.1 mph NNW1.8 kmh NNW 1.3 mph2.1 kmh 29.90 in1012.5 mb 0.00 in0.0 mm 0.00 in0.0 mm 0.00 in0.0 mm
04:38 PM 70.8°F21.6°C 65.5°F18.6°C 57% 2.0 mph W3.2 kmh W 2.0 mph3.2 kmh 29.90 in1012.5 mb 0.00 in0.0 mm 0.00 in0.0 mm 0.00 in0.0 mm
04:39 PM 70.7°F21.5°C 64.9°F18.3°C 57% 3.5 mph W5.6 kmh W 3.6 mph5.8 kmh 29.90 in1012.5 mb 0.00 in0.0 mm 0.00 in0.0 mm 0.00 in0.0 mm
04:41 PM 69.8°F21.0°C 64.1°F17.8°C 56% 7.3 mph NNW11.7 kmh NNW 7.4 mph11.9 kmh 29.90 in1012.5 mb 0.00 in0.0 mm 0.00 in0.0 mm 0.00 in0.0 mm
04:42 PM 69.9°F21.1°C 64.5°F18.1°C 56% 6.6 mph NW10.6 kmh NW 6.9 mph11.1 kmh 29.90 in1012.5 mb 0.00 in0.0 mm 0.00 in0.0 mm 0.00 in0.0 mm
04:44 PM 69.2°F20.7°C 65.0°F18.3°C 58% 2.4 mph NW3.9 kmh NW 2.4 mph3.9 kmh 29.89 in1012.2 mb 0.00 in0.0 mm 0.00 in0.0 mm 0.00 in0.0 mm
04:45 PM 69.4°F20.8°C 65.6°F18.7°C 58% 4.4 mph NW7.1 kmh NW 4.4 mph7.1 kmh 29.88 in1011.9 mb 0.00 in0.0 mm 0.00 in0.0 mm 0.00 in0.0 mm
04:47 PM 68.6°F20.3°C 64.8°F18.2°C 59% 4.8 mph 7.7 kmh 4.8 mph7.7 kmh 29.88 in1011.9 mb 0.00 in0.0 mm 0.00 in0.0 mm 0.00 in0.0 mm
04:48 PM 68.6°F20.3°C 65.3°F18.5°C 59% 4.4 mph 7.1 kmh 4.6 mph7.4 kmh 29.88 in1011.9 mb 0.00 in0.0 mm 0.00 in0.0 mm 0.00 in0.0 mm
04:50 PM 68.5°F20.3°C 65.6°F18.7°C 60% 3.6 mph 5.8 kmh 3.6 mph5.8 kmh 29.89 in1012.2 mb 0.00 in0.0 mm 0.00 in0.0 mm 0.00 in0.0 mm
04:51 PM 68.5°F20.3°C 65.6°F18.7°C 60% 2.7 mph NNW4.3 kmh NNW 2.7 mph4.3 kmh 29.89 in1012.2 mb 0.00 in0.0 mm 0.00 in0.0 mm 0.00 in0.0 mm
04:53 PM 68.5°F20.3°C 65.8°F18.8°C 61% 1.2 mph 1.9 kmh 1.2 mph1.9 kmh 29.89 in1012.2 mb 0.00 in0.0 mm 0.00 in0.0 mm 0.00 in0.0 mm
04:54 PM 68.5°F20.3°C 65.2°F18.4°C 61% 3.0 mph 4.8 kmh 3.1 mph5.0 kmh 29.89 in1012.2 mb 0.00 in0.0 mm 0.00 in0.0 mm 0.00 in0.0 mm
04:56 PM 68.6°F20.3°C 65.4°F18.6°C 60% 0.8 mph NNW1.3 kmh NNW 0.8 mph1.3 kmh 29.89 in1012.2 mb 0.00 in0.0 mm 0.00 in0.0 mm 0.00 in0.0 mm
04:57 PM 68.6°F20.3°C 64.9°F18.3°C 60% 1.5 mph NNW2.4 kmh NNW 1.5 mph2.4 kmh 29.89 in1012.2 mb 0.00 in0.0 mm 0.00 in0.0 mm 0.00 in0.0 mm
04:59 PM 68.5°F20.3°C 65.2°F18.4°C 61% 2.0 mph 3.2 kmh 2.0 mph3.2 kmh 29.89 in1012.2 mb 0.00 in0.0 mm 0.00 in0.0 mm 0.00 in0.0 mm
05:00 PM 68.5°F20.3°C 64.9°F18.3°C 60% 2.7 mph NNW4.3 kmh NNW 2.7 mph4.3 kmh 29.89 in1012.2 mb 0.00 in0.0 mm 0.00 in0.0 mm 0.00 in0.0 mm
05:02 PM 68.1°F20.1°C 64.8°F18.2°C 61% 4.2 mph NNW6.8 kmh NNW 4.2 mph6.8 kmh 29.89 in1012.2 mb 0.00 in0.0 mm 0.00 in0.0 mm 0.00 in0.0 mm
05:03 PM 68.1°F20.1°C 64.7°F18.2°C 61% 2.7 mph 4.3 kmh 2.7 mph4.3 kmh 29.89 in1012.2 mb 0.00 in0.0 mm 0.00 in0.0 mm 0.00 in0.0 mm
05:05 PM 67.7°F19.8°C 65.3°F18.5°C 62% 1.6 mph 2.6 kmh 1.6 mph2.6 kmh 29.89 in1012.2 mb 0.00 in0.0 mm 0.00 in0.0 mm 0.00 in0.0 mm
05:06 PM 67.6°F19.8°C 65.5°F18.6°C 62% 1.9 mph 3.1 kmh 2.0 mph3.2 kmh 29.89 in1012.2 mb 0.00 in0.0 mm 0.00 in0.0 mm 0.00 in0.0 mm
05:08 PM 67.7°F19.8°C 65.0°F18.3°C 62% 2.3 mph 3.7 kmh 2.3 mph3.7 kmh 29.89 in1012.2 mb 0.00 in0.0 mm 0.00 in0.0 mm 0.00 in0.0 mm
05:09 PM 67.7°F19.8°C 65.3°F18.5°C 62% 1.8 mph 2.9 kmh 1.8 mph2.9 kmh 29.89 in1012.2 mb 0.00 in0.0 mm 0.00 in0.0 mm 0.00 in0.0 mm
05:11 PM 67.3°F19.6°C 65.3°F18.5°C 62% 2.8 mph 4.5 kmh 2.8 mph4.5 kmh 29.89 in1012.2 mb 0.00 in0.0 mm 0.00 in0.0 mm 0.00 in0.0 mm
05:12 PM 67.3°F19.6°C 65.2°F18.4°C 62% 2.6 mph 4.2 kmh 2.7 mph4.3 kmh 29.89 in1012.2 mb 0.00 in0.0 mm 0.00 in0.0 mm 0.00 in0.0 mm
05:14 PM 67.3°F19.6°C 65.4°F18.6°C 63% 3.2 mph 5.1 kmh 3.2 mph5.1 kmh 29.89 in1012.2 mb 0.00 in0.0 mm 0.00 in0.0 mm 0.00 in0.0 mm
05:15 PM 67.4°F19.7°C 65.4°F18.6°C 63% 3.7 mph 6.0 kmh 3.7 mph6.0 kmh 29.89 in1012.2 mb 0.00 in0.0 mm 0.00 in0.0 mm 0.00 in0.0 mm
05:17 PM 67.2°F19.6°C 64.7°F18.2°C 62% 5.9 mph 9.5 kmh 6.0 mph9.7 kmh 29.89 in1012.2 mb 0.00 in0.0 mm 0.00 in0.0 mm 0.00 in0.0 mm
05:18 PM 67.3°F19.6°C 64.0°F17.8°C 62% 6.4 mph 10.3 kmh 6.5 mph10.5 kmh 29.89 in1012.2 mb 0.00 in0.0 mm 0.00 in0.0 mm 0.00 in0.0 mm
05:20 PM 67.1°F19.5°C 64.4°F18.0°C 63% 6.9 mph 11.1 kmh 6.9 mph11.1 kmh 29.89 in1012.2 mb 0.00 in0.0 mm 0.00 in0.0 mm 0.00 in0.0 mm
05:21 PM 67.1°F19.5°C 65.0°F18.3°C 63% 6.7 mph 10.8 kmh 6.7 mph10.8 kmh 29.89 in1012.2 mb 0.00 in0.0 mm 0.00 in0.0 mm 0.00 in0.0 mm
05:23 PM 67.0°F19.4°C 63.9°F17.7°C 63% 6.0 mph NNW9.7 kmh NNW 6.1 mph9.8 kmh 29.90 in1012.5 mb 0.00 in0.0 mm 0.00 in0.0 mm 0.00 in0.0 mm
05:24 PM 66.9°F19.4°C 64.2°F17.9°C 63% 6.0 mph NNW9.7 kmh NNW 6.0 mph9.7 kmh 29.90 in1012.5 mb 0.00 in0.0 mm 0.00 in0.0 mm 0.00 in0.0 mm
05:26 PM 66.8°F19.3°C 63.9°F17.7°C 64% 4.4 mph NNW7.1 kmh NNW 4.5 mph7.2 kmh 29.90 in1012.5 mb 0.00 in0.0 mm 0.00 in0.0 mm 0.00 in0.0 mm
05:27 PM 66.9°F19.4°C 64.0°F17.8°C 64% 4.6 mph NNW7.4 kmh NNW 4.6 mph7.4 kmh 29.90 in1012.5 mb 0.00 in0.0 mm 0.00 in0.0 mm 0.00 in0.0 mm
05:29 PM 67.0°F19.4°C 64.1°F17.8°C 64% 8.1 mph 13.0 kmh 8.2 mph13.2 kmh 29.90 in1012.5 mb 0.00 in0.0 mm 0.00 in0.0 mm 0.00 in0.0 mm
05:30 PM 67.0°F19.4°C 63.8°F17.7°C 64% 6.8 mph NW10.9 kmh NW 7.1 mph11.4 kmh 29.91 in1012.9 mb 0.00 in0.0 mm 0.00 in0.0 mm 0.00 in0.0 mm
05:32 PM 66.4°F19.1°C 64.4°F18.0°C 64% 5.7 mph NNW9.2 kmh NNW 5.7 mph9.2 kmh 29.91 in1012.9 mb 0.00 in0.0 mm 0.00 in0.0 mm 0.00 in0.0 mm
05:33 PM 66.5°F19.2°C 63.8°F17.7°C 64% 3.7 mph NNW6.0 kmh NNW 3.7 mph6.0 kmh 29.90 in1012.5 mb 0.00 in0.0 mm 0.00 in0.0 mm 0.00 in0.0 mm
05:35 PM 66.7°F19.3°C 64.7°F18.2°C 65% 1.2 mph NNW1.9 kmh NNW 1.2 mph1.9 kmh 29.91 in1012.9 mb 0.00 in0.0 mm 0.00 in0.0 mm 0.00 in0.0 mm
05:36 PM 66.7°F19.3°C 64.1°F17.8°C 65% 2.6 mph NW4.2 kmh NW 2.6 mph4.2 kmh 29.91 in1012.9 mb 0.00 in0.0 mm 0.00 in0.0 mm 0.00 in0.0 mm
05:38 PM 66.3°F19.1°C 64.3°F17.9°C 65% 3.6 mph NW5.8 kmh NW 3.6 mph5.8 kmh 29.92 in1013.2 mb 0.00 in0.0 mm 0.00 in0.0 mm 0.00 in0.0 mm
05:39 PM 66.3°F19.1°C 64.3°F17.9°C 65% 3.0 mph NW4.8 kmh NW 3.0 mph4.8 kmh 29.92 in1013.2 mb 0.00 in0.0 mm 0.00 in0.0 mm 0.00 in0.0 mm
05:41 PM 66.1°F18.9°C 64.2°F17.9°C 66% 3.9 mph NNW6.3 kmh NNW 3.9 mph6.3 kmh 29.92 in1013.2 mb 0.00 in0.0 mm 0.00 in0.0 mm 0.00 in0.0 mm
05:42 PM 66.2°F19.0°C 64.5°F18.1°C 66% 2.7 mph 4.3 kmh 2.9 mph4.7 kmh 29.92 in1013.2 mb 0.00 in0.0 mm 0.00 in0.0 mm 0.00 in0.0 mm
05:44 PM 65.9°F18.8°C 64.2°F17.9°C 66% 2.8 mph 4.5 kmh 2.9 mph4.7 kmh 29.92 in1013.2 mb 0.00 in0.0 mm 0.00 in0.0 mm 0.00 in0.0 mm
05:47 PM 65.5°F18.6°C 64.8°F18.2°C 67% 6.1 mph 9.8 kmh 6.1 mph9.8 kmh 29.92 in1013.2 mb 0.00 in0.0 mm 0.00 in0.0 mm 0.00 in0.0 mm
05:48 PM 65.5°F18.6°C 64.6°F18.1°C 67% 4.1 mph 6.6 kmh 4.1 mph6.6 kmh 29.92 in1013.2 mb 0.00 in0.0 mm 0.00 in0.0 mm 0.00 in0.0 mm
05:50 PM 65.3°F18.5°C 64.7°F18.2°C 67% 6.0 mph 9.7 kmh 6.0 mph9.7 kmh 29.92 in1013.2 mb 0.00 in0.0 mm 0.00 in0.0 mm 0.00 in0.0 mm
05:51 PM 65.4°F18.6°C 64.4°F18.0°C 67% 5.4 mph 8.7 kmh 5.4 mph8.7 kmh 29.92 in1013.2 mb 0.00 in0.0 mm 0.00 in0.0 mm 0.00 in0.0 mm
05:53 PM 65.4°F18.6°C 64.6°F18.1°C 68% 1.6 mph NNW2.6 kmh NNW 1.6 mph2.6 kmh 29.92 in1013.2 mb 0.00 in0.0 mm 0.00 in0.0 mm 0.00 in0.0 mm
05:54 PM 65.4°F18.6°C 64.9°F18.3°C 68% 2.5 mph NNW4.0 kmh NNW 2.5 mph4.0 kmh 29.92 in1013.2 mb 0.00 in0.0 mm 0.00 in0.0 mm 0.00 in0.0 mm
05:56 PM 65.3°F18.5°C 64.7°F18.2°C 68% 1.2 mph NNE1.9 kmh NNE 1.2 mph1.9 kmh 29.92 in1013.2 mb 0.00 in0.0 mm 0.00 in0.0 mm 0.00 in0.0 mm
05:57 PM 65.3°F18.5°C 64.5°F18.1°C 67% 1.1 mph NNE1.8 kmh NNE 1.1 mph1.8 kmh 29.92 in1013.2 mb 0.00 in0.0 mm 0.00 in0.0 mm 0.00 in0.0 mm
05:59 PM 64.6°F18.1°C 64.7°F18.2°C 69% 2.0 mph 3.2 kmh 2.0 mph3.2 kmh 29.92 in1013.2 mb 0.00 in0.0 mm 0.00 in0.0 mm 0.00 in0.0 mm
06:02 PM 64.3°F17.9°C 65.3°F18.5°C 70% 3.8 mph NNE6.1 kmh NNE 3.9 mph6.3 kmh 29.91 in1012.9 mb 0.00 in0.0 mm 0.00 in0.0 mm 0.00 in0.0 mm
06:03 PM 64.4°F18.0°C 64.6°F18.1°C 69% 4.3 mph 6.9 kmh 4.3 mph6.9 kmh 29.92 in1013.2 mb 0.00 in0.0 mm 0.00 in0.0 mm 0.00 in0.0 mm
06:05 PM 64.7°F18.2°C 64.5°F18.1°C 69% 1.6 mph NW2.6 kmh NW 1.6 mph2.6 kmh 29.92 in1013.2 mb 0.00 in0.0 mm 0.00 in0.0 mm 0.00 in0.0 mm
06:06 PM 64.7°F18.2°C 64.6°F18.1°C 69% 1.1 mph NW1.8 kmh NW 1.3 mph2.1 kmh 29.92 in1013.2 mb 0.00 in0.0 mm 0.00 in0.0 mm 0.00 in0.0 mm
06:08 PM 64.7°F18.2°C 64.5°F18.1°C 70% Calm Calm -- 29.92 in1013.2 mb 0.00 in0.0 mm 0.00 in0.0 mm 0.00 in0.0 mm
06:09 PM 64.7°F18.2°C 64.3°F17.9°C 69% Calm Calm -- 29.92 in1013.2 mb 0.00 in0.0 mm 0.00 in0.0 mm 0.00 in0.0 mm
06:11 PM 64.6°F18.1°C 64.8°F18.2°C 70% 1.6 mph 2.6 kmh 1.6 mph2.6 kmh 29.92 in1013.2 mb 0.00 in0.0 mm 0.00 in0.0 mm 0.00 in0.0 mm
06:12 PM 64.6°F18.1°C 64.5°F18.1°C 70% 1.5 mph 2.4 kmh 1.7 mph2.7 kmh 29.92 in1013.2 mb 0.00 in0.0 mm 0.00 in0.0 mm 0.00 in0.0 mm
06:14 PM 63.7°F17.6°C 65.1°F18.4°C 71% 3.6 mph NNW5.8 kmh NNW 3.6 mph5.8 kmh 29.90 in1012.5 mb 0.00 in0.0 mm 0.00 in0.0 mm 0.00 in0.0 mm
06:15 PM 63.7°F17.6°C 64.6°F18.1°C 71% 3.7 mph NE6.0 kmh NE 3.7 mph6.0 kmh 29.90 in1012.5 mb 0.00 in0.0 mm 0.00 in0.0 mm 0.00 in0.0 mm
06:17 PM 63.8°F17.7°C 64.8°F18.2°C 71% 1.5 mph NNW2.4 kmh NNW 1.5 mph2.4 kmh 29.90 in1012.5 mb 0.00 in0.0 mm 0.00 in0.0 mm 0.00 in0.0 mm
06:18 PM 63.8°F17.7°C 65.0°F18.3°C 72% 1.6 mph NE2.6 kmh NE 1.6 mph2.6 kmh 29.90 in1012.5 mb 0.00 in0.0 mm 0.00 in0.0 mm 0.00 in0.0 mm
06:20 PM 63.8°F17.7°C 64.8°F18.2°C 71% Calm Calm -- 29.90 in1012.5 mb 0.00 in0.0 mm 0.00 in0.0 mm 0.00 in0.0 mm
06:21 PM 63.8°F17.7°C 64.9°F18.3°C 72% Calm Calm -- 29.90 in1012.5 mb 0.00 in0.0 mm 0.00 in0.0 mm 0.00 in0.0 mm
06:23 PM 63.8°F17.7°C 65.3°F18.5°C 73% Calm Calm -- 29.90 in1012.5 mb 0.00 in0.0 mm 0.00 in0.0 mm 0.02 in0.5 mm
06:24 PM 63.8°F17.7°C 64.9°F18.3°C 72% Calm Calm -- 29.90 in1012.5 mb 0.00 in0.0 mm 0.00 in0.0 mm 0.02 in0.5 mm
06:26 PM 63.7°F17.6°C 65.1°F18.4°C 73% Calm Calm -- 29.90 in1012.5 mb 0.00 in0.0 mm 0.00 in0.0 mm 0.02 in0.5 mm
06:27 PM 63.7°F17.6°C 65.1°F18.4°C 73% Calm Calm -- 29.90 in1012.5 mb 0.00 in0.0 mm 0.00 in0.0 mm 0.02 in0.5 mm
06:29 PM 63.5°F17.5°C 65.1°F18.4°C 73% Calm Calm -- 29.90 in1012.5 mb 0.00 in0.0 mm 0.00 in0.0 mm 0.02 in0.5 mm
06:30 PM 63.5°F17.5°C 65.4°F18.6°C 73% Calm Calm -- 29.90 in1012.5 mb 0.00 in0.0 mm 0.00 in0.0 mm 0.02 in0.5 mm
06:32 PM 63.5°F17.5°C 64.9°F18.3°C 74% Calm Calm -- 29.90 in1012.5 mb 0.00 in0.0 mm 0.00 in0.0 mm 0.02 in0.5 mm
06:33 PM 63.5°F17.5°C 65.2°F18.4°C 74% Calm Calm -- 29.90 in1012.5 mb 0.00 in0.0 mm 0.00 in0.0 mm 0.02 in0.5 mm
06:35 PM 63.5°F17.5°C 65.5°F18.6°C 75% Calm Calm -- 29.90 in1012.5 mb 0.00 in0.0 mm 0.00 in0.0 mm 0.02 in0.5 mm
06:36 PM 63.5°F17.5°C 65.7°F18.7°C 75% Calm Calm -- 29.90 in1012.5 mb 0.00 in0.0 mm 0.00 in0.0 mm 0.02 in0.5 mm
06:38 PM 63.8°F17.7°C 65.5°F18.6°C 75% 2.0 mph SE3.2 kmh SE 2.0 mph3.2 kmh 29.89 in1012.2 mb 0.00 in0.0 mm 0.00 in0.0 mm 0.02 in0.5 mm
06:39 PM 63.8°F17.7°C 65.5°F18.6°C 76% 1.8 mph SE2.9 kmh SE 1.8 mph2.9 kmh 29.89 in1012.2 mb 0.00 in0.0 mm 0.00 in0.0 mm 0.02 in0.5 mm
06:41 PM 63.8°F17.7°C 65.6°F18.7°C 76% 3.2 mph NNW5.1 kmh NNW 3.3 mph5.3 kmh 29.88 in1011.9 mb 0.00 in0.0 mm 0.00 in0.0 mm 0.02 in0.5 mm
06:42 PM 64.0°F17.8°C 65.4°F18.6°C 76% 2.5 mph ESE4.0 kmh ESE 2.5 mph4.0 kmh 29.88 in1011.9 mb 0.00 in0.0 mm 0.00 in0.0 mm 0.02 in0.5 mm
06:44 PM 64.0°F17.8°C 65.3°F18.5°C 76% Calm Calm -- 29.88 in1011.9 mb 0.00 in0.0 mm 0.00 in0.0 mm 0.02 in0.5 mm
06:47 PM 63.8°F17.7°C 65.6°F18.7°C 76% Calm Calm -- 29.88 in1011.9 mb 0.00 in0.0 mm 0.00 in0.0 mm 0.02 in0.5 mm
06:48 PM 63.8°F17.7°C 65.7°F18.7°C 76% Calm Calm -- 29.88 in1011.9 mb 0.00 in0.0 mm 0.00 in0.0 mm 0.02 in0.5 mm
06:50 PM 63.6°F17.6°C 65.3°F18.5°C 76% Calm Calm -- 29.88 in1011.9 mb 0.00 in0.0 mm 0.00 in0.0 mm 0.02 in0.5 mm
06:51 PM 63.6°F17.6°C 65.5°F18.6°C 76% Calm Calm -- 29.88 in1011.9 mb 0.00 in0.0 mm 0.00 in0.0 mm 0.02 in0.5 mm
06:53 PM 63.8°F17.7°C 65.4°F18.6°C 76% Calm Calm -- 29.88 in1011.9 mb 0.00 in0.0 mm 0.00 in0.0 mm 0.02 in0.5 mm
06:54 PM 63.8°F17.7°C 65.4°F18.6°C 76% Calm Calm -- 29.87 in1011.5 mb 0.00 in0.0 mm 0.00 in0.0 mm 0.02 in0.5 mm
06:56 PM 63.6°F17.6°C 65.4°F18.6°C 76% Calm Calm -- 29.88 in1011.9 mb 0.00 in0.0 mm 0.00 in0.0 mm 0.02 in0.5 mm
06:57 PM 63.6°F17.6°C 65.6°F18.7°C 76% Calm Calm -- 29.88 in1011.9 mb 0.00 in0.0 mm 0.00 in0.0 mm 0.02 in0.5 mm
06:59 PM 63.4°F17.4°C 65.4°F18.6°C 76% Calm Calm -- 29.86 in1011.2 mb 0.00 in0.0 mm 0.00 in0.0 mm 0.02 in0.5 mm
07:00 PM 63.4°F17.4°C 65.4°F18.6°C 76% Calm Calm -- 29.86 in1011.2 mb 0.00 in0.0 mm 0.00 in0.0 mm 0.02 in0.5 mm
07:02 PM 64.0°F17.8°C 65.5°F18.6°C 76% Calm Calm -- 29.86 in1011.2 mb 0.00 in0.0 mm 0.00 in0.0 mm 0.02 in0.5 mm
07:05 PM 63.4°F17.4°C 65.4°F18.6°C 76% 2.7 mph NNE4.3 kmh NNE 2.7 mph4.3 kmh 29.86 in1011.2 mb 0.00 in0.0 mm 0.00 in0.0 mm 0.02 in0.5 mm
07:06 PM 63.4°F17.4°C 65.0°F18.3°C 76% 2.8 mph NE4.5 kmh NE 2.8 mph4.5 kmh 29.85 in1010.8 mb 0.00 in0.0 mm 0.00 in0.0 mm 0.02 in0.5 mm
07:08 PM 63.1°F17.3°C 64.4°F18.0°C 76% 6.9 mph NNE11.1 kmh NNE 6.9 mph11.1 kmh 29.85 in1010.8 mb 0.00 in0.0 mm 0.00 in0.0 mm 0.02 in0.5 mm
07:09 PM 63.1°F17.3°C 64.7°F18.2°C 76% 6.3 mph NNE10.1 kmh NNE 6.3 mph10.1 kmh 29.85 in1010.8 mb 0.00 in0.0 mm 0.00 in0.0 mm 0.02 in0.5 mm
07:11 PM 62.7°F17.1°C 64.7°F18.2°C 77% 4.0 mph NNW6.4 kmh NNW 4.1 mph6.6 kmh 29.85 in1010.8 mb 0.00 in0.0 mm 0.00 in0.0 mm 0.02 in0.5 mm
07:12 PM 62.7°F17.1°C 64.8°F18.2°C 76% 3.2 mph NNE5.1 kmh NNE 3.3 mph5.3 kmh 29.85 in1010.8 mb 0.00 in0.0 mm 0.00 in0.0 mm 0.02 in0.5 mm
07:14 PM 62.7°F17.1°C 64.6°F18.1°C 76% 2.8 mph NE4.5 kmh NE 2.9 mph4.7 kmh 29.85 in1010.8 mb 0.00 in0.0 mm 0.00 in0.0 mm 0.02 in0.5 mm
07:15 PM 62.7°F17.1°C 64.4°F18.0°C 76% 2.6 mph NNE4.2 kmh NNE 2.7 mph4.3 kmh 29.85 in1010.8 mb 0.00 in0.0 mm 0.00 in0.0 mm 0.02 in0.5 mm
07:17 PM 62.8°F17.1°C 64.4°F18.0°C 76% 3.6 mph NNW5.8 kmh NNW 3.7 mph6.0 kmh 29.85 in1010.8 mb 0.00 in0.0 mm 0.00 in0.0 mm 0.02 in0.5 mm
07:18 PM 62.8°F17.1°C 64.6°F18.1°C 76% 3.2 mph NNE5.1 kmh NNE 3.2 mph5.1 kmh 29.85 in1010.8 mb 0.00 in0.0 mm 0.00 in0.0 mm 0.02 in0.5 mm
07:20 PM 62.7°F17.1°C 64.5°F18.1°C 77% 4.5 mph NE7.2 kmh NE 4.5 mph7.2 kmh 29.85 in1010.8 mb 0.00 in0.0 mm 0.00 in0.0 mm 0.02 in0.5 mm
07:21 PM 62.7°F17.1°C 64.7°F18.2°C 77% 3.4 mph NNE5.5 kmh NNE 3.4 mph5.5 kmh 29.85 in1010.8 mb 0.00 in0.0 mm 0.00 in0.0 mm 0.02 in0.5 mm
07:23 PM 62.5°F16.9°C 64.7°F18.2°C 78% 3.2 mph NNE5.1 kmh NNE 3.2 mph5.1 kmh 29.85 in1010.8 mb 0.00 in0.0 mm 0.00 in0.0 mm 0.02 in0.5 mm
07:24 PM 62.5°F16.9°C 64.7°F18.2°C 78% 3.3 mph NE5.3 kmh NE 3.3 mph5.3 kmh 29.85 in1010.8 mb 0.00 in0.0 mm 0.00 in0.0 mm 0.02 in0.5 mm
07:26 PM 62.6°F17.0°C 64.4°F18.0°C 78% 5.0 mph NNW8.0 kmh NNW 5.1 mph8.2 kmh 29.85 in1010.8 mb 0.00 in0.0 mm 0.00 in0.0 mm 0.02 in0.5 mm
07:27 PM 62.6°F17.0°C 64.5°F18.1°C 78% 4.2 mph NNW6.8 kmh NNW 4.5 mph7.2 kmh 29.85 in1010.8 mb 0.00 in0.0 mm 0.00 in0.0 mm 0.02 in0.5 mm
07:29 PM 62.7°F17.1°C 64.3°F17.9°C 78% 1.6 mph NNW2.6 kmh NNW 1.6 mph2.6 kmh 29.86 in1011.2 mb 0.00 in0.0 mm 0.00 in0.0 mm 0.02 in0.5 mm
07:32 PM 62.9°F17.2°C 64.0°F17.8°C 76% 2.4 mph WNW3.9 kmh WNW 2.4 mph3.9 kmh 29.86 in1011.2 mb 0.00 in0.0 mm 0.00 in0.0 mm 0.02 in0.5 mm
07:33 PM 63.1°F17.3°C 64.3°F17.9°C 77% 2.0 mph WNW3.2 kmh WNW 2.2 mph3.5 kmh 29.86 in1011.2 mb 0.00 in0.0 mm 0.00 in0.0 mm 0.02 in0.5 mm
07:35 PM 62.8°F17.1°C 64.3°F17.9°C 77% 2.4 mph 3.9 kmh 2.4 mph3.9 kmh 29.86 in1011.2 mb 0.00 in0.0 mm 0.00 in0.0 mm 0.02 in0.5 mm
07:36 PM 62.8°F17.1°C 64.2°F17.9°C 77% 3.3 mph 5.3 kmh 3.3 mph5.3 kmh 29.86 in1011.2 mb 0.00 in0.0 mm 0.00 in0.0 mm 0.02 in0.5 mm
07:38 PM 63.1°F17.3°C 64.4°F18.0°C 77% 0.4 mph NNW0.6 kmh NNW 0.4 mph0.6 kmh 29.86 in1011.2 mb 0.00 in0.0 mm 0.00 in0.0 mm 0.02 in0.5 mm
07:39 PM 63.1°F17.3°C 64.3°F17.9°C 77% 1.2 mph NW1.9 kmh NW 1.2 mph1.9 kmh 29.86 in1011.2 mb 0.00 in0.0 mm 0.00 in0.0 mm 0.02 in0.5 mm
07:41 PM 63.1°F17.3°C 64.4°F18.0°C 77% Calm Calm -- 29.86 in1011.2 mb 0.00 in0.0 mm 0.00 in0.0 mm 0.02 in0.5 mm
07:42 PM 63.1°F17.3°C 64.3°F17.9°C 77% 0.3 mph NW0.5 kmh NW 0.3 mph0.5 kmh 29.86 in1011.2 mb 0.00 in0.0 mm 0.00 in0.0 mm 0.02 in0.5 mm
07:44 PM 62.9°F17.2°C 64.5°F18.1°C 77% 0.4 mph NW0.6 kmh NW 0.4 mph0.6 kmh 29.86 in1011.2 mb 0.00 in0.0 mm 0.00 in0.0 mm 0.02 in0.5 mm
07:45 PM 62.9°F17.2°C 64.5°F18.1°C 77% 0.2 mph NW0.3 kmh NW 0.3 mph0.5 kmh 29.86 in1011.2 mb 0.00 in0.0 mm 0.00 in0.0 mm 0.02 in0.5 mm
07:47 PM 62.8°F17.1°C 64.7°F18.2°C 77% 0.8 mph NNW1.3 kmh NNW 0.8 mph1.3 kmh 29.86 in1011.2 mb 0.00 in0.0 mm 0.00 in0.0 mm 0.02 in0.5 mm
07:48 PM 62.8°F17.1°C 64.3°F17.9°C 77% 0.9 mph NNW1.4 kmh NNW 0.9 mph1.4 kmh 29.86 in1011.2 mb 0.00 in0.0 mm 0.00 in0.0 mm 0.02 in0.5 mm
07:50 PM 62.6°F17.0°C 64.5°F18.1°C 77% Calm Calm -- 29.86 in1011.2 mb 0.00 in0.0 mm 0.00 in0.0 mm 0.02 in0.5 mm
07:51 PM 62.6°F17.0°C 64.3°F17.9°C 77% Calm Calm -- 29.86 in1011.2 mb 0.00 in0.0 mm 0.00 in0.0 mm 0.02 in0.5 mm
07:53 PM 62.6°F17.0°C 64.6°F18.1°C 77% 1.6 mph 2.6 kmh 1.6 mph2.6 kmh 29.86 in1011.2 mb 0.00 in0.0 mm 0.00 in0.0 mm 0.02 in0.5 mm
07:54 PM 62.6°F17.0°C 64.4°F18.0°C 77% 1.0 mph 1.6 kmh 1.0 mph1.6 kmh 29.86 in1011.2 mb 0.00 in0.0 mm 0.00 in0.0 mm 0.02 in0.5 mm
07:56 PM 62.4°F16.9°C 64.2°F17.9°C 77% Calm Calm -- 29.86 in1011.2 mb 0.00 in0.0 mm 0.00 in0.0 mm 0.02 in0.5 mm
07:57 PM 62.4°F16.9°C 64.2°F17.9°C 77% Calm Calm -- 29.85 in1010.8 mb 0.00 in0.0 mm 0.00 in0.0 mm 0.02 in0.5 mm
07:59 PM 62.2°F16.8°C 64.2°F17.9°C 77% 1.2 mph NNE1.9 kmh NNE 1.2 mph1.9 kmh 29.85 in1010.8 mb 0.00 in0.0 mm 0.00 in0.0 mm 0.02 in0.5 mm
08:00 PM 62.2°F16.8°C 64.1°F17.8°C 77% 1.2 mph NNE1.9 kmh NNE 1.3 mph2.1 kmh 29.85 in1010.8 mb 0.00 in0.0 mm 0.00 in0.0 mm 0.02 in0.5 mm
08:02 PM 62.0°F16.7°C 64.2°F17.9°C 77% 1.2 mph NNW1.9 kmh NNW 1.2 mph1.9 kmh 29.85 in1010.8 mb 0.00 in0.0 mm 0.00 in0.0 mm 0.02 in0.5 mm
08:03 PM 62.0°F16.7°C 64.2°F17.9°C 77% 1.2 mph NNW1.9 kmh NNW 1.3 mph2.1 kmh 29.85 in1010.8 mb 0.00 in0.0 mm 0.00 in0.0 mm 0.02 in0.5 mm
08:05 PM 62.2°F16.8°C 64.2°F17.9°C 77% 0.8 mph 1.3 kmh 0.8 mph1.3 kmh 29.85 in1010.8 mb 0.00 in0.0 mm 0.00 in0.0 mm 0.02 in0.5 mm
08:06 PM 62.2°F16.8°C 64.4°F18.0°C 78% 0.7 mph 1.1 kmh 0.7 mph1.1 kmh 29.85 in1010.8 mb 0.00 in0.0 mm 0.00 in0.0 mm 0.02 in0.5 mm
08:08 PM 62.3°F16.8°C 64.5°F18.1°C 78% Calm Calm -- 29.85 in1010.8 mb 0.00 in0.0 mm 0.00 in0.0 mm 0.02 in0.5 mm
08:09 PM 62.3°F16.8°C 64.0°F17.8°C 78% 0.7 mph 1.1 kmh 0.8 mph1.3 kmh 29.85 in1010.8 mb 0.00 in0.0 mm 0.00 in0.0 mm 0.02 in0.5 mm
08:11 PM 62.3°F16.8°C 64.5°F18.1°C 78% 0.4 mph NW0.6 kmh NW 0.4 mph0.6 kmh 29.86 in1011.2 mb 0.00 in0.0 mm 0.00 in0.0 mm 0.02 in0.5 mm
08:12 PM 62.3°F16.8°C 64.4°F18.0°C 78% 0.3 mph NW0.5 kmh NW 0.3 mph0.5 kmh 29.85 in1010.8 mb 0.00 in0.0 mm 0.00 in0.0 mm 0.02 in0.5 mm
08:14 PM 62.2°F16.8°C 64.3°F17.9°C 78% Calm Calm -- 29.86 in1011.2 mb 0.00 in0.0 mm 0.00 in0.0 mm 0.02 in0.5 mm
08:15 PM 62.3°F16.8°C 64.3°F17.9°C 78% Calm Calm -- 29.86 in1011.2 mb 0.00 in0.0 mm 0.00 in0.0 mm 0.02 in0.5 mm
08:17 PM 62.0°F16.7°C 64.4°F18.0°C 78% 1.2 mph W1.9 kmh W 1.2 mph1.9 kmh 29.86 in1011.2 mb 0.00 in0.0 mm 0.00 in0.0 mm 0.02 in0.5 mm
08:18 PM 62.0°F16.7°C 64.4°F18.0°C 78% 0.7 mph W1.1 kmh W 0.7 mph1.1 kmh 29.86 in1011.2 mb 0.00 in0.0 mm 0.00 in0.0 mm 0.02 in0.5 mm
08:20 PM 62.2°F16.8°C 64.2°F17.9°C 79% Calm Calm -- 29.86 in1011.2 mb 0.00 in0.0 mm 0.00 in0.0 mm 0.04 in1.0 mm
08:21 PM 62.2°F16.8°C 64.2°F17.9°C 79% Calm Calm -- 29.86 in1011.2 mb 0.00 in0.0 mm 0.00 in0.0 mm 0.04 in1.0 mm
08:23 PM 61.9°F16.6°C 64.3°F17.9°C 79% 0.4 mph WSW0.6 kmh WSW 0.4 mph0.6 kmh 29.87 in1011.5 mb 0.00 in0.0 mm 0.00 in0.0 mm 0.04 in1.0 mm
08:24 PM 61.9°F16.6°C 64.2°F17.9°C 79% 1.3 mph WSW2.1 kmh WSW 1.3 mph2.1 kmh 29.87 in1011.5 mb 0.00 in0.0 mm 0.00 in0.0 mm 0.04 in1.0 mm
08:26 PM 61.8°F16.6°C 64.2°F17.9°C 79% Calm Calm -- 29.87 in1011.5 mb 0.00 in0.0 mm 0.00 in0.0 mm 0.04 in1.0 mm
08:27 PM 61.8°F16.6°C 64.6°F18.1°C 80% Calm Calm -- 29.86 in1011.2 mb 0.00 in0.0 mm 0.00 in0.0 mm 0.04 in1.0 mm
08:29 PM 61.9°F16.6°C 64.4°F18.0°C 80% 0.8 mph SSE1.3 kmh SSE 0.8 mph1.3 kmh 29.86 in1011.2 mb 0.00 in0.0 mm 0.00 in0.0 mm 0.04 in1.0 mm
08:30 PM 61.9°F16.6°C 64.8°F18.2°C 80% 1.4 mph SSE2.3 kmh SSE 1.4 mph2.3 kmh 29.86 in1011.2 mb 0.00 in0.0 mm 0.00 in0.0 mm 0.04 in1.0 mm
08:32 PM 61.9°F16.6°C 64.6°F18.1°C 81% 1.9 mph SE3.1 kmh SE 2.0 mph3.2 kmh 29.86 in1011.2 mb 0.00 in0.0 mm 0.00 in0.0 mm 0.04 in1.0 mm
08:33 PM 61.9°F16.6°C 64.5°F18.1°C 81% 1.8 mph SE2.9 kmh SE 2.0 mph3.2 kmh 29.86 in1011.2 mb 0.00 in0.0 mm 0.00 in0.0 mm 0.04 in1.0 mm
08:35 PM 61.5°F16.4°C 64.4°F18.0°C 80% Calm Calm -- 29.85 in1010.8 mb 0.00 in0.0 mm 0.00 in0.0 mm 0.04 in1.0 mm
08:36 PM 61.5°F16.4°C 64.4°F18.0°C 80% Calm Calm -- 29.85 in1010.8 mb 0.00 in0.0 mm 0.00 in0.0 mm 0.04 in1.0 mm
08:38 PM 61.5°F16.4°C 64.3°F17.9°C 80% 1.9 mph ESE3.1 kmh ESE 2.0 mph3.2 kmh 29.84 in1010.5 mb 0.00 in0.0 mm 0.00 in0.0 mm 0.04 in1.0 mm
08:39 PM 61.4°F16.3°C 64.6°F18.1°C 80% 2.6 mph ESE4.2 kmh ESE 2.7 mph4.3 kmh 29.84 in1010.5 mb 0.00 in0.0 mm 0.00 in0.0 mm 0.04 in1.0 mm
08:41 PM 61.4°F16.3°C 64.5°F18.1°C 81% 3.6 mph ESE5.8 kmh ESE 3.6 mph5.8 kmh 29.84 in1010.5 mb 0.00 in0.0 mm 0.00 in0.0 mm 0.04 in1.0 mm
08:42 PM 61.4°F16.3°C 64.4°F18.0°C 81% 3.2 mph ESE5.1 kmh ESE 3.2 mph5.1 kmh 29.84 in1010.5 mb 0.00 in0.0 mm 0.00 in0.0 mm 0.04 in1.0 mm
08:44 PM 61.4°F16.3°C 64.1°F17.8°C 80% 0.4 mph SE0.6 kmh SE 0.4 mph0.6 kmh 29.84 in1010.5 mb 0.00 in0.0 mm 0.00 in0.0 mm 0.04 in1.0 mm
08:45 PM 61.4°F16.3°C 64.2°F17.9°C 80% Calm Calm -- 29.84 in1010.5 mb 0.00 in0.0 mm 0.00 in0.0 mm 0.04 in1.0 mm
08:47 PM 61.3°F16.3°C 64.1°F17.8°C 81% 3.2 mph ESE5.1 kmh ESE 3.3 mph5.3 kmh 29.83 in1010.2 mb 0.00 in0.0 mm 0.00 in0.0 mm 0.04 in1.0 mm
08:48 PM 61.3°F16.3°C 64.2°F17.9°C 81% 2.6 mph ESE4.2 kmh ESE 2.6 mph4.2 kmh 29.83 in1010.2 mb 0.00 in0.0 mm 0.00 in0.0 mm 0.04 in1.0 mm
08:50 PM 61.0°F16.1°C 63.8°F17.7°C 80% Calm Calm -- 29.83 in1010.2 mb 0.00 in0.0 mm 0.00 in0.0 mm 0.04 in1.0 mm
08:51 PM 61.0°F16.1°C 64.0°F17.8°C 81% 0.2 mph E0.3 kmh E 0.3 mph0.5 kmh 29.83 in1010.2 mb 0.00 in0.0 mm 0.00 in0.0 mm 0.04 in1.0 mm
08:53 PM 60.9°F16.1°C 63.7°F17.6°C 80% Calm Calm -- 29.83 in1010.2 mb 0.00 in0.0 mm 0.00 in0.0 mm 0.04 in1.0 mm
08:54 PM 60.9°F16.1°C 64.0°F17.8°C 81% 0.2 mph E0.3 kmh E 0.3 mph0.5 kmh 29.83 in1010.2 mb 0.00 in0.0 mm 0.00 in0.0 mm 0.04 in1.0 mm
08:56 PM 60.7°F15.9°C 63.5°F17.5°C 80% Calm Calm -- 29.83 in1010.2 mb 0.00 in0.0 mm 0.00 in0.0 mm 0.04 in1.0 mm
08:57 PM 60.8°F16.0°C 63.9°F17.7°C 80% Calm Calm -- 29.83 in1010.2 mb 0.00 in0.0 mm 0.00 in0.0 mm 0.04 in1.0 mm
08:59 PM 60.4°F15.8°C 63.7°F17.6°C 80% 2.0 mph SW3.2 kmh SW 2.0 mph3.2 kmh 29.83 in1010.2 mb 0.00 in0.0 mm 0.00 in0.0 mm 0.04 in1.0 mm
09:00 PM 60.4°F15.8°C 63.7°F17.6°C 80% 1.8 mph SW2.9 kmh SW 1.8 mph2.9 kmh 29.84 in1010.5 mb 0.00 in0.0 mm 0.00 in0.0 mm 0.04 in1.0 mm
09:02 PM 60.4°F15.8°C 63.4°F17.4°C 80% Calm Calm -- 29.83 in1010.2 mb 0.00 in0.0 mm 0.00 in0.0 mm 0.04 in1.0 mm
09:03 PM 60.4°F15.8°C 63.3°F17.4°C 79% Calm Calm -- 29.83 in1010.2 mb 0.00 in0.0 mm 0.00 in0.0 mm 0.04 in1.0 mm
09:05 PM 60.2°F15.7°C 63.4°F17.4°C 80% Calm Calm -- 29.84 in1010.5 mb 0.00 in0.0 mm 0.00 in0.0 mm 0.04 in1.0 mm
09:06 PM 60.2°F15.7°C 63.4°F17.4°C 80% Calm Calm -- 29.84 in1010.5 mb 0.00 in0.0 mm 0.00 in0.0 mm 0.04 in1.0 mm
09:08 PM 60.1°F15.6°C 63.3°F17.4°C 80% Calm Calm -- 29.83 in1010.2 mb 0.00 in0.0 mm 0.00 in0.0 mm 0.04 in1.0 mm
09:09 PM 60.1°F15.6°C 63.2°F17.3°C 80% Calm Calm -- 29.84 in1010.5 mb 0.00 in0.0 mm 0.00 in0.0 mm 0.04 in1.0 mm
09:11 PM 60.2°F15.7°C 63.1°F17.3°C 79% 1.9 mph NNW3.1 kmh NNW 2.0 mph3.2 kmh 29.84 in1010.5 mb 0.00 in0.0 mm 0.00 in0.0 mm 0.04 in1.0 mm
09:12 PM 60.2°F15.7°C 63.6°F17.6°C 80% 1.8 mph WSW2.9 kmh WSW 1.8 mph2.9 kmh 29.84 in1010.5 mb 0.00 in0.0 mm 0.00 in0.0 mm 0.04 in1.0 mm
09:14 PM 60.4°F15.8°C 63.5°F17.5°C 80% 0.4 mph WSW0.6 kmh WSW 0.4 mph0.6 kmh 29.85 in1010.8 mb 0.00 in0.0 mm 0.00 in0.0 mm 0.04 in1.0 mm
09:15 PM 60.4°F15.8°C 63.5°F17.5°C 80% 0.3 mph W0.5 kmh W 0.3 mph0.5 kmh 29.85 in1010.8 mb 0.00 in0.0 mm 0.00 in0.0 mm 0.04 in1.0 mm
09:17 PM 60.1°F15.6°C 63.3°F17.4°C 80% Calm Calm -- 29.85 in1010.8 mb 0.00 in0.0 mm 0.00 in0.0 mm 0.04 in1.0 mm
09:18 PM 60.2°F15.7°C 63.4°F17.4°C 80% Calm Calm -- 29.85 in1010.8 mb 0.00 in0.0 mm 0.00 in0.0 mm 0.04 in1.0 mm
09:20 PM 60.2°F15.7°C 63.2°F17.3°C 80% Calm Calm -- 29.85 in1010.8 mb 0.00 in0.0 mm 0.00 in0.0 mm 0.04 in1.0 mm
09:21 PM 60.2°F15.7°C 63.4°F17.4°C 81% Calm Calm -- 29.85 in1010.8 mb 0.00 in0.0 mm 0.00 in0.0 mm 0.04 in1.0 mm
09:23 PM 60.1°F15.6°C 63.0°F17.2°C 80% Calm Calm -- 29.86 in1011.2 mb 0.00 in0.0 mm 0.00 in0.0 mm 0.04 in1.0 mm
09:24 PM 60.1°F15.6°C 63.2°F17.3°C 80% Calm Calm -- 29.86 in1011.2 mb 0.00 in0.0 mm 0.00 in0.0 mm 0.04 in1.0 mm
09:26 PM 60.1°F15.6°C 63.1°F17.3°C 80% Calm Calm -- 29.85 in1010.8 mb 0.00 in0.0 mm 0.00 in0.0 mm 0.04 in1.0 mm
09:27 PM 60.1°F15.6°C 63.3°F17.4°C 80% Calm Calm -- 29.85 in1010.8 mb 0.00 in0.0 mm 0.00 in0.0 mm 0.04 in1.0 mm
09:29 PM 59.6°F15.3°C 63.1°F17.3°C 80% 1.1 mph 1.8 kmh 1.2 mph1.9 kmh 29.85 in1010.8 mb 0.00 in0.0 mm 0.00 in0.0 mm 0.04 in1.0 mm
09:30 PM 59.7°F15.4°C 63.2°F17.3°C 80% 0.9 mph 1.4 kmh 0.9 mph1.4 kmh 29.85 in1010.8 mb 0.00 in0.0 mm 0.00 in0.0 mm 0.04 in1.0 mm
09:32 PM 59.6°F15.3°C 62.7°F17.1°C 80% 0.8 mph 1.3 kmh 0.8 mph1.3 kmh 29.85 in1010.8 mb 0.00 in0.0 mm 0.00 in0.0 mm 0.04 in1.0 mm
09:33 PM 59.6°F15.3°C 62.4°F16.9°C 79% 0.5 mph 0.8 kmh 0.5 mph0.8 kmh 29.85 in1010.8 mb 0.00 in0.0 mm 0.00 in0.0 mm 0.04 in1.0 mm
09:35 PM 59.6°F15.3°C 62.7°F17.1°C 80% 0.4 mph 0.6 kmh 0.4 mph0.6 kmh 29.85 in1010.8 mb 0.00 in0.0 mm 0.00 in0.0 mm 0.04 in1.0 mm
09:36 PM 59.6°F15.3°C 62.8°F17.1°C 80% 0.5 mph 0.8 kmh 0.5 mph0.8 kmh 29.85 in1010.8 mb 0.00 in0.0 mm 0.00 in0.0 mm 0.04 in1.0 mm
09:38 PM 58.7°F14.8°C 62.4°F16.9°C 79% 1.9 mph NNE3.1 kmh NNE 1.9 mph3.1 kmh 29.85 in1010.8 mb 0.00 in0.0 mm 0.00 in0.0 mm 0.04 in1.0 mm
09:39 PM 58.9°F14.9°C 62.5°F16.9°C 79% 1.8 mph NNE2.9 kmh NNE 1.8 mph2.9 kmh 29.85 in1010.8 mb 0.00 in0.0 mm 0.00 in0.0 mm 0.04 in1.0 mm
09:41 PM 58.7°F14.8°C 62.6°F17.0°C 80% 2.0 mph NNE3.2 kmh NNE 2.0 mph3.2 kmh 29.85 in1010.8 mb 0.00 in0.0 mm 0.00 in0.0 mm 0.04 in1.0 mm
09:42 PM 58.8°F14.9°C 62.4°F16.9°C 79% 2.0 mph NNE3.2 kmh NNE 2.0 mph3.2 kmh 29.85 in1010.8 mb 0.00 in0.0 mm 0.00 in0.0 mm 0.04 in1.0 mm
09:44 PM 58.6°F14.8°C 62.1°F16.7°C 80% 0.4 mph NNE0.6 kmh NNE 0.4 mph0.6 kmh 29.85 in1010.8 mb 0.00 in0.0 mm 0.00 in0.0 mm 0.04 in1.0 mm
09:45 PM 58.8°F14.9°C 62.1°F16.7°C 80% 0.9 mph NNE1.4 kmh NNE 0.9 mph1.4 kmh 29.85 in1010.8 mb 0.00 in0.0 mm 0.00 in0.0 mm 0.04 in1.0 mm
09:47 PM 58.7°F14.8°C 62.3°F16.8°C 80% 2.4 mph NE3.9 kmh NE 2.4 mph3.9 kmh 29.85 in1010.8 mb 0.00 in0.0 mm 0.00 in0.0 mm 0.04 in1.0 mm
09:48 PM 58.7°F14.8°C 62.1°F16.7°C 80% 2.5 mph NE4.0 kmh NE 2.5 mph4.0 kmh 29.85 in1010.8 mb 0.00 in0.0 mm 0.00 in0.0 mm 0.04 in1.0 mm
09:50 PM 58.1°F14.5°C 61.9°F16.6°C 80% 2.0 mph NE3.2 kmh NE 2.0 mph3.2 kmh 29.85 in1010.8 mb 0.00 in0.0 mm 0.00 in0.0 mm 0.04 in1.0 mm
09:51 PM 58.6°F14.8°C 61.7°F16.5°C 80% 1.8 mph NE2.9 kmh NE 1.9 mph3.1 kmh 29.85 in1010.8 mb 0.00 in0.0 mm 0.00 in0.0 mm 0.04 in1.0 mm
09:53 PM 58.6°F14.8°C 61.8°F16.6°C 80% 2.0 mph NE3.2 kmh NE 2.0 mph3.2 kmh 29.85 in1010.8 mb 0.00 in0.0 mm 0.00 in0.0 mm 0.04 in1.0 mm
09:54 PM 58.6°F14.8°C 61.5°F16.4°C 79% 1.5 mph NE2.4 kmh NE 1.5 mph2.4 kmh 29.84 in1010.5 mb 0.00 in0.0 mm 0.00 in0.0 mm 0.04 in1.0 mm
09:56 PM 58.3°F14.6°C 61.5°F16.4°C 80% 3.1 mph NNW5.0 kmh NNW 3.1 mph5.0 kmh 29.83 in1010.2 mb 0.00 in0.0 mm 0.00 in0.0 mm 0.04 in1.0 mm
09:57 PM 58.4°F14.7°C 61.6°F16.4°C 79% 3.5 mph NE5.6 kmh NE 3.5 mph5.6 kmh 29.84 in1010.5 mb 0.00 in0.0 mm 0.00 in0.0 mm 0.04 in1.0 mm
09:59 PM 58.3°F14.6°C 61.6°F16.4°C 80% 2.0 mph NE3.2 kmh NE 2.0 mph3.2 kmh 29.83 in1010.2 mb 0.00 in0.0 mm 0.00 in0.0 mm 0.04 in1.0 mm
10:02 PM 58.1°F14.5°C 61.3°F16.3°C 80% 2.3 mph NE3.7 kmh NE 2.5 mph4.0 kmh 29.83 in1010.2 mb 0.00 in0.0 mm 0.00 in0.0 mm 0.04 in1.0 mm
10:03 PM 58.2°F14.6°C 61.6°F16.4°C 80% 2.1 mph NE3.4 kmh NE 2.1 mph3.4 kmh 29.83 in1010.2 mb 0.00 in0.0 mm 0.00 in0.0 mm 0.04 in1.0 mm
10:05 PM 58.1°F14.5°C 61.5°F16.4°C 80% 2.4 mph NE3.9 kmh NE 2.4 mph3.9 kmh 29.83 in1010.2 mb 0.00 in0.0 mm 0.00 in0.0 mm 0.04 in1.0 mm
10:06 PM 58.3°F14.6°C 61.6°F16.4°C 80% 2.5 mph NE4.0 kmh NE 2.5 mph4.0 kmh 29.83 in1010.2 mb 0.00 in0.0 mm 0.00 in0.0 mm 0.04 in1.0 mm
10:08 PM 58.1°F14.5°C 61.4°F16.3°C 80% 0.4 mph 0.6 kmh 0.4 mph0.6 kmh 29.83 in1010.2 mb 0.00 in0.0 mm 0.00 in0.0 mm 0.04 in1.0 mm
10:09 PM 58.3°F14.6°C 61.5°F16.4°C 80% 0.5 mph 0.8 kmh 0.5 mph0.8 kmh 29.83 in1010.2 mb 0.00 in0.0 mm 0.00 in0.0 mm 0.04 in1.0 mm
10:11 PM 58.1°F14.5°C 61.1°F16.2°C 80% 1.2 mph 1.9 kmh 1.2 mph1.9 kmh 29.83 in1010.2 mb 0.00 in0.0 mm 0.00 in0.0 mm 0.04 in1.0 mm
10:12 PM 58.1°F14.5°C 61.1°F16.2°C 80% 1.6 mph 2.6 kmh 1.6 mph2.6 kmh 29.83 in1010.2 mb 0.00 in0.0 mm 0.00 in0.0 mm 0.04 in1.0 mm
10:14 PM 58.2°F14.6°C 60.9°F16.1°C 80% 2.0 mph NNW3.2 kmh NNW 2.0 mph3.2 kmh 29.83 in1010.2 mb 0.00 in0.0 mm 0.00 in0.0 mm 0.04 in1.0 mm
10:15 PM 58.3°F14.6°C 60.9°F16.1°C 79% 2.1 mph NNW3.4 kmh NNW 2.1 mph3.4 kmh 29.83 in1010.2 mb 0.00 in0.0 mm 0.00 in0.0 mm 0.04 in1.0 mm
10:17 PM 57.9°F14.4°C 61.0°F16.1°C 79% 0.8 mph 1.3 kmh 0.8 mph1.3 kmh 29.83 in1010.2 mb 0.00 in0.0 mm 0.00 in0.0 mm 0.04 in1.0 mm
10:18 PM 57.9°F14.4°C 60.9°F16.1°C 79% 0.3 mph NNE0.5 kmh NNE 0.3 mph0.5 kmh 29.83 in1010.2 mb 0.00 in0.0 mm 0.00 in0.0 mm 0.04 in1.0 mm
10:20 PM 57.7°F14.3°C 61.0°F16.1°C 79% 2.0 mph 3.2 kmh 2.0 mph3.2 kmh 29.83 in1010.2 mb 0.00 in0.0 mm 0.00 in0.0 mm 0.04 in1.0 mm
10:21 PM 57.8°F14.3°C 60.8°F16.0°C 79% 2.3 mph 3.7 kmh 2.4 mph3.9 kmh 29.83 in1010.2 mb 0.00 in0.0 mm 0.00 in0.0 mm 0.04 in1.0 mm
10:23 PM 58.1°F14.5°C 60.7°F15.9°C 79% 3.6 mph NE5.8 kmh NE 3.7 mph6.0 kmh 29.83 in1010.2 mb 0.00 in0.0 mm 0.00 in0.0 mm 0.04 in1.0 mm
10:24 PM 58.0°F14.4°C 61.1°F16.2°C 80% 4.0 mph NE6.4 kmh NE 4.0 mph6.4 kmh 29.83 in1010.2 mb 0.00 in0.0 mm 0.00 in0.0 mm 0.04 in1.0 mm
10:26 PM 57.9°F14.4°C 60.8°F16.0°C 80% 1.2 mph NE1.9 kmh NE 1.2 mph1.9 kmh 29.83 in1010.2 mb 0.00 in0.0 mm 0.00 in0.0 mm 0.04 in1.0 mm
10:27 PM 57.9°F14.4°C 60.8°F16.0°C 80% 0.5 mph NE0.8 kmh NE 0.5 mph0.8 kmh 29.83 in1010.2 mb 0.00 in0.0 mm 0.00 in0.0 mm 0.04 in1.0 mm
10:29 PM 57.7°F14.3°C 60.6°F15.9°C 80% Calm Calm -- 29.83 in1010.2 mb 0.00 in0.0 mm 0.00 in0.0 mm 0.04 in1.0 mm
10:30 PM 57.7°F14.3°C 60.6°F15.9°C 80% Calm Calm -- 29.83 in1010.2 mb 0.00 in0.0 mm 0.00 in0.0 mm 0.04 in1.0 mm
10:32 PM 57.4°F14.1°C 60.8°F16.0°C 80% 0.8 mph ESE1.3 kmh ESE 0.8 mph1.3 kmh 29.83 in1010.2 mb 0.00 in0.0 mm 0.00 in0.0 mm 0.04 in1.0 mm
10:33 PM 57.4°F14.1°C 60.8°F16.0°C 80% 1.6 mph ESE2.6 kmh ESE 1.6 mph2.6 kmh 29.83 in1010.2 mb 0.00 in0.0 mm 0.00 in0.0 mm 0.04 in1.0 mm
10:35 PM 57.2°F14.0°C 60.5°F15.8°C 80% Calm Calm -- 29.83 in1010.2 mb 0.00 in0.0 mm 0.00 in0.0 mm 0.04 in1.0 mm
10:36 PM 57.1°F13.9°C 60.4°F15.8°C 79% Calm Calm -- 29.83 in1010.2 mb 0.00 in0.0 mm 0.00 in0.0 mm 0.04 in1.0 mm
10:38 PM 56.6°F13.7°C 60.5°F15.8°C 80% Calm Calm -- 29.83 in1010.2 mb 0.00 in0.0 mm 0.00 in0.0 mm 0.04 in1.0 mm
10:39 PM 57.1°F13.9°C 60.5°F15.8°C 80% Calm Calm -- 29.83 in1010.2 mb 0.00 in0.0 mm 0.00 in0.0 mm 0.04 in1.0 mm
10:41 PM 56.6°F13.7°C 60.5°F15.8°C 80% Calm Calm -- 29.83 in1010.2 mb 0.00 in0.0 mm 0.00 in0.0 mm 0.04 in1.0 mm
10:42 PM 57.0°F13.9°C 60.2°F15.7°C 79% Calm Calm -- 29.83 in1010.2 mb 0.00 in0.0 mm 0.00 in0.0 mm 0.04 in1.0 mm
10:44 PM 56.8°F13.8°C 60.2°F15.7°C 79% Calm Calm -- 29.83 in1010.2 mb 0.00 in0.0 mm 0.00 in0.0 mm 0.04 in1.0 mm
10:45 PM 56.9°F13.8°C 60.3°F15.7°C 79% Calm Calm -- 29.83 in1010.2 mb 0.00 in0.0 mm 0.00 in0.0 mm 0.04 in1.0 mm
10:47 PM 56.9°F13.8°C 60.1°F15.6°C 80% Calm Calm -- 29.83 in1010.2 mb 0.00 in0.0 mm 0.00 in0.0 mm 0.04 in1.0 mm
10:48 PM 56.8°F13.8°C 60.4°F15.8°C 80% Calm Calm -- 29.83 in1010.2 mb 0.00 in0.0 mm 0.00 in0.0 mm 0.04 in1.0 mm
10:50 PM 56.6°F13.7°C 60.0°F15.6°C 79% Calm Calm -- 29.83 in1010.2 mb 0.00 in0.0 mm 0.00 in0.0 mm 0.04 in1.0 mm
10:51 PM 56.6°F13.7°C 60.4°F15.8°C 80% Calm Calm -- 29.83 in1010.2 mb 0.00 in0.0 mm 0.00 in0.0 mm 0.04 in1.0 mm
10:53 PM 56.8°F13.8°C 60.1°F15.6°C 80% Calm Calm -- 29.83 in1010.2 mb 0.00 in0.0 mm 0.00 in0.0 mm 0.04 in1.0 mm
10:54 PM 56.9°F13.8°C 60.3°F15.7°C 80% Calm Calm -- 29.83 in1010.2 mb 0.00 in0.0 mm 0.00 in0.0 mm 0.04 in1.0 mm
10:59 PM 56.2°F13.4°C 59.7°F15.4°C 79% Calm Calm -- 29.85 in1010.8 mb 0.00 in0.0 mm 0.00 in0.0 mm 0.04 in1.0 mm
11:02 PM 56.2°F13.4°C 59.9°F15.5°C 80% Calm Calm -- 29.85 in1010.8 mb 0.00 in0.0 mm 0.00 in0.0 mm 0.00 in0.0 mm
11:03 PM 56.1°F13.4°C 59.9°F15.5°C 80% Calm Calm -- 29.85 in1010.8 mb 0.00 in0.0 mm 0.00 in0.0 mm 0.00 in0.0 mm
11:05 PM 56.2°F13.4°C 59.6°F15.3°C 79% Calm Calm -- 29.85 in1010.8 mb 0.00 in0.0 mm 0.00 in0.0 mm 0.00 in0.0 mm
11:06 PM 56.2°F13.4°C 59.6°F15.3°C 79% Calm Calm -- 29.85 in1010.8 mb 0.00 in0.0 mm 0.00 in0.0 mm 0.00 in0.0 mm
11:08 PM 56.3°F13.5°C 59.5°F15.3°C 80% Calm Calm -- 29.85 in1010.8 mb 0.00 in0.0 mm 0.00 in0.0 mm 0.00 in0.0 mm
11:09 PM 56.2°F13.4°C 59.9°F15.5°C 80% Calm Calm -- 29.85 in1010.8 mb 0.00 in0.0 mm 0.00 in0.0 mm 0.00 in0.0 mm
11:11 PM 56.1°F13.4°C 59.6°F15.3°C 80% Calm Calm -- 29.85 in1010.8 mb 0.00 in0.0 mm 0.00 in0.0 mm 0.00 in0.0 mm
11:12 PM 56.1°F13.4°C 59.6°F15.3°C 80% Calm Calm -- 29.85 in1010.8 mb 0.00 in0.0 mm 0.00 in0.0 mm 0.00 in0.0 mm
11:14 PM 55.9°F13.3°C 59.5°F15.3°C 80% Calm Calm -- 29.85 in1010.8 mb 0.00 in0.0 mm 0.00 in0.0 mm 0.00 in0.0 mm
11:17 PM 55.6°F13.1°C 59.5°F15.3°C 80% Calm Calm -- 29.86 in1011.2 mb 0.00 in0.0 mm 0.00 in0.0 mm 0.00 in0.0 mm
11:18 PM 55.6°F13.1°C 59.6°F15.3°C 80% Calm Calm -- 29.86 in1011.2 mb 0.00 in0.0 mm 0.00 in0.0 mm 0.00 in0.0 mm
11:20 PM 55.6°F13.1°C 59.3°F15.2°C 80% Calm Calm -- 29.85 in1010.8 mb 0.00 in0.0 mm 0.00 in0.0 mm 0.00 in0.0 mm
11:21 PM 55.7°F13.2°C 59.3°F15.2°C 80% Calm Calm -- 29.85 in1010.8 mb 0.00 in0.0 mm 0.00 in0.0 mm 0.00 in0.0 mm